<?xml version="1.0" encoding="UTF-8" standalone="no" ?>
<gpx xmlns="http://www.topografix.com/GPX/1/1" xmlns:xsi="http://www.w3.org/2001/XMLSchema-instance" xsi:schemaLocation="http://www.topografix.com/GPX/1/1 http://www.topografix.com/GPX/1/1/gpx.xsd" version="1.1" creator="VisuGPX - https://www.visugpx.com">
  <metadata>
    <name>RSPG Haute Beaume- crêtes du Luzet</name>
    <desc><![CDATA[A partir du col de la haute Beaume, prendre le sentier qui monte vers les crêtes du Luzet, puis suivre les crêtes jusqu\'au col du Tat, la Valletoune et redescendre sur Montbrand. Animateurs Gigi et Bernard]]></desc>
  </metadata>
  <trk>
    <name><![CDATA[Haute Beaume-crêtes du Luzetl: 02 MAI 2013 08:46]]></name>
    <trkseg>
      <trkpt lat="44.57102" lon="5.63105">
        <ele>1264.75</ele>
        <time>2013-05-02T06:46:20Z</time>
      </trkpt>
      <trkpt lat="44.57098" lon="5.6311">
        <ele>1265.23</ele>
        <time>2013-05-02T06:46:43Z</time>
      </trkpt>
      <trkpt lat="44.57095" lon="5.6311">
        <ele>1264.75</ele>
        <time>2013-05-02T06:46:47Z</time>
      </trkpt>
      <trkpt lat="44.57095" lon="5.6311">
        <ele>1264.75</ele>
        <time>2013-05-02T06:46:59Z</time>
      </trkpt>
      <trkpt lat="44.57094" lon="5.63105">
        <ele>1264.27</ele>
        <time>2013-05-02T06:47:12Z</time>
      </trkpt>
      <trkpt lat="44.57088" lon="5.63099">
        <ele>1264.75</ele>
        <time>2013-05-02T06:47:22Z</time>
      </trkpt>
      <trkpt lat="44.57078" lon="5.63099">
        <ele>1267.64</ele>
        <time>2013-05-02T06:47:34Z</time>
      </trkpt>
      <trkpt lat="44.57074" lon="5.63099">
        <ele>1268.6</ele>
        <time>2013-05-02T06:47:40Z</time>
      </trkpt>
      <trkpt lat="44.57072" lon="5.63098">
        <ele>1269.08</ele>
        <time>2013-05-02T06:47:42Z</time>
      </trkpt>
      <trkpt lat="44.5707" lon="5.63098">
        <ele>1269.56</ele>
        <time>2013-05-02T06:47:44Z</time>
      </trkpt>
      <trkpt lat="44.57058" lon="5.63097">
        <ele>1271.96</ele>
        <time>2013-05-02T06:47:58Z</time>
      </trkpt>
      <trkpt lat="44.57045" lon="5.63094">
        <ele>1273.88</ele>
        <time>2013-05-02T06:48:12Z</time>
      </trkpt>
      <trkpt lat="44.57037" lon="5.63087">
        <ele>1275.33</ele>
        <time>2013-05-02T06:48:24Z</time>
      </trkpt>
      <trkpt lat="44.57032" lon="5.63079">
        <ele>1276.29</ele>
        <time>2013-05-02T06:48:32Z</time>
      </trkpt>
      <trkpt lat="44.57023" lon="5.63061">
        <ele>1278.69</ele>
        <time>2013-05-02T06:48:48Z</time>
      </trkpt>
      <trkpt lat="44.5702" lon="5.63053">
        <ele>1279.65</ele>
        <time>2013-05-02T06:48:56Z</time>
      </trkpt>
      <trkpt lat="44.57019" lon="5.6305">
        <ele>1280.13</ele>
        <time>2013-05-02T06:48:58Z</time>
      </trkpt>
      <trkpt lat="44.57017" lon="5.63034">
        <ele>1282.54</ele>
        <time>2013-05-02T06:49:14Z</time>
      </trkpt>
      <trkpt lat="44.57019" lon="5.63033">
        <ele>1283.02</ele>
        <time>2013-05-02T06:49:17Z</time>
      </trkpt>
      <trkpt lat="44.57027" lon="5.63039">
        <ele>1283.98</ele>
        <time>2013-05-02T06:49:30Z</time>
      </trkpt>
      <trkpt lat="44.57042" lon="5.63039">
        <ele>1285.42</ele>
        <time>2013-05-02T06:49:45Z</time>
      </trkpt>
      <trkpt lat="44.57052" lon="5.63031">
        <ele>1286.86</ele>
        <time>2013-05-02T06:49:58Z</time>
      </trkpt>
      <trkpt lat="44.57053" lon="5.63028">
        <ele>1286.86</ele>
        <time>2013-05-02T06:50:01Z</time>
      </trkpt>
      <trkpt lat="44.5706" lon="5.63013">
        <ele>1288.3</ele>
        <time>2013-05-02T06:50:15Z</time>
      </trkpt>
      <trkpt lat="44.57062" lon="5.63011">
        <ele>1288.78</ele>
        <time>2013-05-02T06:50:28Z</time>
      </trkpt>
      <trkpt lat="44.57063" lon="5.6301">
        <ele>1288.78</ele>
        <time>2013-05-02T06:50:45Z</time>
      </trkpt>
      <trkpt lat="44.57062" lon="5.63007">
        <ele>1288.78</ele>
        <time>2013-05-02T06:50:49Z</time>
      </trkpt>
      <trkpt lat="44.57061" lon="5.63001">
        <ele>1288.78</ele>
        <time>2013-05-02T06:50:53Z</time>
      </trkpt>
      <trkpt lat="44.57061" lon="5.62999">
        <ele>1289.27</ele>
        <time>2013-05-02T06:50:55Z</time>
      </trkpt>
      <trkpt lat="44.57052" lon="5.62986">
        <ele>1291.19</ele>
        <time>2013-05-02T06:51:08Z</time>
      </trkpt>
      <trkpt lat="44.57043" lon="5.62974">
        <ele>1292.15</ele>
        <time>2013-05-02T06:51:20Z</time>
      </trkpt>
      <trkpt lat="44.57037" lon="5.62961">
        <ele>1294.07</ele>
        <time>2013-05-02T06:51:34Z</time>
      </trkpt>
      <trkpt lat="44.57032" lon="5.62946">
        <ele>1295.51</ele>
        <time>2013-05-02T06:51:50Z</time>
      </trkpt>
      <trkpt lat="44.57028" lon="5.62935">
        <ele>1295.99</ele>
        <time>2013-05-02T06:52:02Z</time>
      </trkpt>
      <trkpt lat="44.57025" lon="5.62922">
        <ele>1297.92</ele>
        <time>2013-05-02T06:52:16Z</time>
      </trkpt>
      <trkpt lat="44.57025" lon="5.62921">
        <ele>1298.4</ele>
        <time>2013-05-02T06:52:17Z</time>
      </trkpt>
      <trkpt lat="44.57019" lon="5.62907">
        <ele>1300.32</ele>
        <time>2013-05-02T06:52:31Z</time>
      </trkpt>
      <trkpt lat="44.57019" lon="5.62894">
        <ele>1301.76</ele>
        <time>2013-05-02T06:52:45Z</time>
      </trkpt>
      <trkpt lat="44.57019" lon="5.62887">
        <ele>1302.72</ele>
        <time>2013-05-02T06:53:00Z</time>
      </trkpt>
      <trkpt lat="44.57017" lon="5.62875">
        <ele>1303.69</ele>
        <time>2013-05-02T06:53:12Z</time>
      </trkpt>
      <trkpt lat="44.57016" lon="5.62856">
        <ele>1305.13</ele>
        <time>2013-05-02T06:53:27Z</time>
      </trkpt>
      <trkpt lat="44.57013" lon="5.62838">
        <ele>1306.57</ele>
        <time>2013-05-02T06:53:41Z</time>
      </trkpt>
      <trkpt lat="44.57014" lon="5.62825">
        <ele>1307.53</ele>
        <time>2013-05-02T06:53:51Z</time>
      </trkpt>
      <trkpt lat="44.57012" lon="5.6281">
        <ele>1308.97</ele>
        <time>2013-05-02T06:54:04Z</time>
      </trkpt>
      <trkpt lat="44.57012" lon="5.62809">
        <ele>1309.45</ele>
        <time>2013-05-02T06:54:05Z</time>
      </trkpt>
      <trkpt lat="44.57011" lon="5.62804">
        <ele>1309.45</ele>
        <time>2013-05-02T06:54:09Z</time>
      </trkpt>
      <trkpt lat="44.57009" lon="5.62785">
        <ele>1310.9</ele>
        <time>2013-05-02T06:54:24Z</time>
      </trkpt>
      <trkpt lat="44.57008" lon="5.6278">
        <ele>1311.38</ele>
        <time>2013-05-02T06:54:28Z</time>
      </trkpt>
      <trkpt lat="44.57007" lon="5.62771">
        <ele>1312.34</ele>
        <time>2013-05-02T06:54:35Z</time>
      </trkpt>
      <trkpt lat="44.57006" lon="5.62769">
        <ele>1312.82</ele>
        <time>2013-05-02T06:54:37Z</time>
      </trkpt>
      <trkpt lat="44.57003" lon="5.6275">
        <ele>1313.78</ele>
        <time>2013-05-02T06:54:51Z</time>
      </trkpt>
      <trkpt lat="44.57" lon="5.62733">
        <ele>1315.22</ele>
        <time>2013-05-02T06:55:05Z</time>
      </trkpt>
      <trkpt lat="44.56998" lon="5.62717">
        <ele>1316.66</ele>
        <time>2013-05-02T06:55:18Z</time>
      </trkpt>
      <trkpt lat="44.56995" lon="5.62697">
        <ele>1318.59</ele>
        <time>2013-05-02T06:55:33Z</time>
      </trkpt>
      <trkpt lat="44.56992" lon="5.62679">
        <ele>1320.03</ele>
        <time>2013-05-02T06:55:47Z</time>
      </trkpt>
      <trkpt lat="44.56992" lon="5.62671">
        <ele>1320.51</ele>
        <time>2013-05-02T06:56:00Z</time>
      </trkpt>
      <trkpt lat="44.56992" lon="5.62661">
        <ele>1321.47</ele>
        <time>2013-05-02T06:56:12Z</time>
      </trkpt>
      <trkpt lat="44.56992" lon="5.62656">
        <ele>1321.95</ele>
        <time>2013-05-02T06:56:25Z</time>
      </trkpt>
      <trkpt lat="44.56992" lon="5.62648">
        <ele>1322.91</ele>
        <time>2013-05-02T06:56:39Z</time>
      </trkpt>
      <trkpt lat="44.56994" lon="5.62643">
        <ele>1322.91</ele>
        <time>2013-05-02T06:56:53Z</time>
      </trkpt>
      <trkpt lat="44.56991" lon="5.62643">
        <ele>1321.95</ele>
        <time>2013-05-02T06:57:16Z</time>
      </trkpt>
      <trkpt lat="44.56983" lon="5.62643">
        <ele>1322.43</ele>
        <time>2013-05-02T06:57:49Z</time>
      </trkpt>
      <trkpt lat="44.56982" lon="5.62641">
        <ele>1322.91</ele>
        <time>2013-05-02T06:58:25Z</time>
      </trkpt>
      <trkpt lat="44.56995" lon="5.6264">
        <ele>1323.39</ele>
        <time>2013-05-02T06:58:44Z</time>
      </trkpt>
      <trkpt lat="44.56995" lon="5.62632">
        <ele>1324.35</ele>
        <time>2013-05-02T06:59:00Z</time>
      </trkpt>
      <trkpt lat="44.56994" lon="5.62627">
        <ele>1324.35</ele>
        <time>2013-05-02T06:59:05Z</time>
      </trkpt>
      <trkpt lat="44.56993" lon="5.62607">
        <ele>1326.76</ele>
        <time>2013-05-02T06:59:21Z</time>
      </trkpt>
      <trkpt lat="44.56993" lon="5.62605">
        <ele>1327.24</ele>
        <time>2013-05-02T06:59:23Z</time>
      </trkpt>
      <trkpt lat="44.56995" lon="5.62588">
        <ele>1328.68</ele>
        <time>2013-05-02T06:59:36Z</time>
      </trkpt>
      <trkpt lat="44.56997" lon="5.62571">
        <ele>1330.12</ele>
        <time>2013-05-02T06:59:50Z</time>
      </trkpt>
      <trkpt lat="44.56999" lon="5.62552">
        <ele>1331.56</ele>
        <time>2013-05-02T07:00:04Z</time>
      </trkpt>
      <trkpt lat="44.57002" lon="5.62536">
        <ele>1333.01</ele>
        <time>2013-05-02T07:00:17Z</time>
      </trkpt>
      <trkpt lat="44.57007" lon="5.62517">
        <ele>1333.97</ele>
        <time>2013-05-02T07:00:32Z</time>
      </trkpt>
      <trkpt lat="44.57008" lon="5.62501">
        <ele>1335.41</ele>
        <time>2013-05-02T07:00:46Z</time>
      </trkpt>
      <trkpt lat="44.5701" lon="5.62485">
        <ele>1336.85</ele>
        <time>2013-05-02T07:01:01Z</time>
      </trkpt>
      <trkpt lat="44.57011" lon="5.6247">
        <ele>1338.29</ele>
        <time>2013-05-02T07:01:16Z</time>
      </trkpt>
      <trkpt lat="44.57011" lon="5.62454">
        <ele>1339.73</ele>
        <time>2013-05-02T07:01:31Z</time>
      </trkpt>
      <trkpt lat="44.57011" lon="5.62442">
        <ele>1341.66</ele>
        <time>2013-05-02T07:01:45Z</time>
      </trkpt>
      <trkpt lat="44.57012" lon="5.62428">
        <ele>1343.1</ele>
        <time>2013-05-02T07:01:59Z</time>
      </trkpt>
      <trkpt lat="44.57014" lon="5.62415">
        <ele>1345.02</ele>
        <time>2013-05-02T07:02:11Z</time>
      </trkpt>
      <trkpt lat="44.57015" lon="5.62406">
        <ele>1345.98</ele>
        <time>2013-05-02T07:02:19Z</time>
      </trkpt>
      <trkpt lat="44.57014" lon="5.6239">
        <ele>1347.91</ele>
        <time>2013-05-02T07:02:34Z</time>
      </trkpt>
      <trkpt lat="44.57015" lon="5.62374">
        <ele>1349.35</ele>
        <time>2013-05-02T07:02:49Z</time>
      </trkpt>
      <trkpt lat="44.57015" lon="5.6236">
        <ele>1350.79</ele>
        <time>2013-05-02T07:03:03Z</time>
      </trkpt>
      <trkpt lat="44.57016" lon="5.62349">
        <ele>1352.23</ele>
        <time>2013-05-02T07:03:16Z</time>
      </trkpt>
      <trkpt lat="44.57018" lon="5.62339">
        <ele>1353.67</ele>
        <time>2013-05-02T07:03:26Z</time>
      </trkpt>
      <trkpt lat="44.57018" lon="5.62326">
        <ele>1355.12</ele>
        <time>2013-05-02T07:03:40Z</time>
      </trkpt>
      <trkpt lat="44.5702" lon="5.62315">
        <ele>1357.04</ele>
        <time>2013-05-02T07:03:54Z</time>
      </trkpt>
      <trkpt lat="44.57022" lon="5.623">
        <ele>1358.48</ele>
        <time>2013-05-02T07:04:09Z</time>
      </trkpt>
      <trkpt lat="44.57021" lon="5.62287">
        <ele>1360.4</ele>
        <time>2013-05-02T07:04:23Z</time>
      </trkpt>
      <trkpt lat="44.57022" lon="5.62275">
        <ele>1362.33</ele>
        <time>2013-05-02T07:04:36Z</time>
      </trkpt>
      <trkpt lat="44.57023" lon="5.62261">
        <ele>1363.77</ele>
        <time>2013-05-02T07:04:50Z</time>
      </trkpt>
      <trkpt lat="44.57023" lon="5.62247">
        <ele>1365.69</ele>
        <time>2013-05-02T07:05:04Z</time>
      </trkpt>
      <trkpt lat="44.5702" lon="5.6223">
        <ele>1367.13</ele>
        <time>2013-05-02T07:05:20Z</time>
      </trkpt>
      <trkpt lat="44.57021" lon="5.62215">
        <ele>1368.09</ele>
        <time>2013-05-02T07:05:33Z</time>
      </trkpt>
      <trkpt lat="44.57028" lon="5.62205">
        <ele>1368.57</ele>
        <time>2013-05-02T07:05:47Z</time>
      </trkpt>
      <trkpt lat="44.57039" lon="5.62194">
        <ele>1369.05</ele>
        <time>2013-05-02T07:06:01Z</time>
      </trkpt>
      <trkpt lat="44.57043" lon="5.62182">
        <ele>1370.02</ele>
        <time>2013-05-02T07:06:14Z</time>
      </trkpt>
      <trkpt lat="44.57045" lon="5.62168">
        <ele>1371.46</ele>
        <time>2013-05-02T07:06:28Z</time>
      </trkpt>
      <trkpt lat="44.57046" lon="5.62154">
        <ele>1372.9</ele>
        <time>2013-05-02T07:06:43Z</time>
      </trkpt>
      <trkpt lat="44.5705" lon="5.62139">
        <ele>1374.34</ele>
        <time>2013-05-02T07:06:58Z</time>
      </trkpt>
      <trkpt lat="44.57048" lon="5.62127">
        <ele>1375.3</ele>
        <time>2013-05-02T07:07:10Z</time>
      </trkpt>
      <trkpt lat="44.57039" lon="5.62132">
        <ele>1377.23</ele>
        <time>2013-05-02T07:07:25Z</time>
      </trkpt>
      <trkpt lat="44.57035" lon="5.62141">
        <ele>1378.19</ele>
        <time>2013-05-02T07:07:37Z</time>
      </trkpt>
      <trkpt lat="44.5703" lon="5.62151">
        <ele>1380.11</ele>
        <time>2013-05-02T07:07:51Z</time>
      </trkpt>
      <trkpt lat="44.57025" lon="5.6216">
        <ele>1381.55</ele>
        <time>2013-05-02T07:08:05Z</time>
      </trkpt>
      <trkpt lat="44.5702" lon="5.62169">
        <ele>1382.99</ele>
        <time>2013-05-02T07:08:19Z</time>
      </trkpt>
      <trkpt lat="44.57013" lon="5.62176">
        <ele>1384.92</ele>
        <time>2013-05-02T07:08:34Z</time>
      </trkpt>
      <trkpt lat="44.57006" lon="5.62183">
        <ele>1385.88</ele>
        <time>2013-05-02T07:08:46Z</time>
      </trkpt>
      <trkpt lat="44.56999" lon="5.62188">
        <ele>1387.32</ele>
        <time>2013-05-02T07:09:03Z</time>
      </trkpt>
      <trkpt lat="44.56986" lon="5.62194">
        <ele>1389.72</ele>
        <time>2013-05-02T07:09:21Z</time>
      </trkpt>
      <trkpt lat="44.56981" lon="5.62206">
        <ele>1391.65</ele>
        <time>2013-05-02T07:09:35Z</time>
      </trkpt>
      <trkpt lat="44.56978" lon="5.62218">
        <ele>1393.57</ele>
        <time>2013-05-02T07:09:49Z</time>
      </trkpt>
      <trkpt lat="44.56976" lon="5.62231">
        <ele>1395.49</ele>
        <time>2013-05-02T07:10:03Z</time>
      </trkpt>
      <trkpt lat="44.56972" lon="5.62246">
        <ele>1397.41</ele>
        <time>2013-05-02T07:10:19Z</time>
      </trkpt>
      <trkpt lat="44.56968" lon="5.62257">
        <ele>1398.86</ele>
        <time>2013-05-02T07:10:32Z</time>
      </trkpt>
      <trkpt lat="44.56963" lon="5.62273">
        <ele>1400.78</ele>
        <time>2013-05-02T07:10:49Z</time>
      </trkpt>
      <trkpt lat="44.56959" lon="5.62286">
        <ele>1402.22</ele>
        <time>2013-05-02T07:11:05Z</time>
      </trkpt>
      <trkpt lat="44.56953" lon="5.623">
        <ele>1404.14</ele>
        <time>2013-05-02T07:11:21Z</time>
      </trkpt>
      <trkpt lat="44.56949" lon="5.62313">
        <ele>1405.58</ele>
        <time>2013-05-02T07:11:36Z</time>
      </trkpt>
      <trkpt lat="44.56944" lon="5.62327">
        <ele>1407.51</ele>
        <time>2013-05-02T07:11:53Z</time>
      </trkpt>
      <trkpt lat="44.56936" lon="5.6234">
        <ele>1408.95</ele>
        <time>2013-05-02T07:12:08Z</time>
      </trkpt>
      <trkpt lat="44.56932" lon="5.62352">
        <ele>1410.39</ele>
        <time>2013-05-02T07:12:21Z</time>
      </trkpt>
      <trkpt lat="44.56925" lon="5.62361">
        <ele>1412.31</ele>
        <time>2013-05-02T07:12:36Z</time>
      </trkpt>
      <trkpt lat="44.56923" lon="5.62359">
        <ele>1413.28</ele>
        <time>2013-05-02T07:12:53Z</time>
      </trkpt>
      <trkpt lat="44.56925" lon="5.62345">
        <ele>1414.72</ele>
        <time>2013-05-02T07:13:07Z</time>
      </trkpt>
      <trkpt lat="44.56928" lon="5.6233">
        <ele>1416.16</ele>
        <time>2013-05-02T07:13:21Z</time>
      </trkpt>
      <trkpt lat="44.56929" lon="5.62321">
        <ele>1416.16</ele>
        <time>2013-05-02T07:13:28Z</time>
      </trkpt>
      <trkpt lat="44.56931" lon="5.62303">
        <ele>1417.12</ele>
        <time>2013-05-02T07:13:43Z</time>
      </trkpt>
      <trkpt lat="44.56931" lon="5.623">
        <ele>1416.64</ele>
        <time>2013-05-02T07:13:45Z</time>
      </trkpt>
      <trkpt lat="44.56928" lon="5.62282">
        <ele>1417.12</ele>
        <time>2013-05-02T07:13:59Z</time>
      </trkpt>
      <trkpt lat="44.56925" lon="5.62269">
        <ele>1417.12</ele>
        <time>2013-05-02T07:14:09Z</time>
      </trkpt>
      <trkpt lat="44.56923" lon="5.62251">
        <ele>1416.64</ele>
        <time>2013-05-02T07:14:24Z</time>
      </trkpt>
      <trkpt lat="44.5692" lon="5.62234">
        <ele>1416.64</ele>
        <time>2013-05-02T07:14:40Z</time>
      </trkpt>
      <trkpt lat="44.56912" lon="5.62219">
        <ele>1417.12</ele>
        <time>2013-05-02T07:14:55Z</time>
      </trkpt>
      <trkpt lat="44.56903" lon="5.62206">
        <ele>1418.08</ele>
        <time>2013-05-02T07:15:10Z</time>
      </trkpt>
      <trkpt lat="44.56893" lon="5.62198">
        <ele>1419.04</ele>
        <time>2013-05-02T07:15:23Z</time>
      </trkpt>
      <trkpt lat="44.56886" lon="5.62189">
        <ele>1420.49</ele>
        <time>2013-05-02T07:15:33Z</time>
      </trkpt>
      <trkpt lat="44.56883" lon="5.62174">
        <ele>1421.45</ele>
        <time>2013-05-02T07:15:45Z</time>
      </trkpt>
      <trkpt lat="44.5688" lon="5.62156">
        <ele>1422.89</ele>
        <time>2013-05-02T07:16:00Z</time>
      </trkpt>
      <trkpt lat="44.56879" lon="5.62148">
        <ele>1423.37</ele>
        <time>2013-05-02T07:16:06Z</time>
      </trkpt>
      <trkpt lat="44.56876" lon="5.6213">
        <ele>1424.33</ele>
        <time>2013-05-02T07:16:20Z</time>
      </trkpt>
      <trkpt lat="44.56875" lon="5.62115">
        <ele>1425.77</ele>
        <time>2013-05-02T07:16:33Z</time>
      </trkpt>
      <trkpt lat="44.56877" lon="5.62101">
        <ele>1427.7</ele>
        <time>2013-05-02T07:16:46Z</time>
      </trkpt>
      <trkpt lat="44.56878" lon="5.621">
        <ele>1427.7</ele>
        <time>2013-05-02T07:16:47Z</time>
      </trkpt>
      <trkpt lat="44.56879" lon="5.62094">
        <ele>1428.18</ele>
        <time>2013-05-02T07:16:52Z</time>
      </trkpt>
      <trkpt lat="44.56881" lon="5.62073">
        <ele>1429.14</ele>
        <time>2013-05-02T07:17:08Z</time>
      </trkpt>
      <trkpt lat="44.56887" lon="5.62056">
        <ele>1430.58</ele>
        <time>2013-05-02T07:17:23Z</time>
      </trkpt>
      <trkpt lat="44.56894" lon="5.6204">
        <ele>1432.02</ele>
        <time>2013-05-02T07:17:38Z</time>
      </trkpt>
      <trkpt lat="44.56899" lon="5.62031">
        <ele>1432.98</ele>
        <time>2013-05-02T07:17:50Z</time>
      </trkpt>
      <trkpt lat="44.56905" lon="5.6202">
        <ele>1434.91</ele>
        <time>2013-05-02T07:18:04Z</time>
      </trkpt>
      <trkpt lat="44.56913" lon="5.62007">
        <ele>1435.39</ele>
        <time>2013-05-02T07:18:18Z</time>
      </trkpt>
      <trkpt lat="44.56922" lon="5.62">
        <ele>1436.83</ele>
        <time>2013-05-02T07:18:33Z</time>
      </trkpt>
      <trkpt lat="44.56925" lon="5.61996">
        <ele>1437.31</ele>
        <time>2013-05-02T07:18:38Z</time>
      </trkpt>
      <trkpt lat="44.56935" lon="5.61986">
        <ele>1436.83</ele>
        <time>2013-05-02T07:18:50Z</time>
      </trkpt>
      <trkpt lat="44.56945" lon="5.61969">
        <ele>1437.31</ele>
        <time>2013-05-02T07:19:06Z</time>
      </trkpt>
      <trkpt lat="44.56948" lon="5.61963">
        <ele>1437.31</ele>
        <time>2013-05-02T07:19:12Z</time>
      </trkpt>
      <trkpt lat="44.56949" lon="5.61959">
        <ele>1436.83</ele>
        <time>2013-05-02T07:19:15Z</time>
      </trkpt>
      <trkpt lat="44.56951" lon="5.61955">
        <ele>1436.83</ele>
        <time>2013-05-02T07:19:19Z</time>
      </trkpt>
      <trkpt lat="44.56955" lon="5.61935">
        <ele>1435.39</ele>
        <time>2013-05-02T07:19:35Z</time>
      </trkpt>
      <trkpt lat="44.56957" lon="5.61914">
        <ele>1434.42</ele>
        <time>2013-05-02T07:19:52Z</time>
      </trkpt>
      <trkpt lat="44.56958" lon="5.61902">
        <ele>1433.94</ele>
        <time>2013-05-02T07:20:06Z</time>
      </trkpt>
      <trkpt lat="44.56957" lon="5.619">
        <ele>1432.98</ele>
        <time>2013-05-02T07:20:16Z</time>
      </trkpt>
      <trkpt lat="44.56955" lon="5.61901">
        <ele>1433.94</ele>
        <time>2013-05-02T07:20:45Z</time>
      </trkpt>
      <trkpt lat="44.56958" lon="5.61894">
        <ele>1433.46</ele>
        <time>2013-05-02T07:20:57Z</time>
      </trkpt>
      <trkpt lat="44.5696" lon="5.61875">
        <ele>1433.46</ele>
        <time>2013-05-02T07:21:10Z</time>
      </trkpt>
      <trkpt lat="44.56959" lon="5.61869">
        <ele>1433.46</ele>
        <time>2013-05-02T07:21:14Z</time>
      </trkpt>
      <trkpt lat="44.56958" lon="5.61861">
        <ele>1433.46</ele>
        <time>2013-05-02T07:21:19Z</time>
      </trkpt>
      <trkpt lat="44.56957" lon="5.61841">
        <ele>1433.46</ele>
        <time>2013-05-02T07:21:32Z</time>
      </trkpt>
      <trkpt lat="44.56955" lon="5.61822">
        <ele>1433.94</ele>
        <time>2013-05-02T07:21:44Z</time>
      </trkpt>
      <trkpt lat="44.56952" lon="5.61801">
        <ele>1434.91</ele>
        <time>2013-05-02T07:21:57Z</time>
      </trkpt>
      <trkpt lat="44.56953" lon="5.61778">
        <ele>1435.87</ele>
        <time>2013-05-02T07:22:12Z</time>
      </trkpt>
      <trkpt lat="44.56954" lon="5.61777">
        <ele>1435.87</ele>
        <time>2013-05-02T07:22:13Z</time>
      </trkpt>
      <trkpt lat="44.56956" lon="5.61774">
        <ele>1436.35</ele>
        <time>2013-05-02T07:22:17Z</time>
      </trkpt>
      <trkpt lat="44.56962" lon="5.61754">
        <ele>1437.79</ele>
        <time>2013-05-02T07:22:31Z</time>
      </trkpt>
      <trkpt lat="44.56967" lon="5.61743">
        <ele>1437.31</ele>
        <time>2013-05-02T07:22:38Z</time>
      </trkpt>
      <trkpt lat="44.56967" lon="5.61738">
        <ele>1437.31</ele>
        <time>2013-05-02T07:22:41Z</time>
      </trkpt>
      <trkpt lat="44.5698" lon="5.61726">
        <ele>1437.31</ele>
        <time>2013-05-02T07:22:55Z</time>
      </trkpt>
      <trkpt lat="44.56995" lon="5.61719">
        <ele>1438.27</ele>
        <time>2013-05-02T07:23:10Z</time>
      </trkpt>
      <trkpt lat="44.56996" lon="5.61717">
        <ele>1438.27</ele>
        <time>2013-05-02T07:23:12Z</time>
      </trkpt>
      <trkpt lat="44.57013" lon="5.61709">
        <ele>1438.27</ele>
        <time>2013-05-02T07:23:30Z</time>
      </trkpt>
      <trkpt lat="44.57017" lon="5.61703">
        <ele>1440.67</ele>
        <time>2013-05-02T07:23:46Z</time>
      </trkpt>
      <trkpt lat="44.5702" lon="5.617">
        <ele>1441.63</ele>
        <time>2013-05-02T07:24:01Z</time>
      </trkpt>
      <trkpt lat="44.57026" lon="5.61696">
        <ele>1442.6</ele>
        <time>2013-05-02T07:24:16Z</time>
      </trkpt>
      <trkpt lat="44.57032" lon="5.61696">
        <ele>1443.56</ele>
        <time>2013-05-02T07:24:30Z</time>
      </trkpt>
      <trkpt lat="44.57038" lon="5.61695">
        <ele>1445</ele>
        <time>2013-05-02T07:24:44Z</time>
      </trkpt>
      <trkpt lat="44.57047" lon="5.61695">
        <ele>1446.44</ele>
        <time>2013-05-02T07:24:58Z</time>
      </trkpt>
      <trkpt lat="44.57051" lon="5.6169">
        <ele>1448.36</ele>
        <time>2013-05-02T07:25:09Z</time>
      </trkpt>
      <trkpt lat="44.57057" lon="5.61684">
        <ele>1450.77</ele>
        <time>2013-05-02T07:25:23Z</time>
      </trkpt>
      <trkpt lat="44.57062" lon="5.61684">
        <ele>1452.69</ele>
        <time>2013-05-02T07:25:35Z</time>
      </trkpt>
      <trkpt lat="44.57067" lon="5.61679">
        <ele>1455.09</ele>
        <time>2013-05-02T07:25:47Z</time>
      </trkpt>
      <trkpt lat="44.57069" lon="5.61679">
        <ele>1456.53</ele>
        <time>2013-05-02T07:25:58Z</time>
      </trkpt>
      <trkpt lat="44.57073" lon="5.61679">
        <ele>1458.46</ele>
        <time>2013-05-02T07:26:14Z</time>
      </trkpt>
      <trkpt lat="44.57078" lon="5.61678">
        <ele>1459.9</ele>
        <time>2013-05-02T07:26:28Z</time>
      </trkpt>
      <trkpt lat="44.57085" lon="5.61679">
        <ele>1462.3</ele>
        <time>2013-05-02T07:26:47Z</time>
      </trkpt>
      <trkpt lat="44.57092" lon="5.61685">
        <ele>1463.74</ele>
        <time>2013-05-02T07:27:03Z</time>
      </trkpt>
      <trkpt lat="44.571" lon="5.61685">
        <ele>1465.67</ele>
        <time>2013-05-02T07:27:18Z</time>
      </trkpt>
      <trkpt lat="44.57105" lon="5.61684">
        <ele>1467.11</ele>
        <time>2013-05-02T07:27:30Z</time>
      </trkpt>
      <trkpt lat="44.57114" lon="5.61683">
        <ele>1469.51</ele>
        <time>2013-05-02T07:27:46Z</time>
      </trkpt>
      <trkpt lat="44.57125" lon="5.61682">
        <ele>1471.92</ele>
        <time>2013-05-02T07:28:00Z</time>
      </trkpt>
      <trkpt lat="44.57133" lon="5.61682">
        <ele>1473.36</ele>
        <time>2013-05-02T07:28:15Z</time>
      </trkpt>
      <trkpt lat="44.57137" lon="5.61683">
        <ele>1473.36</ele>
        <time>2013-05-02T07:28:21Z</time>
      </trkpt>
      <trkpt lat="44.57147" lon="5.61681">
        <ele>1475.28</ele>
        <time>2013-05-02T07:28:34Z</time>
      </trkpt>
      <trkpt lat="44.57149" lon="5.61681">
        <ele>1475.28</ele>
        <time>2013-05-02T07:28:36Z</time>
      </trkpt>
      <trkpt lat="44.57163" lon="5.61669">
        <ele>1477.2</ele>
        <time>2013-05-02T07:28:52Z</time>
      </trkpt>
      <trkpt lat="44.57164" lon="5.61669">
        <ele>1477.2</ele>
        <time>2013-05-02T07:28:53Z</time>
      </trkpt>
      <trkpt lat="44.57166" lon="5.61667">
        <ele>1477.2</ele>
        <time>2013-05-02T07:28:55Z</time>
      </trkpt>
      <trkpt lat="44.57177" lon="5.61658">
        <ele>1478.65</ele>
        <time>2013-05-02T07:29:12Z</time>
      </trkpt>
      <trkpt lat="44.57177" lon="5.6166">
        <ele>1478.65</ele>
        <time>2013-05-02T07:29:30Z</time>
      </trkpt>
      <trkpt lat="44.57182" lon="5.61654">
        <ele>1478.65</ele>
        <time>2013-05-02T07:29:43Z</time>
      </trkpt>
      <trkpt lat="44.57188" lon="5.61653">
        <ele>1477.68</ele>
        <time>2013-05-02T07:29:58Z</time>
      </trkpt>
      <trkpt lat="44.57188" lon="5.61649">
        <ele>1478.16</ele>
        <time>2013-05-02T07:30:08Z</time>
      </trkpt>
      <trkpt lat="44.57189" lon="5.61639">
        <ele>1480.57</ele>
        <time>2013-05-02T07:30:20Z</time>
      </trkpt>
      <trkpt lat="44.57194" lon="5.61644">
        <ele>1478.65</ele>
        <time>2013-05-02T07:30:36Z</time>
      </trkpt>
      <trkpt lat="44.57203" lon="5.61642">
        <ele>1477.2</ele>
        <time>2013-05-02T07:30:50Z</time>
      </trkpt>
      <trkpt lat="44.57213" lon="5.61629">
        <ele>1477.68</ele>
        <time>2013-05-02T07:31:04Z</time>
      </trkpt>
      <trkpt lat="44.57221" lon="5.61621">
        <ele>1477.68</ele>
        <time>2013-05-02T07:31:14Z</time>
      </trkpt>
      <trkpt lat="44.57228" lon="5.61614">
        <ele>1477.68</ele>
        <time>2013-05-02T07:31:23Z</time>
      </trkpt>
      <trkpt lat="44.57241" lon="5.61603">
        <ele>1478.65</ele>
        <time>2013-05-02T07:31:38Z</time>
      </trkpt>
      <trkpt lat="44.57256" lon="5.61595">
        <ele>1477.68</ele>
        <time>2013-05-02T07:31:53Z</time>
      </trkpt>
      <trkpt lat="44.57265" lon="5.6159">
        <ele>1477.2</ele>
        <time>2013-05-02T07:32:06Z</time>
      </trkpt>
      <trkpt lat="44.57279" lon="5.61593">
        <ele>1478.16</ele>
        <time>2013-05-02T07:32:21Z</time>
      </trkpt>
      <trkpt lat="44.57285" lon="5.61597">
        <ele>1478.16</ele>
        <time>2013-05-02T07:32:36Z</time>
      </trkpt>
      <trkpt lat="44.57292" lon="5.61597">
        <ele>1478.16</ele>
        <time>2013-05-02T07:32:50Z</time>
      </trkpt>
      <trkpt lat="44.57314" lon="5.61595">
        <ele>1478.65</ele>
        <time>2013-05-02T07:33:09Z</time>
      </trkpt>
      <trkpt lat="44.57319" lon="5.61596">
        <ele>1478.65</ele>
        <time>2013-05-02T07:33:14Z</time>
      </trkpt>
      <trkpt lat="44.5732" lon="5.61599">
        <ele>1478.16</ele>
        <time>2013-05-02T07:33:16Z</time>
      </trkpt>
      <trkpt lat="44.57322" lon="5.61602">
        <ele>1478.16</ele>
        <time>2013-05-02T07:33:19Z</time>
      </trkpt>
      <trkpt lat="44.5733" lon="5.61611">
        <ele>1475.76</ele>
        <time>2013-05-02T07:33:31Z</time>
      </trkpt>
      <trkpt lat="44.57347" lon="5.61604">
        <ele>1476.72</ele>
        <time>2013-05-02T07:33:49Z</time>
      </trkpt>
      <trkpt lat="44.57354" lon="5.61604">
        <ele>1476.24</ele>
        <time>2013-05-02T07:33:57Z</time>
      </trkpt>
      <trkpt lat="44.57358" lon="5.61603">
        <ele>1476.72</ele>
        <time>2013-05-02T07:34:01Z</time>
      </trkpt>
      <trkpt lat="44.57362" lon="5.61603">
        <ele>1476.72</ele>
        <time>2013-05-02T07:34:04Z</time>
      </trkpt>
      <trkpt lat="44.57373" lon="5.61598">
        <ele>1477.68</ele>
        <time>2013-05-02T07:34:15Z</time>
      </trkpt>
      <trkpt lat="44.57383" lon="5.616">
        <ele>1478.16</ele>
        <time>2013-05-02T07:34:25Z</time>
      </trkpt>
      <trkpt lat="44.57392" lon="5.61613">
        <ele>1478.65</ele>
        <time>2013-05-02T07:34:37Z</time>
      </trkpt>
      <trkpt lat="44.57397" lon="5.61617">
        <ele>1479.13</ele>
        <time>2013-05-02T07:34:42Z</time>
      </trkpt>
      <trkpt lat="44.57404" lon="5.61624">
        <ele>1480.57</ele>
        <time>2013-05-02T07:34:50Z</time>
      </trkpt>
      <trkpt lat="44.57406" lon="5.61625">
        <ele>1480.57</ele>
        <time>2013-05-02T07:34:52Z</time>
      </trkpt>
      <trkpt lat="44.57412" lon="5.61633">
        <ele>1482.01</ele>
        <time>2013-05-02T07:35:03Z</time>
      </trkpt>
      <trkpt lat="44.57415" lon="5.61635">
        <ele>1482.49</ele>
        <time>2013-05-02T07:35:07Z</time>
      </trkpt>
      <trkpt lat="44.57426" lon="5.61648">
        <ele>1483.93</ele>
        <time>2013-05-02T07:35:21Z</time>
      </trkpt>
      <trkpt lat="44.57432" lon="5.61654">
        <ele>1484.41</ele>
        <time>2013-05-02T07:35:28Z</time>
      </trkpt>
      <trkpt lat="44.57437" lon="5.6166">
        <ele>1485.37</ele>
        <time>2013-05-02T07:35:35Z</time>
      </trkpt>
      <trkpt lat="44.5744" lon="5.61663">
        <ele>1485.85</ele>
        <time>2013-05-02T07:35:39Z</time>
      </trkpt>
      <trkpt lat="44.57454" lon="5.61677">
        <ele>1487.3</ele>
        <time>2013-05-02T07:35:55Z</time>
      </trkpt>
      <trkpt lat="44.57467" lon="5.61686">
        <ele>1488.74</ele>
        <time>2013-05-02T07:36:10Z</time>
      </trkpt>
      <trkpt lat="44.57478" lon="5.61696">
        <ele>1491.14</ele>
        <time>2013-05-02T07:36:26Z</time>
      </trkpt>
      <trkpt lat="44.57486" lon="5.61702">
        <ele>1493.06</ele>
        <time>2013-05-02T07:36:39Z</time>
      </trkpt>
      <trkpt lat="44.5749" lon="5.617">
        <ele>1493.55</ele>
        <time>2013-05-02T07:36:47Z</time>
      </trkpt>
      <trkpt lat="44.57491" lon="5.61699">
        <ele>1494.03</ele>
        <time>2013-05-02T07:36:49Z</time>
      </trkpt>
      <trkpt lat="44.57491" lon="5.6168">
        <ele>1495.47</ele>
        <time>2013-05-02T07:37:03Z</time>
      </trkpt>
      <trkpt lat="44.57489" lon="5.61677">
        <ele>1495.95</ele>
        <time>2013-05-02T07:37:06Z</time>
      </trkpt>
      <trkpt lat="44.57489" lon="5.61674">
        <ele>1495.95</ele>
        <time>2013-05-02T07:37:08Z</time>
      </trkpt>
      <trkpt lat="44.57488" lon="5.61672">
        <ele>1496.43</ele>
        <time>2013-05-02T07:37:10Z</time>
      </trkpt>
      <trkpt lat="44.57488" lon="5.61667">
        <ele>1496.43</ele>
        <time>2013-05-02T07:37:14Z</time>
      </trkpt>
      <trkpt lat="44.57491" lon="5.61652">
        <ele>1497.87</ele>
        <time>2013-05-02T07:37:27Z</time>
      </trkpt>
      <trkpt lat="44.57497" lon="5.61652">
        <ele>1499.31</ele>
        <time>2013-05-02T07:37:38Z</time>
      </trkpt>
      <trkpt lat="44.57501" lon="5.61653">
        <ele>1499.79</ele>
        <time>2013-05-02T07:37:54Z</time>
      </trkpt>
      <trkpt lat="44.57499" lon="5.61656">
        <ele>1500.27</ele>
        <time>2013-05-02T07:38:01Z</time>
      </trkpt>
      <trkpt lat="44.57495" lon="5.61666">
        <ele>1499.79</ele>
        <time>2013-05-02T07:38:16Z</time>
      </trkpt>
      <trkpt lat="44.57494" lon="5.61665">
        <ele>1499.79</ele>
        <time>2013-05-02T07:38:48Z</time>
      </trkpt>
      <trkpt lat="44.57495" lon="5.61666">
        <ele>1499.79</ele>
        <time>2013-05-02T07:39:20Z</time>
      </trkpt>
      <trkpt lat="44.57495" lon="5.61664">
        <ele>1499.31</ele>
        <time>2013-05-02T07:39:49Z</time>
      </trkpt>
      <trkpt lat="44.57501" lon="5.61657">
        <ele>1499.79</ele>
        <time>2013-05-02T07:40:00Z</time>
      </trkpt>
      <trkpt lat="44.57506" lon="5.61651">
        <ele>1500.27</ele>
        <time>2013-05-02T07:40:15Z</time>
      </trkpt>
      <trkpt lat="44.57505" lon="5.61647">
        <ele>1499.31</ele>
        <time>2013-05-02T07:40:28Z</time>
      </trkpt>
      <trkpt lat="44.57506" lon="5.61648">
        <ele>1499.31</ele>
        <time>2013-05-02T07:40:47Z</time>
      </trkpt>
      <trkpt lat="44.57508" lon="5.61648">
        <ele>1499.31</ele>
        <time>2013-05-02T07:41:22Z</time>
      </trkpt>
      <trkpt lat="44.57507" lon="5.61649">
        <ele>1499.31</ele>
        <time>2013-05-02T07:41:57Z</time>
      </trkpt>
      <trkpt lat="44.57509" lon="5.61653">
        <ele>1499.31</ele>
        <time>2013-05-02T07:42:35Z</time>
      </trkpt>
      <trkpt lat="44.57507" lon="5.61652">
        <ele>1499.31</ele>
        <time>2013-05-02T07:43:18Z</time>
      </trkpt>
      <trkpt lat="44.57508" lon="5.61651">
        <ele>1499.31</ele>
        <time>2013-05-02T07:43:51Z</time>
      </trkpt>
      <trkpt lat="44.57509" lon="5.61649">
        <ele>1499.31</ele>
        <time>2013-05-02T07:44:21Z</time>
      </trkpt>
      <trkpt lat="44.57504" lon="5.61648">
        <ele>1498.83</ele>
        <time>2013-05-02T07:44:43Z</time>
      </trkpt>
      <trkpt lat="44.57506" lon="5.61645">
        <ele>1499.31</ele>
        <time>2013-05-02T07:45:09Z</time>
      </trkpt>
      <trkpt lat="44.57506" lon="5.61646">
        <ele>1500.76</ele>
        <time>2013-05-02T07:45:12Z</time>
      </trkpt>
      <trkpt lat="44.57506" lon="5.61648">
        <ele>1499.31</ele>
        <time>2013-05-02T07:45:22Z</time>
      </trkpt>
      <trkpt lat="44.57503" lon="5.61644">
        <ele>1498.83</ele>
        <time>2013-05-02T07:45:46Z</time>
      </trkpt>
      <trkpt lat="44.575" lon="5.61643">
        <ele>1498.83</ele>
        <time>2013-05-02T07:46:11Z</time>
      </trkpt>
      <trkpt lat="44.57501" lon="5.61644">
        <ele>1498.83</ele>
        <time>2013-05-02T07:46:38Z</time>
      </trkpt>
      <trkpt lat="44.57503" lon="5.61649">
        <ele>1500.27</ele>
        <time>2013-05-02T07:46:54Z</time>
      </trkpt>
      <trkpt lat="44.57504" lon="5.61653">
        <ele>1499.31</ele>
        <time>2013-05-02T07:47:07Z</time>
      </trkpt>
      <trkpt lat="44.57505" lon="5.61649">
        <ele>1498.83</ele>
        <time>2013-05-02T07:47:30Z</time>
      </trkpt>
      <trkpt lat="44.57508" lon="5.61651">
        <ele>1500.76</ele>
        <time>2013-05-02T07:47:47Z</time>
      </trkpt>
      <trkpt lat="44.57509" lon="5.61647">
        <ele>1500.27</ele>
        <time>2013-05-02T07:48:08Z</time>
      </trkpt>
      <trkpt lat="44.57509" lon="5.61645">
        <ele>1499.79</ele>
        <time>2013-05-02T07:48:27Z</time>
      </trkpt>
      <trkpt lat="44.57507" lon="5.61651">
        <ele>1500.27</ele>
        <time>2013-05-02T07:48:43Z</time>
      </trkpt>
      <trkpt lat="44.57512" lon="5.61652">
        <ele>1501.24</ele>
        <time>2013-05-02T07:48:58Z</time>
      </trkpt>
      <trkpt lat="44.57518" lon="5.61652">
        <ele>1501.72</ele>
        <time>2013-05-02T07:49:20Z</time>
      </trkpt>
      <trkpt lat="44.57523" lon="5.61653">
        <ele>1503.64</ele>
        <time>2013-05-02T07:49:33Z</time>
      </trkpt>
      <trkpt lat="44.5753" lon="5.61652">
        <ele>1504.6</ele>
        <time>2013-05-02T07:49:46Z</time>
      </trkpt>
      <trkpt lat="44.57537" lon="5.61651">
        <ele>1505.56</ele>
        <time>2013-05-02T07:50:00Z</time>
      </trkpt>
      <trkpt lat="44.57541" lon="5.61651">
        <ele>1506.52</ele>
        <time>2013-05-02T07:50:20Z</time>
      </trkpt>
      <trkpt lat="44.57546" lon="5.61654">
        <ele>1507.97</ele>
        <time>2013-05-02T07:50:34Z</time>
      </trkpt>
      <trkpt lat="44.57554" lon="5.61652">
        <ele>1510.85</ele>
        <time>2013-05-02T07:50:49Z</time>
      </trkpt>
      <trkpt lat="44.57561" lon="5.61657">
        <ele>1512.29</ele>
        <time>2013-05-02T07:51:04Z</time>
      </trkpt>
      <trkpt lat="44.57563" lon="5.61658">
        <ele>1513.73</ele>
        <time>2013-05-02T07:51:22Z</time>
      </trkpt>
      <trkpt lat="44.5757" lon="5.61659">
        <ele>1514.69</ele>
        <time>2013-05-02T07:51:39Z</time>
      </trkpt>
      <trkpt lat="44.57574" lon="5.61661">
        <ele>1516.14</ele>
        <time>2013-05-02T07:51:50Z</time>
      </trkpt>
      <trkpt lat="44.57576" lon="5.61661">
        <ele>1517.1</ele>
        <time>2013-05-02T07:52:05Z</time>
      </trkpt>
      <trkpt lat="44.57581" lon="5.61663">
        <ele>1519.5</ele>
        <time>2013-05-02T07:52:20Z</time>
      </trkpt>
      <trkpt lat="44.57583" lon="5.61668">
        <ele>1520.94</ele>
        <time>2013-05-02T07:52:31Z</time>
      </trkpt>
      <trkpt lat="44.57588" lon="5.61671">
        <ele>1522.87</ele>
        <time>2013-05-02T07:52:44Z</time>
      </trkpt>
      <trkpt lat="44.57596" lon="5.61676">
        <ele>1524.79</ele>
        <time>2013-05-02T07:52:58Z</time>
      </trkpt>
      <trkpt lat="44.57608" lon="5.61681">
        <ele>1525.75</ele>
        <time>2013-05-02T07:53:13Z</time>
      </trkpt>
      <trkpt lat="44.57616" lon="5.6168">
        <ele>1528.63</ele>
        <time>2013-05-02T07:53:28Z</time>
      </trkpt>
      <trkpt lat="44.57625" lon="5.61681">
        <ele>1531.04</ele>
        <time>2013-05-02T07:53:43Z</time>
      </trkpt>
      <trkpt lat="44.57631" lon="5.61679">
        <ele>1532</ele>
        <time>2013-05-02T07:53:54Z</time>
      </trkpt>
      <trkpt lat="44.57639" lon="5.6168">
        <ele>1534.4</ele>
        <time>2013-05-02T07:54:10Z</time>
      </trkpt>
      <trkpt lat="44.57647" lon="5.6168">
        <ele>1536.32</ele>
        <time>2013-05-02T07:54:24Z</time>
      </trkpt>
      <trkpt lat="44.57655" lon="5.61682">
        <ele>1537.29</ele>
        <time>2013-05-02T07:54:36Z</time>
      </trkpt>
      <trkpt lat="44.57664" lon="5.6168">
        <ele>1539.69</ele>
        <time>2013-05-02T07:54:51Z</time>
      </trkpt>
      <trkpt lat="44.57669" lon="5.61679">
        <ele>1541.13</ele>
        <time>2013-05-02T07:55:01Z</time>
      </trkpt>
      <trkpt lat="44.57681" lon="5.61685">
        <ele>1541.61</ele>
        <time>2013-05-02T07:55:17Z</time>
      </trkpt>
      <trkpt lat="44.5769" lon="5.61689">
        <ele>1542.09</ele>
        <time>2013-05-02T07:55:30Z</time>
      </trkpt>
      <trkpt lat="44.57703" lon="5.61689">
        <ele>1543.53</ele>
        <time>2013-05-02T07:55:45Z</time>
      </trkpt>
      <trkpt lat="44.57712" lon="5.61687">
        <ele>1544.98</ele>
        <time>2013-05-02T07:55:57Z</time>
      </trkpt>
      <trkpt lat="44.57713" lon="5.61688">
        <ele>1545.46</ele>
        <time>2013-05-02T07:56:09Z</time>
      </trkpt>
      <trkpt lat="44.57722" lon="5.61686">
        <ele>1546.9</ele>
        <time>2013-05-02T07:56:21Z</time>
      </trkpt>
      <trkpt lat="44.57728" lon="5.61685">
        <ele>1547.86</ele>
        <time>2013-05-02T07:56:37Z</time>
      </trkpt>
      <trkpt lat="44.57735" lon="5.61685">
        <ele>1548.34</ele>
        <time>2013-05-02T07:56:55Z</time>
      </trkpt>
      <trkpt lat="44.57743" lon="5.61688">
        <ele>1549.78</ele>
        <time>2013-05-02T07:57:08Z</time>
      </trkpt>
      <trkpt lat="44.57749" lon="5.61688">
        <ele>1550.74</ele>
        <time>2013-05-02T07:57:16Z</time>
      </trkpt>
      <trkpt lat="44.57757" lon="5.6169">
        <ele>1550.74</ele>
        <time>2013-05-02T07:57:31Z</time>
      </trkpt>
      <trkpt lat="44.57762" lon="5.61692">
        <ele>1551.22</ele>
        <time>2013-05-02T07:57:44Z</time>
      </trkpt>
      <trkpt lat="44.57766" lon="5.61692">
        <ele>1551.22</ele>
        <time>2013-05-02T07:57:48Z</time>
      </trkpt>
      <trkpt lat="44.57782" lon="5.61697">
        <ele>1551.22</ele>
        <time>2013-05-02T07:58:05Z</time>
      </trkpt>
      <trkpt lat="44.57793" lon="5.61701">
        <ele>1550.26</ele>
        <time>2013-05-02T07:58:16Z</time>
      </trkpt>
      <trkpt lat="44.57801" lon="5.61697">
        <ele>1552.19</ele>
        <time>2013-05-02T07:58:31Z</time>
      </trkpt>
      <trkpt lat="44.5781" lon="5.61697">
        <ele>1554.59</ele>
        <time>2013-05-02T07:58:45Z</time>
      </trkpt>
      <trkpt lat="44.57818" lon="5.61699">
        <ele>1555.07</ele>
        <time>2013-05-02T07:58:59Z</time>
      </trkpt>
      <trkpt lat="44.57829" lon="5.61699">
        <ele>1556.99</ele>
        <time>2013-05-02T07:59:15Z</time>
      </trkpt>
      <trkpt lat="44.57839" lon="5.61705">
        <ele>1557.47</ele>
        <time>2013-05-02T07:59:30Z</time>
      </trkpt>
      <trkpt lat="44.57845" lon="5.61706">
        <ele>1558.43</ele>
        <time>2013-05-02T07:59:44Z</time>
      </trkpt>
      <trkpt lat="44.57849" lon="5.61706">
        <ele>1558.92</ele>
        <time>2013-05-02T08:00:00Z</time>
      </trkpt>
      <trkpt lat="44.57853" lon="5.61708">
        <ele>1559.4</ele>
        <time>2013-05-02T08:00:10Z</time>
      </trkpt>
      <trkpt lat="44.57865" lon="5.61716">
        <ele>1560.36</ele>
        <time>2013-05-02T08:00:25Z</time>
      </trkpt>
      <trkpt lat="44.57872" lon="5.61719">
        <ele>1561.8</ele>
        <time>2013-05-02T08:00:39Z</time>
      </trkpt>
      <trkpt lat="44.57876" lon="5.6172">
        <ele>1562.28</ele>
        <time>2013-05-02T08:00:51Z</time>
      </trkpt>
      <trkpt lat="44.57883" lon="5.61721">
        <ele>1563.72</ele>
        <time>2013-05-02T08:01:04Z</time>
      </trkpt>
      <trkpt lat="44.57888" lon="5.6172">
        <ele>1566.12</ele>
        <time>2013-05-02T08:01:15Z</time>
      </trkpt>
      <trkpt lat="44.57895" lon="5.61719">
        <ele>1568.53</ele>
        <time>2013-05-02T08:01:28Z</time>
      </trkpt>
      <trkpt lat="44.57902" lon="5.61718">
        <ele>1571.41</ele>
        <time>2013-05-02T08:01:45Z</time>
      </trkpt>
      <trkpt lat="44.57911" lon="5.61721">
        <ele>1572.85</ele>
        <time>2013-05-02T08:02:00Z</time>
      </trkpt>
      <trkpt lat="44.57918" lon="5.61724">
        <ele>1573.82</ele>
        <time>2013-05-02T08:02:12Z</time>
      </trkpt>
      <trkpt lat="44.57927" lon="5.61725">
        <ele>1575.74</ele>
        <time>2013-05-02T08:02:26Z</time>
      </trkpt>
      <trkpt lat="44.57935" lon="5.61727">
        <ele>1576.7</ele>
        <time>2013-05-02T08:02:40Z</time>
      </trkpt>
      <trkpt lat="44.5794" lon="5.61728">
        <ele>1577.18</ele>
        <time>2013-05-02T08:02:52Z</time>
      </trkpt>
      <trkpt lat="44.5795" lon="5.61733">
        <ele>1577.66</ele>
        <time>2013-05-02T08:03:07Z</time>
      </trkpt>
      <trkpt lat="44.57956" lon="5.61733">
        <ele>1579.1</ele>
        <time>2013-05-02T08:03:19Z</time>
      </trkpt>
      <trkpt lat="44.57959" lon="5.61736">
        <ele>1579.1</ele>
        <time>2013-05-02T08:03:31Z</time>
      </trkpt>
      <trkpt lat="44.57963" lon="5.61736">
        <ele>1579.1</ele>
        <time>2013-05-02T08:03:46Z</time>
      </trkpt>
      <trkpt lat="44.57971" lon="5.61737">
        <ele>1579.58</ele>
        <time>2013-05-02T08:04:01Z</time>
      </trkpt>
      <trkpt lat="44.57977" lon="5.61739">
        <ele>1579.58</ele>
        <time>2013-05-02T08:04:07Z</time>
      </trkpt>
      <trkpt lat="44.5799" lon="5.61741">
        <ele>1580.54</ele>
        <time>2013-05-02T08:04:21Z</time>
      </trkpt>
      <trkpt lat="44.58005" lon="5.61744">
        <ele>1580.06</ele>
        <time>2013-05-02T08:04:37Z</time>
      </trkpt>
      <trkpt lat="44.58017" lon="5.61736">
        <ele>1582.47</ele>
        <time>2013-05-02T08:04:52Z</time>
      </trkpt>
      <trkpt lat="44.58027" lon="5.6173">
        <ele>1583.43</ele>
        <time>2013-05-02T08:05:05Z</time>
      </trkpt>
      <trkpt lat="44.58041" lon="5.61727">
        <ele>1583.91</ele>
        <time>2013-05-02T08:05:20Z</time>
      </trkpt>
      <trkpt lat="44.58059" lon="5.61725">
        <ele>1582.95</ele>
        <time>2013-05-02T08:05:38Z</time>
      </trkpt>
      <trkpt lat="44.5807" lon="5.61722">
        <ele>1581.99</ele>
        <time>2013-05-02T08:05:50Z</time>
      </trkpt>
      <trkpt lat="44.58081" lon="5.61719">
        <ele>1580.54</ele>
        <time>2013-05-02T08:06:02Z</time>
      </trkpt>
      <trkpt lat="44.58093" lon="5.61714">
        <ele>1579.58</ele>
        <time>2013-05-02T08:06:19Z</time>
      </trkpt>
      <trkpt lat="44.58105" lon="5.6171">
        <ele>1578.62</ele>
        <time>2013-05-02T08:06:33Z</time>
      </trkpt>
      <trkpt lat="44.5812" lon="5.61698">
        <ele>1578.14</ele>
        <time>2013-05-02T08:06:50Z</time>
      </trkpt>
      <trkpt lat="44.5813" lon="5.61691">
        <ele>1577.18</ele>
        <time>2013-05-02T08:07:02Z</time>
      </trkpt>
      <trkpt lat="44.58137" lon="5.61683">
        <ele>1577.18</ele>
        <time>2013-05-02T08:07:16Z</time>
      </trkpt>
      <trkpt lat="44.58137" lon="5.61682">
        <ele>1577.18</ele>
        <time>2013-05-02T08:07:38Z</time>
      </trkpt>
      <trkpt lat="44.58136" lon="5.61688">
        <ele>1576.7</ele>
        <time>2013-05-02T08:07:51Z</time>
      </trkpt>
      <trkpt lat="44.58143" lon="5.61689">
        <ele>1576.22</ele>
        <time>2013-05-02T08:08:04Z</time>
      </trkpt>
      <trkpt lat="44.58145" lon="5.61689">
        <ele>1576.22</ele>
        <time>2013-05-02T08:08:20Z</time>
      </trkpt>
      <trkpt lat="44.58145" lon="5.61689">
        <ele>1576.22</ele>
        <time>2013-05-02T08:08:41Z</time>
      </trkpt>
      <trkpt lat="44.58155" lon="5.61696">
        <ele>1575.26</ele>
        <time>2013-05-02T08:08:57Z</time>
      </trkpt>
      <trkpt lat="44.58161" lon="5.61697">
        <ele>1575.26</ele>
        <time>2013-05-02T08:09:04Z</time>
      </trkpt>
      <trkpt lat="44.58165" lon="5.61696">
        <ele>1575.26</ele>
        <time>2013-05-02T08:09:08Z</time>
      </trkpt>
      <trkpt lat="44.58172" lon="5.61695">
        <ele>1574.3</ele>
        <time>2013-05-02T08:09:25Z</time>
      </trkpt>
      <trkpt lat="44.58173" lon="5.61696">
        <ele>1574.3</ele>
        <time>2013-05-02T08:09:39Z</time>
      </trkpt>
      <trkpt lat="44.58173" lon="5.617">
        <ele>1574.3</ele>
        <time>2013-05-02T08:10:08Z</time>
      </trkpt>
      <trkpt lat="44.58173" lon="5.61696">
        <ele>1574.3</ele>
        <time>2013-05-02T08:10:29Z</time>
      </trkpt>
      <trkpt lat="44.58173" lon="5.61698">
        <ele>1574.3</ele>
        <time>2013-05-02T08:10:49Z</time>
      </trkpt>
      <trkpt lat="44.58175" lon="5.61697">
        <ele>1573.82</ele>
        <time>2013-05-02T08:11:07Z</time>
      </trkpt>
      <trkpt lat="44.58176" lon="5.61698">
        <ele>1573.82</ele>
        <time>2013-05-02T08:11:31Z</time>
      </trkpt>
      <trkpt lat="44.58174" lon="5.61694">
        <ele>1573.82</ele>
        <time>2013-05-02T08:12:02Z</time>
      </trkpt>
      <trkpt lat="44.58173" lon="5.61696">
        <ele>1574.3</ele>
        <time>2013-05-02T08:12:21Z</time>
      </trkpt>
      <trkpt lat="44.58172" lon="5.617">
        <ele>1574.3</ele>
        <time>2013-05-02T08:12:34Z</time>
      </trkpt>
      <trkpt lat="44.58174" lon="5.61702">
        <ele>1574.3</ele>
        <time>2013-05-02T08:12:57Z</time>
      </trkpt>
      <trkpt lat="44.58179" lon="5.61703">
        <ele>1573.82</ele>
        <time>2013-05-02T08:13:10Z</time>
      </trkpt>
      <trkpt lat="44.58179" lon="5.61704">
        <ele>1573.82</ele>
        <time>2013-05-02T08:13:29Z</time>
      </trkpt>
      <trkpt lat="44.58181" lon="5.61705">
        <ele>1574.3</ele>
        <time>2013-05-02T08:13:32Z</time>
      </trkpt>
      <trkpt lat="44.58183" lon="5.61706">
        <ele>1573.33</ele>
        <time>2013-05-02T08:13:35Z</time>
      </trkpt>
      <trkpt lat="44.58193" lon="5.61714">
        <ele>1571.41</ele>
        <time>2013-05-02T08:13:46Z</time>
      </trkpt>
      <trkpt lat="44.58215" lon="5.61733">
        <ele>1569.97</ele>
        <time>2013-05-02T08:14:06Z</time>
      </trkpt>
      <trkpt lat="44.58224" lon="5.6174">
        <ele>1570.45</ele>
        <time>2013-05-02T08:14:15Z</time>
      </trkpt>
      <trkpt lat="44.58231" lon="5.61746">
        <ele>1570.93</ele>
        <time>2013-05-02T08:14:22Z</time>
      </trkpt>
      <trkpt lat="44.58246" lon="5.61757">
        <ele>1572.85</ele>
        <time>2013-05-02T08:14:38Z</time>
      </trkpt>
      <trkpt lat="44.58256" lon="5.61764">
        <ele>1575.74</ele>
        <time>2013-05-02T08:14:52Z</time>
      </trkpt>
      <trkpt lat="44.58266" lon="5.61766">
        <ele>1578.14</ele>
        <time>2013-05-02T08:15:06Z</time>
      </trkpt>
      <trkpt lat="44.58275" lon="5.61767">
        <ele>1580.06</ele>
        <time>2013-05-02T08:15:21Z</time>
      </trkpt>
      <trkpt lat="44.58285" lon="5.61769">
        <ele>1582.47</ele>
        <time>2013-05-02T08:15:38Z</time>
      </trkpt>
      <trkpt lat="44.58291" lon="5.61771">
        <ele>1585.83</ele>
        <time>2013-05-02T08:15:49Z</time>
      </trkpt>
      <trkpt lat="44.58292" lon="5.61771">
        <ele>1585.35</ele>
        <time>2013-05-02T08:15:50Z</time>
      </trkpt>
      <trkpt lat="44.58302" lon="5.61773">
        <ele>1586.79</ele>
        <time>2013-05-02T08:16:05Z</time>
      </trkpt>
      <trkpt lat="44.58311" lon="5.61777">
        <ele>1587.75</ele>
        <time>2013-05-02T08:16:20Z</time>
      </trkpt>
      <trkpt lat="44.58315" lon="5.61778">
        <ele>1589.2</ele>
        <time>2013-05-02T08:16:25Z</time>
      </trkpt>
      <trkpt lat="44.58317" lon="5.61779">
        <ele>1590.64</ele>
        <time>2013-05-02T08:16:31Z</time>
      </trkpt>
      <trkpt lat="44.58326" lon="5.61782">
        <ele>1592.56</ele>
        <time>2013-05-02T08:16:48Z</time>
      </trkpt>
      <trkpt lat="44.58333" lon="5.61784">
        <ele>1594.48</ele>
        <time>2013-05-02T08:17:02Z</time>
      </trkpt>
      <trkpt lat="44.58344" lon="5.61786">
        <ele>1596.41</ele>
        <time>2013-05-02T08:17:16Z</time>
      </trkpt>
      <trkpt lat="44.58355" lon="5.61786">
        <ele>1599.29</ele>
        <time>2013-05-02T08:17:31Z</time>
      </trkpt>
      <trkpt lat="44.58367" lon="5.61787">
        <ele>1603.14</ele>
        <time>2013-05-02T08:17:48Z</time>
      </trkpt>
      <trkpt lat="44.58371" lon="5.61788">
        <ele>1603.14</ele>
        <time>2013-05-02T08:17:53Z</time>
      </trkpt>
      <trkpt lat="44.58381" lon="5.61795">
        <ele>1605.06</ele>
        <time>2013-05-02T08:18:07Z</time>
      </trkpt>
      <trkpt lat="44.58389" lon="5.61803">
        <ele>1606.02</ele>
        <time>2013-05-02T08:18:19Z</time>
      </trkpt>
      <trkpt lat="44.58396" lon="5.61816">
        <ele>1605.54</ele>
        <time>2013-05-02T08:18:31Z</time>
      </trkpt>
      <trkpt lat="44.58399" lon="5.61842">
        <ele>1604.58</ele>
        <time>2013-05-02T08:18:49Z</time>
      </trkpt>
      <trkpt lat="44.58399" lon="5.61863">
        <ele>1604.58</ele>
        <time>2013-05-02T08:19:04Z</time>
      </trkpt>
      <trkpt lat="44.58399" lon="5.61867">
        <ele>1605.06</ele>
        <time>2013-05-02T08:19:07Z</time>
      </trkpt>
      <trkpt lat="44.584" lon="5.61882">
        <ele>1606.98</ele>
        <time>2013-05-02T08:19:22Z</time>
      </trkpt>
      <trkpt lat="44.584" lon="5.61893">
        <ele>1608.42</ele>
        <time>2013-05-02T08:19:35Z</time>
      </trkpt>
      <trkpt lat="44.58399" lon="5.61905">
        <ele>1610.83</ele>
        <time>2013-05-02T08:19:50Z</time>
      </trkpt>
      <trkpt lat="44.58399" lon="5.61914">
        <ele>1612.75</ele>
        <time>2013-05-02T08:20:03Z</time>
      </trkpt>
      <trkpt lat="44.58398" lon="5.61924">
        <ele>1614.67</ele>
        <time>2013-05-02T08:20:16Z</time>
      </trkpt>
      <trkpt lat="44.58397" lon="5.61934">
        <ele>1617.56</ele>
        <time>2013-05-02T08:20:30Z</time>
      </trkpt>
      <trkpt lat="44.58396" lon="5.6194">
        <ele>1619.48</ele>
        <time>2013-05-02T08:20:39Z</time>
      </trkpt>
      <trkpt lat="44.58395" lon="5.61954">
        <ele>1622.36</ele>
        <time>2013-05-02T08:20:55Z</time>
      </trkpt>
      <trkpt lat="44.58394" lon="5.61964">
        <ele>1625.25</ele>
        <time>2013-05-02T08:21:10Z</time>
      </trkpt>
      <trkpt lat="44.58394" lon="5.61973">
        <ele>1628.13</ele>
        <time>2013-05-02T08:21:22Z</time>
      </trkpt>
      <trkpt lat="44.58395" lon="5.61983">
        <ele>1631.49</ele>
        <time>2013-05-02T08:21:35Z</time>
      </trkpt>
      <trkpt lat="44.58396" lon="5.61995">
        <ele>1634.38</ele>
        <time>2013-05-02T08:21:50Z</time>
      </trkpt>
      <trkpt lat="44.58399" lon="5.62006">
        <ele>1635.34</ele>
        <time>2013-05-02T08:22:05Z</time>
      </trkpt>
      <trkpt lat="44.584" lon="5.62008">
        <ele>1635.82</ele>
        <time>2013-05-02T08:22:19Z</time>
      </trkpt>
      <trkpt lat="44.58401" lon="5.6201">
        <ele>1636.78</ele>
        <time>2013-05-02T08:22:32Z</time>
      </trkpt>
      <trkpt lat="44.58402" lon="5.62009">
        <ele>1636.78</ele>
        <time>2013-05-02T08:22:57Z</time>
      </trkpt>
      <trkpt lat="44.58402" lon="5.6201">
        <ele>1636.78</ele>
        <time>2013-05-02T08:23:19Z</time>
      </trkpt>
      <trkpt lat="44.58402" lon="5.62009">
        <ele>1635.82</ele>
        <time>2013-05-02T08:23:41Z</time>
      </trkpt>
      <trkpt lat="44.58403" lon="5.62009">
        <ele>1636.3</ele>
        <time>2013-05-02T08:23:56Z</time>
      </trkpt>
      <trkpt lat="44.584" lon="5.62009">
        <ele>1637.26</ele>
        <time>2013-05-02T08:24:10Z</time>
      </trkpt>
      <trkpt lat="44.58401" lon="5.62007">
        <ele>1636.78</ele>
        <time>2013-05-02T08:24:38Z</time>
      </trkpt>
      <trkpt lat="44.58401" lon="5.62007">
        <ele>1637.74</ele>
        <time>2013-05-02T08:25:06Z</time>
      </trkpt>
      <trkpt lat="44.58402" lon="5.62015">
        <ele>1637.74</ele>
        <time>2013-05-02T08:25:31Z</time>
      </trkpt>
      <trkpt lat="44.58404" lon="5.62023">
        <ele>1639.19</ele>
        <time>2013-05-02T08:25:44Z</time>
      </trkpt>
      <trkpt lat="44.58407" lon="5.6203">
        <ele>1640.63</ele>
        <time>2013-05-02T08:25:56Z</time>
      </trkpt>
      <trkpt lat="44.58409" lon="5.62039">
        <ele>1642.07</ele>
        <time>2013-05-02T08:26:10Z</time>
      </trkpt>
      <trkpt lat="44.58414" lon="5.62045">
        <ele>1644.47</ele>
        <time>2013-05-02T08:26:25Z</time>
      </trkpt>
      <trkpt lat="44.58417" lon="5.62051">
        <ele>1645.91</ele>
        <time>2013-05-02T08:26:36Z</time>
      </trkpt>
      <trkpt lat="44.5842" lon="5.62058">
        <ele>1645.91</ele>
        <time>2013-05-02T08:26:48Z</time>
      </trkpt>
      <trkpt lat="44.58421" lon="5.62058">
        <ele>1645.91</ele>
        <time>2013-05-02T08:27:06Z</time>
      </trkpt>
      <trkpt lat="44.58422" lon="5.62066">
        <ele>1644.95</ele>
        <time>2013-05-02T08:27:24Z</time>
      </trkpt>
      <trkpt lat="44.58428" lon="5.62075">
        <ele>1646.4</ele>
        <time>2013-05-02T08:27:37Z</time>
      </trkpt>
      <trkpt lat="44.58432" lon="5.62083">
        <ele>1646.4</ele>
        <time>2013-05-02T08:27:49Z</time>
      </trkpt>
      <trkpt lat="44.58433" lon="5.62083">
        <ele>1646.4</ele>
        <time>2013-05-02T08:27:50Z</time>
      </trkpt>
      <trkpt lat="44.58438" lon="5.62091">
        <ele>1647.36</ele>
        <time>2013-05-02T08:28:01Z</time>
      </trkpt>
      <trkpt lat="44.58445" lon="5.62101">
        <ele>1648.32</ele>
        <time>2013-05-02T08:28:15Z</time>
      </trkpt>
      <trkpt lat="44.58452" lon="5.6211">
        <ele>1648.8</ele>
        <time>2013-05-02T08:28:28Z</time>
      </trkpt>
      <trkpt lat="44.5846" lon="5.62117">
        <ele>1649.76</ele>
        <time>2013-05-02T08:28:41Z</time>
      </trkpt>
      <trkpt lat="44.58466" lon="5.6212">
        <ele>1650.24</ele>
        <time>2013-05-02T08:28:55Z</time>
      </trkpt>
      <trkpt lat="44.58468" lon="5.62122">
        <ele>1650.24</ele>
        <time>2013-05-02T08:28:58Z</time>
      </trkpt>
      <trkpt lat="44.5848" lon="5.62128">
        <ele>1650.24</ele>
        <time>2013-05-02T08:29:13Z</time>
      </trkpt>
      <trkpt lat="44.5849" lon="5.62131">
        <ele>1649.28</ele>
        <time>2013-05-02T08:29:27Z</time>
      </trkpt>
      <trkpt lat="44.58494" lon="5.62133">
        <ele>1649.28</ele>
        <time>2013-05-02T08:29:31Z</time>
      </trkpt>
      <trkpt lat="44.58509" lon="5.62138">
        <ele>1648.8</ele>
        <time>2013-05-02T08:29:48Z</time>
      </trkpt>
      <trkpt lat="44.58521" lon="5.62145">
        <ele>1647.36</ele>
        <time>2013-05-02T08:30:02Z</time>
      </trkpt>
      <trkpt lat="44.58536" lon="5.62154">
        <ele>1645.43</ele>
        <time>2013-05-02T08:30:18Z</time>
      </trkpt>
      <trkpt lat="44.58538" lon="5.62155">
        <ele>1645.43</ele>
        <time>2013-05-02T08:30:20Z</time>
      </trkpt>
      <trkpt lat="44.58548" lon="5.62162">
        <ele>1645.43</ele>
        <time>2013-05-02T08:30:31Z</time>
      </trkpt>
      <trkpt lat="44.58559" lon="5.62174">
        <ele>1645.91</ele>
        <time>2013-05-02T08:30:46Z</time>
      </trkpt>
      <trkpt lat="44.58568" lon="5.62189">
        <ele>1644.47</ele>
        <time>2013-05-02T08:31:01Z</time>
      </trkpt>
      <trkpt lat="44.58573" lon="5.62206">
        <ele>1644.47</ele>
        <time>2013-05-02T08:31:15Z</time>
      </trkpt>
      <trkpt lat="44.58575" lon="5.62217">
        <ele>1646.4</ele>
        <time>2013-05-02T08:31:29Z</time>
      </trkpt>
      <trkpt lat="44.58577" lon="5.62228">
        <ele>1648.32</ele>
        <time>2013-05-02T08:31:44Z</time>
      </trkpt>
      <trkpt lat="44.58576" lon="5.6224">
        <ele>1650.24</ele>
        <time>2013-05-02T08:31:59Z</time>
      </trkpt>
      <trkpt lat="44.58577" lon="5.62252">
        <ele>1653.12</ele>
        <time>2013-05-02T08:32:14Z</time>
      </trkpt>
      <trkpt lat="44.58577" lon="5.62263">
        <ele>1656.01</ele>
        <time>2013-05-02T08:32:29Z</time>
      </trkpt>
      <trkpt lat="44.58578" lon="5.62273">
        <ele>1657.93</ele>
        <time>2013-05-02T08:32:42Z</time>
      </trkpt>
      <trkpt lat="44.58578" lon="5.62276">
        <ele>1658.89</ele>
        <time>2013-05-02T08:32:46Z</time>
      </trkpt>
      <trkpt lat="44.58576" lon="5.62288">
        <ele>1661.3</ele>
        <time>2013-05-02T08:33:00Z</time>
      </trkpt>
      <trkpt lat="44.58576" lon="5.62295">
        <ele>1663.22</ele>
        <time>2013-05-02T08:33:12Z</time>
      </trkpt>
      <trkpt lat="44.58574" lon="5.62303">
        <ele>1665.14</ele>
        <time>2013-05-02T08:33:25Z</time>
      </trkpt>
      <trkpt lat="44.58574" lon="5.62311">
        <ele>1667.06</ele>
        <time>2013-05-02T08:33:35Z</time>
      </trkpt>
      <trkpt lat="44.5857" lon="5.62318">
        <ele>1669.47</ele>
        <time>2013-05-02T08:33:53Z</time>
      </trkpt>
      <trkpt lat="44.5857" lon="5.62324">
        <ele>1672.83</ele>
        <time>2013-05-02T08:34:06Z</time>
      </trkpt>
      <trkpt lat="44.5857" lon="5.62334">
        <ele>1674.27</ele>
        <time>2013-05-02T08:34:18Z</time>
      </trkpt>
      <trkpt lat="44.58568" lon="5.62343">
        <ele>1675.72</ele>
        <time>2013-05-02T08:34:30Z</time>
      </trkpt>
      <trkpt lat="44.58566" lon="5.62356">
        <ele>1677.64</ele>
        <time>2013-05-02T08:34:46Z</time>
      </trkpt>
      <trkpt lat="44.58565" lon="5.62369">
        <ele>1680.04</ele>
        <time>2013-05-02T08:35:02Z</time>
      </trkpt>
      <trkpt lat="44.58563" lon="5.62375">
        <ele>1681.48</ele>
        <time>2013-05-02T08:35:19Z</time>
      </trkpt>
      <trkpt lat="44.58561" lon="5.62384">
        <ele>1682.93</ele>
        <time>2013-05-02T08:35:32Z</time>
      </trkpt>
      <trkpt lat="44.58563" lon="5.62387">
        <ele>1683.89</ele>
        <time>2013-05-02T08:35:36Z</time>
      </trkpt>
      <trkpt lat="44.58564" lon="5.62391">
        <ele>1684.37</ele>
        <time>2013-05-02T08:35:39Z</time>
      </trkpt>
      <trkpt lat="44.58568" lon="5.62405">
        <ele>1686.77</ele>
        <time>2013-05-02T08:35:54Z</time>
      </trkpt>
      <trkpt lat="44.58569" lon="5.62409">
        <ele>1687.25</ele>
        <time>2013-05-02T08:35:58Z</time>
      </trkpt>
      <trkpt lat="44.58572" lon="5.62425">
        <ele>1687.73</ele>
        <time>2013-05-02T08:36:14Z</time>
      </trkpt>
      <trkpt lat="44.58573" lon="5.62437">
        <ele>1688.69</ele>
        <time>2013-05-02T08:36:30Z</time>
      </trkpt>
      <trkpt lat="44.58573" lon="5.6245">
        <ele>1689.17</ele>
        <time>2013-05-02T08:36:43Z</time>
      </trkpt>
      <trkpt lat="44.58574" lon="5.62469">
        <ele>1688.69</ele>
        <time>2013-05-02T08:36:58Z</time>
      </trkpt>
      <trkpt lat="44.58576" lon="5.62484">
        <ele>1690.14</ele>
        <time>2013-05-02T08:37:12Z</time>
      </trkpt>
      <trkpt lat="44.5858" lon="5.62496">
        <ele>1691.58</ele>
        <time>2013-05-02T08:37:25Z</time>
      </trkpt>
      <trkpt lat="44.58582" lon="5.62496">
        <ele>1690.62</ele>
        <time>2013-05-02T08:37:44Z</time>
      </trkpt>
      <trkpt lat="44.58583" lon="5.62494">
        <ele>1691.1</ele>
        <time>2013-05-02T08:38:01Z</time>
      </trkpt>
      <trkpt lat="44.58583" lon="5.62501">
        <ele>1691.1</ele>
        <time>2013-05-02T08:38:16Z</time>
      </trkpt>
      <trkpt lat="44.58583" lon="5.62502">
        <ele>1691.1</ele>
        <time>2013-05-02T08:38:33Z</time>
      </trkpt>
      <trkpt lat="44.58585" lon="5.62503">
        <ele>1691.1</ele>
        <time>2013-05-02T08:38:47Z</time>
      </trkpt>
      <trkpt lat="44.58584" lon="5.62504">
        <ele>1691.58</ele>
        <time>2013-05-02T08:39:04Z</time>
      </trkpt>
      <trkpt lat="44.58583" lon="5.62501">
        <ele>1691.1</ele>
        <time>2013-05-02T08:39:23Z</time>
      </trkpt>
      <trkpt lat="44.58584" lon="5.62503">
        <ele>1691.1</ele>
        <time>2013-05-02T08:39:37Z</time>
      </trkpt>
      <trkpt lat="44.58584" lon="5.62505">
        <ele>1691.1</ele>
        <time>2013-05-02T08:40:00Z</time>
      </trkpt>
      <trkpt lat="44.58584" lon="5.62507">
        <ele>1691.1</ele>
        <time>2013-05-02T08:40:17Z</time>
      </trkpt>
      <trkpt lat="44.58585" lon="5.62508">
        <ele>1691.1</ele>
        <time>2013-05-02T08:40:31Z</time>
      </trkpt>
      <trkpt lat="44.58584" lon="5.62507">
        <ele>1690.14</ele>
        <time>2013-05-02T08:40:57Z</time>
      </trkpt>
      <trkpt lat="44.58585" lon="5.62516">
        <ele>1689.65</ele>
        <time>2013-05-02T08:41:14Z</time>
      </trkpt>
      <trkpt lat="44.58589" lon="5.62529">
        <ele>1690.14</ele>
        <time>2013-05-02T08:41:25Z</time>
      </trkpt>
      <trkpt lat="44.58597" lon="5.62547">
        <ele>1691.1</ele>
        <time>2013-05-02T08:41:41Z</time>
      </trkpt>
      <trkpt lat="44.58597" lon="5.62548">
        <ele>1690.62</ele>
        <time>2013-05-02T08:41:43Z</time>
      </trkpt>
      <trkpt lat="44.58605" lon="5.62566">
        <ele>1690.14</ele>
        <time>2013-05-02T08:41:59Z</time>
      </trkpt>
      <trkpt lat="44.58609" lon="5.62576">
        <ele>1690.14</ele>
        <time>2013-05-02T08:42:07Z</time>
      </trkpt>
      <trkpt lat="44.58614" lon="5.62591">
        <ele>1690.62</ele>
        <time>2013-05-02T08:42:22Z</time>
      </trkpt>
      <trkpt lat="44.58615" lon="5.62592">
        <ele>1690.14</ele>
        <time>2013-05-02T08:42:23Z</time>
      </trkpt>
      <trkpt lat="44.58615" lon="5.62594">
        <ele>1690.62</ele>
        <time>2013-05-02T08:42:25Z</time>
      </trkpt>
      <trkpt lat="44.58622" lon="5.62606">
        <ele>1691.58</ele>
        <time>2013-05-02T08:42:38Z</time>
      </trkpt>
      <trkpt lat="44.58631" lon="5.62615">
        <ele>1690.62</ele>
        <time>2013-05-02T08:42:53Z</time>
      </trkpt>
      <trkpt lat="44.58636" lon="5.62619">
        <ele>1691.58</ele>
        <time>2013-05-02T08:43:05Z</time>
      </trkpt>
      <trkpt lat="44.58637" lon="5.62622">
        <ele>1692.06</ele>
        <time>2013-05-02T08:43:17Z</time>
      </trkpt>
      <trkpt lat="44.58644" lon="5.62632">
        <ele>1691.58</ele>
        <time>2013-05-02T08:43:30Z</time>
      </trkpt>
      <trkpt lat="44.58646" lon="5.62634">
        <ele>1690.62</ele>
        <time>2013-05-02T08:43:33Z</time>
      </trkpt>
      <trkpt lat="44.58657" lon="5.62643">
        <ele>1691.1</ele>
        <time>2013-05-02T08:43:48Z</time>
      </trkpt>
      <trkpt lat="44.58667" lon="5.62648">
        <ele>1690.62</ele>
        <time>2013-05-02T08:44:00Z</time>
      </trkpt>
      <trkpt lat="44.58676" lon="5.62653">
        <ele>1689.65</ele>
        <time>2013-05-02T08:44:15Z</time>
      </trkpt>
      <trkpt lat="44.58681" lon="5.62654">
        <ele>1687.73</ele>
        <time>2013-05-02T08:44:28Z</time>
      </trkpt>
      <trkpt lat="44.58694" lon="5.62657">
        <ele>1685.81</ele>
        <time>2013-05-02T08:44:43Z</time>
      </trkpt>
      <trkpt lat="44.58703" lon="5.62656">
        <ele>1684.85</ele>
        <time>2013-05-02T08:44:57Z</time>
      </trkpt>
      <trkpt lat="44.58709" lon="5.62659">
        <ele>1682.93</ele>
        <time>2013-05-02T08:45:09Z</time>
      </trkpt>
      <trkpt lat="44.58718" lon="5.62664">
        <ele>1681.48</ele>
        <time>2013-05-02T08:45:23Z</time>
      </trkpt>
      <trkpt lat="44.5872" lon="5.62666">
        <ele>1681</ele>
        <time>2013-05-02T08:45:26Z</time>
      </trkpt>
      <trkpt lat="44.58732" lon="5.62672">
        <ele>1677.64</ele>
        <time>2013-05-02T08:45:42Z</time>
      </trkpt>
      <trkpt lat="44.58745" lon="5.62675">
        <ele>1674.75</ele>
        <time>2013-05-02T08:45:58Z</time>
      </trkpt>
      <trkpt lat="44.58746" lon="5.62675">
        <ele>1674.27</ele>
        <time>2013-05-02T08:45:59Z</time>
      </trkpt>
      <trkpt lat="44.58756" lon="5.62676">
        <ele>1671.39</ele>
        <time>2013-05-02T08:46:13Z</time>
      </trkpt>
      <trkpt lat="44.58764" lon="5.62677">
        <ele>1668.51</ele>
        <time>2013-05-02T08:46:25Z</time>
      </trkpt>
      <trkpt lat="44.58776" lon="5.6268">
        <ele>1665.62</ele>
        <time>2013-05-02T08:46:40Z</time>
      </trkpt>
      <trkpt lat="44.58777" lon="5.6268">
        <ele>1665.14</ele>
        <time>2013-05-02T08:46:41Z</time>
      </trkpt>
      <trkpt lat="44.58781" lon="5.62678">
        <ele>1664.18</ele>
        <time>2013-05-02T08:46:46Z</time>
      </trkpt>
      <trkpt lat="44.58791" lon="5.62678">
        <ele>1660.81</ele>
        <time>2013-05-02T08:46:58Z</time>
      </trkpt>
      <trkpt lat="44.588" lon="5.62677">
        <ele>1657.93</ele>
        <time>2013-05-02T08:47:10Z</time>
      </trkpt>
      <trkpt lat="44.58811" lon="5.62669">
        <ele>1654.57</ele>
        <time>2013-05-02T08:47:23Z</time>
      </trkpt>
      <trkpt lat="44.58817" lon="5.62666">
        <ele>1651.68</ele>
        <time>2013-05-02T08:47:32Z</time>
      </trkpt>
      <trkpt lat="44.58824" lon="5.62664">
        <ele>1648.8</ele>
        <time>2013-05-02T08:47:42Z</time>
      </trkpt>
      <trkpt lat="44.58835" lon="5.6266">
        <ele>1645.43</ele>
        <time>2013-05-02T08:47:54Z</time>
      </trkpt>
      <trkpt lat="44.58839" lon="5.62659">
        <ele>1643.99</ele>
        <time>2013-05-02T08:48:00Z</time>
      </trkpt>
      <trkpt lat="44.58847" lon="5.62657">
        <ele>1640.63</ele>
        <time>2013-05-02T08:48:11Z</time>
      </trkpt>
      <trkpt lat="44.58854" lon="5.62656">
        <ele>1637.26</ele>
        <time>2013-05-02T08:48:22Z</time>
      </trkpt>
      <trkpt lat="44.58861" lon="5.62653">
        <ele>1634.38</ele>
        <time>2013-05-02T08:48:34Z</time>
      </trkpt>
      <trkpt lat="44.58872" lon="5.6265">
        <ele>1631.49</ele>
        <time>2013-05-02T08:48:50Z</time>
      </trkpt>
      <trkpt lat="44.58874" lon="5.62649">
        <ele>1631.01</ele>
        <time>2013-05-02T08:49:06Z</time>
      </trkpt>
      <trkpt lat="44.58874" lon="5.62648">
        <ele>1631.49</ele>
        <time>2013-05-02T08:49:19Z</time>
      </trkpt>
      <trkpt lat="44.58873" lon="5.62649">
        <ele>1631.49</ele>
        <time>2013-05-02T08:49:33Z</time>
      </trkpt>
      <trkpt lat="44.58873" lon="5.62649">
        <ele>1631.01</ele>
        <time>2013-05-02T08:49:48Z</time>
      </trkpt>
      <trkpt lat="44.58874" lon="5.62649">
        <ele>1630.53</ele>
        <time>2013-05-02T08:50:09Z</time>
      </trkpt>
      <trkpt lat="44.58874" lon="5.62649">
        <ele>1630.53</ele>
        <time>2013-05-02T08:50:27Z</time>
      </trkpt>
      <trkpt lat="44.58873" lon="5.62649">
        <ele>1631.01</ele>
        <time>2013-05-02T08:50:52Z</time>
      </trkpt>
      <trkpt lat="44.58873" lon="5.62649">
        <ele>1631.01</ele>
        <time>2013-05-02T08:51:11Z</time>
      </trkpt>
      <trkpt lat="44.58873" lon="5.6265">
        <ele>1631.01</ele>
        <time>2013-05-02T08:51:34Z</time>
      </trkpt>
      <trkpt lat="44.58873" lon="5.6265">
        <ele>1632.46</ele>
        <time>2013-05-02T08:51:58Z</time>
      </trkpt>
      <trkpt lat="44.58873" lon="5.62649">
        <ele>1631.49</ele>
        <time>2013-05-02T08:52:29Z</time>
      </trkpt>
      <trkpt lat="44.58881" lon="5.62645">
        <ele>1630.53</ele>
        <time>2013-05-02T08:52:45Z</time>
      </trkpt>
      <trkpt lat="44.5889" lon="5.62639">
        <ele>1631.01</ele>
        <time>2013-05-02T08:52:57Z</time>
      </trkpt>
      <trkpt lat="44.58901" lon="5.62634">
        <ele>1632.46</ele>
        <time>2013-05-02T08:53:12Z</time>
      </trkpt>
      <trkpt lat="44.58912" lon="5.62627">
        <ele>1635.34</ele>
        <time>2013-05-02T08:53:28Z</time>
      </trkpt>
      <trkpt lat="44.58917" lon="5.62624">
        <ele>1636.78</ele>
        <time>2013-05-02T08:53:40Z</time>
      </trkpt>
      <trkpt lat="44.58926" lon="5.62617">
        <ele>1641.11</ele>
        <time>2013-05-02T08:53:59Z</time>
      </trkpt>
      <trkpt lat="44.58932" lon="5.62614">
        <ele>1643.51</ele>
        <time>2013-05-02T08:54:15Z</time>
      </trkpt>
      <trkpt lat="44.58941" lon="5.62608">
        <ele>1646.4</ele>
        <time>2013-05-02T08:54:33Z</time>
      </trkpt>
      <trkpt lat="44.58949" lon="5.62603">
        <ele>1649.28</ele>
        <time>2013-05-02T08:54:47Z</time>
      </trkpt>
      <trkpt lat="44.58959" lon="5.62599">
        <ele>1652.16</ele>
        <time>2013-05-02T08:55:02Z</time>
      </trkpt>
      <trkpt lat="44.58964" lon="5.626">
        <ele>1653.6</ele>
        <time>2013-05-02T08:55:12Z</time>
      </trkpt>
      <trkpt lat="44.58968" lon="5.62601">
        <ele>1654.09</ele>
        <time>2013-05-02T08:55:18Z</time>
      </trkpt>
      <trkpt lat="44.58976" lon="5.62608">
        <ele>1656.01</ele>
        <time>2013-05-02T08:55:32Z</time>
      </trkpt>
      <trkpt lat="44.58987" lon="5.62615">
        <ele>1657.45</ele>
        <time>2013-05-02T08:55:48Z</time>
      </trkpt>
      <trkpt lat="44.58998" lon="5.62624">
        <ele>1657.93</ele>
        <time>2013-05-02T08:56:03Z</time>
      </trkpt>
      <trkpt lat="44.59007" lon="5.62638">
        <ele>1657.45</ele>
        <time>2013-05-02T08:56:17Z</time>
      </trkpt>
      <trkpt lat="44.59012" lon="5.62652">
        <ele>1656.01</ele>
        <time>2013-05-02T08:56:31Z</time>
      </trkpt>
      <trkpt lat="44.5902" lon="5.62669">
        <ele>1655.05</ele>
        <time>2013-05-02T08:56:47Z</time>
      </trkpt>
      <trkpt lat="44.5903" lon="5.62687">
        <ele>1651.68</ele>
        <time>2013-05-02T08:57:04Z</time>
      </trkpt>
      <trkpt lat="44.59036" lon="5.62695">
        <ele>1650.24</ele>
        <time>2013-05-02T08:57:12Z</time>
      </trkpt>
      <trkpt lat="44.59052" lon="5.6271">
        <ele>1648.32</ele>
        <time>2013-05-02T08:57:32Z</time>
      </trkpt>
      <trkpt lat="44.59052" lon="5.62711">
        <ele>1648.32</ele>
        <time>2013-05-02T08:57:33Z</time>
      </trkpt>
      <trkpt lat="44.59062" lon="5.62718">
        <ele>1647.36</ele>
        <time>2013-05-02T08:57:43Z</time>
      </trkpt>
      <trkpt lat="44.59075" lon="5.6273">
        <ele>1647.36</ele>
        <time>2013-05-02T08:58:00Z</time>
      </trkpt>
      <trkpt lat="44.59091" lon="5.62742">
        <ele>1646.4</ele>
        <time>2013-05-02T08:58:18Z</time>
      </trkpt>
      <trkpt lat="44.59106" lon="5.62754">
        <ele>1646.4</ele>
        <time>2013-05-02T08:58:36Z</time>
      </trkpt>
      <trkpt lat="44.59122" lon="5.62766">
        <ele>1645.43</ele>
        <time>2013-05-02T08:58:54Z</time>
      </trkpt>
      <trkpt lat="44.59142" lon="5.62774">
        <ele>1644.47</ele>
        <time>2013-05-02T08:59:14Z</time>
      </trkpt>
      <trkpt lat="44.59155" lon="5.62777">
        <ele>1644.47</ele>
        <time>2013-05-02T08:59:29Z</time>
      </trkpt>
      <trkpt lat="44.59171" lon="5.62776">
        <ele>1643.03</ele>
        <time>2013-05-02T08:59:44Z</time>
      </trkpt>
      <trkpt lat="44.59187" lon="5.62774">
        <ele>1642.07</ele>
        <time>2013-05-02T08:59:59Z</time>
      </trkpt>
      <trkpt lat="44.59196" lon="5.62774">
        <ele>1641.59</ele>
        <time>2013-05-02T09:00:09Z</time>
      </trkpt>
      <trkpt lat="44.59202" lon="5.62775">
        <ele>1641.59</ele>
        <time>2013-05-02T09:00:16Z</time>
      </trkpt>
      <trkpt lat="44.59204" lon="5.62776">
        <ele>1641.59</ele>
        <time>2013-05-02T09:00:18Z</time>
      </trkpt>
      <trkpt lat="44.59211" lon="5.62778">
        <ele>1642.07</ele>
        <time>2013-05-02T09:00:25Z</time>
      </trkpt>
      <trkpt lat="44.59227" lon="5.62781">
        <ele>1642.55</ele>
        <time>2013-05-02T09:00:41Z</time>
      </trkpt>
      <trkpt lat="44.59243" lon="5.62782">
        <ele>1644.47</ele>
        <time>2013-05-02T09:00:58Z</time>
      </trkpt>
      <trkpt lat="44.59256" lon="5.62784">
        <ele>1645.43</ele>
        <time>2013-05-02T09:01:11Z</time>
      </trkpt>
      <trkpt lat="44.59261" lon="5.62783">
        <ele>1645.91</ele>
        <time>2013-05-02T09:01:16Z</time>
      </trkpt>
      <trkpt lat="44.59263" lon="5.62784">
        <ele>1645.91</ele>
        <time>2013-05-02T09:01:18Z</time>
      </trkpt>
      <trkpt lat="44.59277" lon="5.62782">
        <ele>1645.91</ele>
        <time>2013-05-02T09:01:33Z</time>
      </trkpt>
      <trkpt lat="44.59295" lon="5.62778">
        <ele>1645.91</ele>
        <time>2013-05-02T09:01:49Z</time>
      </trkpt>
      <trkpt lat="44.59308" lon="5.62776">
        <ele>1646.4</ele>
        <time>2013-05-02T09:02:01Z</time>
      </trkpt>
      <trkpt lat="44.59314" lon="5.62776">
        <ele>1646.88</ele>
        <time>2013-05-02T09:02:08Z</time>
      </trkpt>
      <trkpt lat="44.59318" lon="5.62779">
        <ele>1647.36</ele>
        <time>2013-05-02T09:02:13Z</time>
      </trkpt>
      <trkpt lat="44.59323" lon="5.62777">
        <ele>1648.32</ele>
        <time>2013-05-02T09:02:18Z</time>
      </trkpt>
      <trkpt lat="44.59327" lon="5.62777">
        <ele>1647.84</ele>
        <time>2013-05-02T09:02:22Z</time>
      </trkpt>
      <trkpt lat="44.59343" lon="5.62773">
        <ele>1648.32</ele>
        <time>2013-05-02T09:02:38Z</time>
      </trkpt>
      <trkpt lat="44.59355" lon="5.62771">
        <ele>1649.28</ele>
        <time>2013-05-02T09:02:52Z</time>
      </trkpt>
      <trkpt lat="44.59368" lon="5.62768">
        <ele>1651.2</ele>
        <time>2013-05-02T09:03:05Z</time>
      </trkpt>
      <trkpt lat="44.59383" lon="5.62764">
        <ele>1652.16</ele>
        <time>2013-05-02T09:03:22Z</time>
      </trkpt>
      <trkpt lat="44.59389" lon="5.62764">
        <ele>1652.16</ele>
        <time>2013-05-02T09:03:30Z</time>
      </trkpt>
      <trkpt lat="44.59405" lon="5.62759">
        <ele>1652.64</ele>
        <time>2013-05-02T09:03:46Z</time>
      </trkpt>
      <trkpt lat="44.5941" lon="5.62763">
        <ele>1652.16</ele>
        <time>2013-05-02T09:04:00Z</time>
      </trkpt>
      <trkpt lat="44.59411" lon="5.62763">
        <ele>1652.16</ele>
        <time>2013-05-02T09:04:01Z</time>
      </trkpt>
      <trkpt lat="44.59422" lon="5.62768">
        <ele>1650.72</ele>
        <time>2013-05-02T09:04:17Z</time>
      </trkpt>
      <trkpt lat="44.59429" lon="5.62772">
        <ele>1650.24</ele>
        <time>2013-05-02T09:04:26Z</time>
      </trkpt>
      <trkpt lat="44.59436" lon="5.62778">
        <ele>1650.72</ele>
        <time>2013-05-02T09:04:34Z</time>
      </trkpt>
      <trkpt lat="44.59448" lon="5.62785">
        <ele>1651.2</ele>
        <time>2013-05-02T09:04:50Z</time>
      </trkpt>
      <trkpt lat="44.5946" lon="5.62795">
        <ele>1650.24</ele>
        <time>2013-05-02T09:05:04Z</time>
      </trkpt>
      <trkpt lat="44.59472" lon="5.62807">
        <ele>1647.84</ele>
        <time>2013-05-02T09:05:20Z</time>
      </trkpt>
      <trkpt lat="44.59485" lon="5.62817">
        <ele>1646.4</ele>
        <time>2013-05-02T09:05:35Z</time>
      </trkpt>
      <trkpt lat="44.59496" lon="5.62828">
        <ele>1643.99</ele>
        <time>2013-05-02T09:05:51Z</time>
      </trkpt>
      <trkpt lat="44.59505" lon="5.62834">
        <ele>1643.51</ele>
        <time>2013-05-02T09:06:05Z</time>
      </trkpt>
      <trkpt lat="44.5951" lon="5.62839">
        <ele>1640.63</ele>
        <time>2013-05-02T09:06:12Z</time>
      </trkpt>
      <trkpt lat="44.59524" lon="5.62852">
        <ele>1637.74</ele>
        <time>2013-05-02T09:06:29Z</time>
      </trkpt>
      <trkpt lat="44.59527" lon="5.62861">
        <ele>1636.78</ele>
        <time>2013-05-02T09:06:44Z</time>
      </trkpt>
      <trkpt lat="44.59527" lon="5.62861">
        <ele>1635.82</ele>
        <time>2013-05-02T09:07:02Z</time>
      </trkpt>
      <trkpt lat="44.59531" lon="5.62867">
        <ele>1634.86</ele>
        <time>2013-05-02T09:07:25Z</time>
      </trkpt>
      <trkpt lat="44.59537" lon="5.62883">
        <ele>1631.98</ele>
        <time>2013-05-02T09:07:40Z</time>
      </trkpt>
      <trkpt lat="44.59543" lon="5.62902">
        <ele>1628.61</ele>
        <time>2013-05-02T09:07:55Z</time>
      </trkpt>
      <trkpt lat="44.59545" lon="5.62916">
        <ele>1626.69</ele>
        <time>2013-05-02T09:08:09Z</time>
      </trkpt>
      <trkpt lat="44.59549" lon="5.62928">
        <ele>1624.77</ele>
        <time>2013-05-02T09:08:25Z</time>
      </trkpt>
      <trkpt lat="44.5955" lon="5.62929">
        <ele>1624.77</ele>
        <time>2013-05-02T09:08:41Z</time>
      </trkpt>
      <trkpt lat="44.5955" lon="5.62929">
        <ele>1624.77</ele>
        <time>2013-05-02T09:09:08Z</time>
      </trkpt>
      <trkpt lat="44.5955" lon="5.62928">
        <ele>1624.77</ele>
        <time>2013-05-02T09:09:30Z</time>
      </trkpt>
      <trkpt lat="44.59551" lon="5.62929">
        <ele>1624.28</ele>
        <time>2013-05-02T09:09:50Z</time>
      </trkpt>
      <trkpt lat="44.5955" lon="5.6293">
        <ele>1623.8</ele>
        <time>2013-05-02T09:10:25Z</time>
      </trkpt>
      <trkpt lat="44.59551" lon="5.62931">
        <ele>1624.28</ele>
        <time>2013-05-02T09:10:56Z</time>
      </trkpt>
      <trkpt lat="44.59557" lon="5.62942">
        <ele>1624.28</ele>
        <time>2013-05-02T09:11:10Z</time>
      </trkpt>
      <trkpt lat="44.59573" lon="5.62958">
        <ele>1622.84</ele>
        <time>2013-05-02T09:11:30Z</time>
      </trkpt>
      <trkpt lat="44.59587" lon="5.62975">
        <ele>1621.88</ele>
        <time>2013-05-02T09:11:49Z</time>
      </trkpt>
      <trkpt lat="44.59598" lon="5.62991">
        <ele>1622.36</ele>
        <time>2013-05-02T09:12:07Z</time>
      </trkpt>
      <trkpt lat="44.59599" lon="5.62992">
        <ele>1621.4</ele>
        <time>2013-05-02T09:12:08Z</time>
      </trkpt>
      <trkpt lat="44.59599" lon="5.62996">
        <ele>1619</ele>
        <time>2013-05-02T09:12:11Z</time>
      </trkpt>
      <trkpt lat="44.59601" lon="5.63003">
        <ele>1621.88</ele>
        <time>2013-05-02T09:12:17Z</time>
      </trkpt>
      <trkpt lat="44.59601" lon="5.63004">
        <ele>1622.36</ele>
        <time>2013-05-02T09:12:18Z</time>
      </trkpt>
      <trkpt lat="44.59605" lon="5.6301">
        <ele>1623.32</ele>
        <time>2013-05-02T09:12:24Z</time>
      </trkpt>
      <trkpt lat="44.59618" lon="5.63027">
        <ele>1620.92</ele>
        <time>2013-05-02T09:12:41Z</time>
      </trkpt>
      <trkpt lat="44.5963" lon="5.63047">
        <ele>1619.48</ele>
        <time>2013-05-02T09:12:59Z</time>
      </trkpt>
      <trkpt lat="44.59633" lon="5.63054">
        <ele>1619.96</ele>
        <time>2013-05-02T09:13:05Z</time>
      </trkpt>
      <trkpt lat="44.59643" lon="5.63071">
        <ele>1621.88</ele>
        <time>2013-05-02T09:13:20Z</time>
      </trkpt>
      <trkpt lat="44.59645" lon="5.63073">
        <ele>1623.32</ele>
        <time>2013-05-02T09:13:22Z</time>
      </trkpt>
      <trkpt lat="44.59658" lon="5.63086">
        <ele>1622.36</ele>
        <time>2013-05-02T09:13:38Z</time>
      </trkpt>
      <trkpt lat="44.59671" lon="5.63101">
        <ele>1619.96</ele>
        <time>2013-05-02T09:13:55Z</time>
      </trkpt>
      <trkpt lat="44.5968" lon="5.63109">
        <ele>1619</ele>
        <time>2013-05-02T09:14:05Z</time>
      </trkpt>
      <trkpt lat="44.59683" lon="5.63111">
        <ele>1618.52</ele>
        <time>2013-05-02T09:14:09Z</time>
      </trkpt>
      <trkpt lat="44.59701" lon="5.63124">
        <ele>1615.63</ele>
        <time>2013-05-02T09:14:27Z</time>
      </trkpt>
      <trkpt lat="44.59717" lon="5.63133">
        <ele>1615.15</ele>
        <time>2013-05-02T09:14:44Z</time>
      </trkpt>
      <trkpt lat="44.59733" lon="5.63138">
        <ele>1614.67</ele>
        <time>2013-05-02T09:15:00Z</time>
      </trkpt>
      <trkpt lat="44.59746" lon="5.63143">
        <ele>1614.19</ele>
        <time>2013-05-02T09:15:15Z</time>
      </trkpt>
      <trkpt lat="44.59766" lon="5.63151">
        <ele>1612.75</ele>
        <time>2013-05-02T09:15:35Z</time>
      </trkpt>
      <trkpt lat="44.59781" lon="5.63157">
        <ele>1612.27</ele>
        <time>2013-05-02T09:15:52Z</time>
      </trkpt>
      <trkpt lat="44.59792" lon="5.63162">
        <ele>1611.31</ele>
        <time>2013-05-02T09:16:07Z</time>
      </trkpt>
      <trkpt lat="44.59799" lon="5.63166">
        <ele>1608.9</ele>
        <time>2013-05-02T09:16:20Z</time>
      </trkpt>
      <trkpt lat="44.59799" lon="5.63176">
        <ele>1607.46</ele>
        <time>2013-05-02T09:16:32Z</time>
      </trkpt>
      <trkpt lat="44.59807" lon="5.63184">
        <ele>1605.06</ele>
        <time>2013-05-02T09:16:47Z</time>
      </trkpt>
      <trkpt lat="44.59817" lon="5.63193">
        <ele>1603.14</ele>
        <time>2013-05-02T09:17:03Z</time>
      </trkpt>
      <trkpt lat="44.59828" lon="5.63203">
        <ele>1600.25</ele>
        <time>2013-05-02T09:17:19Z</time>
      </trkpt>
      <trkpt lat="44.59837" lon="5.6322">
        <ele>1596.89</ele>
        <time>2013-05-02T09:17:38Z</time>
      </trkpt>
      <trkpt lat="44.59845" lon="5.63229">
        <ele>1594.48</ele>
        <time>2013-05-02T09:17:51Z</time>
      </trkpt>
      <trkpt lat="44.59849" lon="5.63239">
        <ele>1591.6</ele>
        <time>2013-05-02T09:18:02Z</time>
      </trkpt>
      <trkpt lat="44.59851" lon="5.63254">
        <ele>1589.68</ele>
        <time>2013-05-02T09:18:13Z</time>
      </trkpt>
      <trkpt lat="44.59855" lon="5.63277">
        <ele>1590.64</ele>
        <time>2013-05-02T09:18:29Z</time>
      </trkpt>
      <trkpt lat="44.5986" lon="5.63297">
        <ele>1591.12</ele>
        <time>2013-05-02T09:18:45Z</time>
      </trkpt>
      <trkpt lat="44.59862" lon="5.63307">
        <ele>1592.08</ele>
        <time>2013-05-02T09:18:53Z</time>
      </trkpt>
      <trkpt lat="44.59863" lon="5.63309">
        <ele>1591.6</ele>
        <time>2013-05-02T09:18:55Z</time>
      </trkpt>
      <trkpt lat="44.59872" lon="5.63327">
        <ele>1593.04</ele>
        <time>2013-05-02T09:19:11Z</time>
      </trkpt>
      <trkpt lat="44.59876" lon="5.63338">
        <ele>1594</ele>
        <time>2013-05-02T09:19:22Z</time>
      </trkpt>
      <trkpt lat="44.5988" lon="5.63346">
        <ele>1594.96</ele>
        <time>2013-05-02T09:19:29Z</time>
      </trkpt>
      <trkpt lat="44.59889" lon="5.63358">
        <ele>1598.81</ele>
        <time>2013-05-02T09:19:44Z</time>
      </trkpt>
      <trkpt lat="44.59896" lon="5.6337">
        <ele>1601.21</ele>
        <time>2013-05-02T09:20:00Z</time>
      </trkpt>
      <trkpt lat="44.59903" lon="5.6338">
        <ele>1605.06</ele>
        <time>2013-05-02T09:20:11Z</time>
      </trkpt>
      <trkpt lat="44.59912" lon="5.6339">
        <ele>1605.54</ele>
        <time>2013-05-02T09:20:25Z</time>
      </trkpt>
      <trkpt lat="44.59921" lon="5.63398">
        <ele>1608.9</ele>
        <time>2013-05-02T09:20:39Z</time>
      </trkpt>
      <trkpt lat="44.59926" lon="5.63404">
        <ele>1609.38</ele>
        <time>2013-05-02T09:20:46Z</time>
      </trkpt>
      <trkpt lat="44.59934" lon="5.6341">
        <ele>1610.35</ele>
        <time>2013-05-02T09:20:56Z</time>
      </trkpt>
      <trkpt lat="44.59943" lon="5.6342">
        <ele>1609.38</ele>
        <time>2013-05-02T09:21:13Z</time>
      </trkpt>
      <trkpt lat="44.59946" lon="5.63419">
        <ele>1609.38</ele>
        <time>2013-05-02T09:21:29Z</time>
      </trkpt>
      <trkpt lat="44.59946" lon="5.63418">
        <ele>1609.38</ele>
        <time>2013-05-02T09:21:41Z</time>
      </trkpt>
      <trkpt lat="44.59948" lon="5.63419">
        <ele>1609.38</ele>
        <time>2013-05-02T09:21:54Z</time>
      </trkpt>
      <trkpt lat="44.59952" lon="5.63426">
        <ele>1609.38</ele>
        <time>2013-05-02T09:22:02Z</time>
      </trkpt>
      <trkpt lat="44.59953" lon="5.63431">
        <ele>1609.86</ele>
        <time>2013-05-02T09:22:20Z</time>
      </trkpt>
      <trkpt lat="44.59958" lon="5.63433">
        <ele>1609.38</ele>
        <time>2013-05-02T09:22:26Z</time>
      </trkpt>
      <trkpt lat="44.59968" lon="5.63438">
        <ele>1610.83</ele>
        <time>2013-05-02T09:22:41Z</time>
      </trkpt>
      <trkpt lat="44.59977" lon="5.63451">
        <ele>1609.38</ele>
        <time>2013-05-02T09:22:58Z</time>
      </trkpt>
      <trkpt lat="44.59987" lon="5.63457">
        <ele>1607.94</ele>
        <time>2013-05-02T09:23:10Z</time>
      </trkpt>
      <trkpt lat="44.59993" lon="5.63461">
        <ele>1608.9</ele>
        <time>2013-05-02T09:23:18Z</time>
      </trkpt>
      <trkpt lat="44.60005" lon="5.63465">
        <ele>1611.31</ele>
        <time>2013-05-02T09:23:33Z</time>
      </trkpt>
      <trkpt lat="44.60018" lon="5.63467">
        <ele>1612.27</ele>
        <time>2013-05-02T09:23:48Z</time>
      </trkpt>
      <trkpt lat="44.60031" lon="5.63469">
        <ele>1612.75</ele>
        <time>2013-05-02T09:24:04Z</time>
      </trkpt>
      <trkpt lat="44.60034" lon="5.63471">
        <ele>1611.79</ele>
        <time>2013-05-02T09:24:08Z</time>
      </trkpt>
      <trkpt lat="44.60043" lon="5.63478">
        <ele>1610.35</ele>
        <time>2013-05-02T09:24:24Z</time>
      </trkpt>
      <trkpt lat="44.60047" lon="5.63479">
        <ele>1609.38</ele>
        <time>2013-05-02T09:24:30Z</time>
      </trkpt>
      <trkpt lat="44.6006" lon="5.63477">
        <ele>1609.38</ele>
        <time>2013-05-02T09:24:44Z</time>
      </trkpt>
      <trkpt lat="44.6008" lon="5.6347">
        <ele>1608.9</ele>
        <time>2013-05-02T09:25:05Z</time>
      </trkpt>
      <trkpt lat="44.60096" lon="5.63465">
        <ele>1608.42</ele>
        <time>2013-05-02T09:25:22Z</time>
      </trkpt>
      <trkpt lat="44.60112" lon="5.63466">
        <ele>1608.42</ele>
        <time>2013-05-02T09:25:37Z</time>
      </trkpt>
      <trkpt lat="44.60121" lon="5.63467">
        <ele>1607.94</ele>
        <time>2013-05-02T09:25:48Z</time>
      </trkpt>
      <trkpt lat="44.60133" lon="5.63474">
        <ele>1607.46</ele>
        <time>2013-05-02T09:26:03Z</time>
      </trkpt>
      <trkpt lat="44.60142" lon="5.63478">
        <ele>1608.9</ele>
        <time>2013-05-02T09:26:14Z</time>
      </trkpt>
      <trkpt lat="44.60152" lon="5.6348">
        <ele>1607.94</ele>
        <time>2013-05-02T09:26:27Z</time>
      </trkpt>
      <trkpt lat="44.60162" lon="5.63482">
        <ele>1608.9</ele>
        <time>2013-05-02T09:26:40Z</time>
      </trkpt>
      <trkpt lat="44.60177" lon="5.63486">
        <ele>1609.38</ele>
        <time>2013-05-02T09:26:56Z</time>
      </trkpt>
      <trkpt lat="44.6019" lon="5.63491">
        <ele>1609.86</ele>
        <time>2013-05-02T09:27:13Z</time>
      </trkpt>
      <trkpt lat="44.60203" lon="5.63496">
        <ele>1609.38</ele>
        <time>2013-05-02T09:27:27Z</time>
      </trkpt>
      <trkpt lat="44.60216" lon="5.63502">
        <ele>1609.38</ele>
        <time>2013-05-02T09:27:42Z</time>
      </trkpt>
      <trkpt lat="44.60222" lon="5.63503">
        <ele>1609.86</ele>
        <time>2013-05-02T09:27:48Z</time>
      </trkpt>
      <trkpt lat="44.6024" lon="5.63513">
        <ele>1608.9</ele>
        <time>2013-05-02T09:28:07Z</time>
      </trkpt>
      <trkpt lat="44.60251" lon="5.63525">
        <ele>1607.94</ele>
        <time>2013-05-02T09:28:23Z</time>
      </trkpt>
      <trkpt lat="44.60254" lon="5.63529">
        <ele>1606.98</ele>
        <time>2013-05-02T09:28:34Z</time>
      </trkpt>
      <trkpt lat="44.60263" lon="5.63541">
        <ele>1606.02</ele>
        <time>2013-05-02T09:28:51Z</time>
      </trkpt>
      <trkpt lat="44.6027" lon="5.63548">
        <ele>1605.06</ele>
        <time>2013-05-02T09:29:05Z</time>
      </trkpt>
      <trkpt lat="44.60284" lon="5.6356">
        <ele>1604.58</ele>
        <time>2013-05-02T09:29:22Z</time>
      </trkpt>
      <trkpt lat="44.60288" lon="5.63565">
        <ele>1605.06</ele>
        <time>2013-05-02T09:29:28Z</time>
      </trkpt>
      <trkpt lat="44.60298" lon="5.63577">
        <ele>1606.98</ele>
        <time>2013-05-02T09:29:43Z</time>
      </trkpt>
      <trkpt lat="44.60307" lon="5.63585">
        <ele>1609.38</ele>
        <time>2013-05-02T09:29:56Z</time>
      </trkpt>
      <trkpt lat="44.60312" lon="5.6359">
        <ele>1610.35</ele>
        <time>2013-05-02T09:30:04Z</time>
      </trkpt>
      <trkpt lat="44.60322" lon="5.63598">
        <ele>1612.27</ele>
        <time>2013-05-02T09:30:19Z</time>
      </trkpt>
      <trkpt lat="44.60331" lon="5.63605">
        <ele>1613.71</ele>
        <time>2013-05-02T09:30:33Z</time>
      </trkpt>
      <trkpt lat="44.60341" lon="5.63613">
        <ele>1615.15</ele>
        <time>2013-05-02T09:30:48Z</time>
      </trkpt>
      <trkpt lat="44.60351" lon="5.63621">
        <ele>1617.07</ele>
        <time>2013-05-02T09:31:03Z</time>
      </trkpt>
      <trkpt lat="44.60357" lon="5.63628">
        <ele>1619.48</ele>
        <time>2013-05-02T09:31:17Z</time>
      </trkpt>
      <trkpt lat="44.60363" lon="5.63636">
        <ele>1620.92</ele>
        <time>2013-05-02T09:31:30Z</time>
      </trkpt>
      <trkpt lat="44.60366" lon="5.63649">
        <ele>1622.36</ele>
        <time>2013-05-02T09:31:44Z</time>
      </trkpt>
      <trkpt lat="44.60366" lon="5.6365">
        <ele>1622.36</ele>
        <time>2013-05-02T09:31:45Z</time>
      </trkpt>
      <trkpt lat="44.60368" lon="5.63662">
        <ele>1624.28</ele>
        <time>2013-05-02T09:31:57Z</time>
      </trkpt>
      <trkpt lat="44.60371" lon="5.63672">
        <ele>1626.21</ele>
        <time>2013-05-02T09:32:10Z</time>
      </trkpt>
      <trkpt lat="44.60376" lon="5.63683">
        <ele>1629.09</ele>
        <time>2013-05-02T09:32:25Z</time>
      </trkpt>
      <trkpt lat="44.6038" lon="5.63689">
        <ele>1632.46</ele>
        <time>2013-05-02T09:32:37Z</time>
      </trkpt>
      <trkpt lat="44.60382" lon="5.63699">
        <ele>1633.9</ele>
        <time>2013-05-02T09:32:48Z</time>
      </trkpt>
      <trkpt lat="44.60387" lon="5.6371">
        <ele>1636.3</ele>
        <time>2013-05-02T09:33:03Z</time>
      </trkpt>
      <trkpt lat="44.6039" lon="5.63719">
        <ele>1637.74</ele>
        <time>2013-05-02T09:33:15Z</time>
      </trkpt>
      <trkpt lat="44.60394" lon="5.63731">
        <ele>1639.67</ele>
        <time>2013-05-02T09:33:30Z</time>
      </trkpt>
      <trkpt lat="44.60396" lon="5.63732">
        <ele>1640.15</ele>
        <time>2013-05-02T09:33:42Z</time>
      </trkpt>
      <trkpt lat="44.60396" lon="5.6373">
        <ele>1639.19</ele>
        <time>2013-05-02T09:33:59Z</time>
      </trkpt>
      <trkpt lat="44.60396" lon="5.6373">
        <ele>1642.55</ele>
        <time>2013-05-02T09:34:00Z</time>
      </trkpt>
      <trkpt lat="44.60398" lon="5.63734">
        <ele>1641.11</ele>
        <time>2013-05-02T09:34:19Z</time>
      </trkpt>
      <trkpt lat="44.60398" lon="5.63735">
        <ele>1640.63</ele>
        <time>2013-05-02T09:34:42Z</time>
      </trkpt>
      <trkpt lat="44.60397" lon="5.63734">
        <ele>1641.11</ele>
        <time>2013-05-02T09:35:00Z</time>
      </trkpt>
      <trkpt lat="44.60397" lon="5.63734">
        <ele>1641.11</ele>
        <time>2013-05-02T09:35:16Z</time>
      </trkpt>
      <trkpt lat="44.60397" lon="5.63737">
        <ele>1640.63</ele>
        <time>2013-05-02T09:35:41Z</time>
      </trkpt>
      <trkpt lat="44.60397" lon="5.63736">
        <ele>1641.11</ele>
        <time>2013-05-02T09:35:58Z</time>
      </trkpt>
      <trkpt lat="44.60404" lon="5.63734">
        <ele>1642.07</ele>
        <time>2013-05-02T09:36:11Z</time>
      </trkpt>
      <trkpt lat="44.60415" lon="5.63733">
        <ele>1643.03</ele>
        <time>2013-05-02T09:36:26Z</time>
      </trkpt>
      <trkpt lat="44.60419" lon="5.63734">
        <ele>1643.03</ele>
        <time>2013-05-02T09:36:39Z</time>
      </trkpt>
      <trkpt lat="44.60426" lon="5.63734">
        <ele>1643.03</ele>
        <time>2013-05-02T09:36:53Z</time>
      </trkpt>
      <trkpt lat="44.60427" lon="5.63734">
        <ele>1643.03</ele>
        <time>2013-05-02T09:36:55Z</time>
      </trkpt>
      <trkpt lat="44.60435" lon="5.63731">
        <ele>1643.03</ele>
        <time>2013-05-02T09:37:10Z</time>
      </trkpt>
      <trkpt lat="44.60441" lon="5.63728">
        <ele>1643.51</ele>
        <time>2013-05-02T09:37:23Z</time>
      </trkpt>
      <trkpt lat="44.60444" lon="5.63727">
        <ele>1643.99</ele>
        <time>2013-05-02T09:37:35Z</time>
      </trkpt>
      <trkpt lat="44.6045" lon="5.63722">
        <ele>1644.47</ele>
        <time>2013-05-02T09:37:46Z</time>
      </trkpt>
      <trkpt lat="44.60457" lon="5.63714">
        <ele>1647.36</ele>
        <time>2013-05-02T09:38:00Z</time>
      </trkpt>
      <trkpt lat="44.60462" lon="5.63706">
        <ele>1648.8</ele>
        <time>2013-05-02T09:38:15Z</time>
      </trkpt>
      <trkpt lat="44.60465" lon="5.63699">
        <ele>1651.2</ele>
        <time>2013-05-02T09:38:29Z</time>
      </trkpt>
      <trkpt lat="44.60466" lon="5.63692">
        <ele>1654.09</ele>
        <time>2013-05-02T09:38:46Z</time>
      </trkpt>
      <trkpt lat="44.60469" lon="5.63685">
        <ele>1655.53</ele>
        <time>2013-05-02T09:38:58Z</time>
      </trkpt>
      <trkpt lat="44.60473" lon="5.63675">
        <ele>1657.45</ele>
        <time>2013-05-02T09:39:14Z</time>
      </trkpt>
      <trkpt lat="44.60475" lon="5.63669">
        <ele>1658.41</ele>
        <time>2013-05-02T09:39:25Z</time>
      </trkpt>
      <trkpt lat="44.60482" lon="5.63664">
        <ele>1660.81</ele>
        <time>2013-05-02T09:39:39Z</time>
      </trkpt>
      <trkpt lat="44.60491" lon="5.63657">
        <ele>1661.3</ele>
        <time>2013-05-02T09:39:52Z</time>
      </trkpt>
      <trkpt lat="44.60504" lon="5.63652">
        <ele>1661.3</ele>
        <time>2013-05-02T09:40:09Z</time>
      </trkpt>
      <trkpt lat="44.60506" lon="5.63652">
        <ele>1661.78</ele>
        <time>2013-05-02T09:40:11Z</time>
      </trkpt>
      <trkpt lat="44.60516" lon="5.63643">
        <ele>1661.3</ele>
        <time>2013-05-02T09:40:25Z</time>
      </trkpt>
      <trkpt lat="44.60518" lon="5.6364">
        <ele>1661.78</ele>
        <time>2013-05-02T09:40:29Z</time>
      </trkpt>
      <trkpt lat="44.60524" lon="5.63636">
        <ele>1662.74</ele>
        <time>2013-05-02T09:40:37Z</time>
      </trkpt>
      <trkpt lat="44.60526" lon="5.63634">
        <ele>1662.26</ele>
        <time>2013-05-02T09:40:40Z</time>
      </trkpt>
      <trkpt lat="44.60536" lon="5.63631">
        <ele>1661.78</ele>
        <time>2013-05-02T09:40:56Z</time>
      </trkpt>
      <trkpt lat="44.60536" lon="5.63631">
        <ele>1661.3</ele>
        <time>2013-05-02T09:41:20Z</time>
      </trkpt>
      <trkpt lat="44.60536" lon="5.63631">
        <ele>1661.78</ele>
        <time>2013-05-02T09:41:42Z</time>
      </trkpt>
      <trkpt lat="44.60536" lon="5.63632">
        <ele>1661.78</ele>
        <time>2013-05-02T09:42:07Z</time>
      </trkpt>
      <trkpt lat="44.60536" lon="5.63632">
        <ele>1661.78</ele>
        <time>2013-05-02T09:42:34Z</time>
      </trkpt>
      <trkpt lat="44.60536" lon="5.63631">
        <ele>1661.78</ele>
        <time>2013-05-02T09:42:57Z</time>
      </trkpt>
      <trkpt lat="44.60545" lon="5.6363">
        <ele>1660.81</ele>
        <time>2013-05-02T09:43:11Z</time>
      </trkpt>
      <trkpt lat="44.60554" lon="5.63631">
        <ele>1659.37</ele>
        <time>2013-05-02T09:43:26Z</time>
      </trkpt>
      <trkpt lat="44.60561" lon="5.6363">
        <ele>1658.41</ele>
        <time>2013-05-02T09:43:40Z</time>
      </trkpt>
      <trkpt lat="44.60573" lon="5.63626">
        <ele>1656.01</ele>
        <time>2013-05-02T09:43:56Z</time>
      </trkpt>
      <trkpt lat="44.60584" lon="5.63624">
        <ele>1655.05</ele>
        <time>2013-05-02T09:44:11Z</time>
      </trkpt>
      <trkpt lat="44.60599" lon="5.6362">
        <ele>1653.6</ele>
        <time>2013-05-02T09:44:28Z</time>
      </trkpt>
      <trkpt lat="44.60616" lon="5.63615">
        <ele>1653.6</ele>
        <time>2013-05-02T09:44:46Z</time>
      </trkpt>
      <trkpt lat="44.6063" lon="5.63612">
        <ele>1653.12</ele>
        <time>2013-05-02T09:45:02Z</time>
      </trkpt>
      <trkpt lat="44.60639" lon="5.63608">
        <ele>1650.72</ele>
        <time>2013-05-02T09:45:16Z</time>
      </trkpt>
      <trkpt lat="44.60653" lon="5.63606">
        <ele>1649.28</ele>
        <time>2013-05-02T09:45:32Z</time>
      </trkpt>
      <trkpt lat="44.60665" lon="5.63605">
        <ele>1648.32</ele>
        <time>2013-05-02T09:45:48Z</time>
      </trkpt>
      <trkpt lat="44.60677" lon="5.63602">
        <ele>1648.32</ele>
        <time>2013-05-02T09:46:03Z</time>
      </trkpt>
      <trkpt lat="44.60691" lon="5.63597">
        <ele>1646.88</ele>
        <time>2013-05-02T09:46:18Z</time>
      </trkpt>
      <trkpt lat="44.60699" lon="5.63594">
        <ele>1644.47</ele>
        <time>2013-05-02T09:46:31Z</time>
      </trkpt>
      <trkpt lat="44.60711" lon="5.63592">
        <ele>1643.99</ele>
        <time>2013-05-02T09:46:44Z</time>
      </trkpt>
      <trkpt lat="44.60719" lon="5.63593">
        <ele>1643.99</ele>
        <time>2013-05-02T09:46:52Z</time>
      </trkpt>
      <trkpt lat="44.60731" lon="5.63592">
        <ele>1643.51</ele>
        <time>2013-05-02T09:47:07Z</time>
      </trkpt>
      <trkpt lat="44.60746" lon="5.63592">
        <ele>1642.07</ele>
        <time>2013-05-02T09:47:24Z</time>
      </trkpt>
      <trkpt lat="44.60757" lon="5.63591">
        <ele>1642.07</ele>
        <time>2013-05-02T09:47:38Z</time>
      </trkpt>
      <trkpt lat="44.60764" lon="5.63594">
        <ele>1641.11</ele>
        <time>2013-05-02T09:47:49Z</time>
      </trkpt>
      <trkpt lat="44.60768" lon="5.63595">
        <ele>1640.15</ele>
        <time>2013-05-02T09:47:54Z</time>
      </trkpt>
      <trkpt lat="44.60781" lon="5.63596">
        <ele>1638.7</ele>
        <time>2013-05-02T09:48:09Z</time>
      </trkpt>
      <trkpt lat="44.60793" lon="5.63595">
        <ele>1637.74</ele>
        <time>2013-05-02T09:48:23Z</time>
      </trkpt>
      <trkpt lat="44.60804" lon="5.63596">
        <ele>1637.26</ele>
        <time>2013-05-02T09:48:36Z</time>
      </trkpt>
      <trkpt lat="44.60818" lon="5.63597">
        <ele>1634.38</ele>
        <time>2013-05-02T09:48:53Z</time>
      </trkpt>
      <trkpt lat="44.60822" lon="5.63598">
        <ele>1633.9</ele>
        <time>2013-05-02T09:48:58Z</time>
      </trkpt>
      <trkpt lat="44.60833" lon="5.63604">
        <ele>1630.05</ele>
        <time>2013-05-02T09:49:13Z</time>
      </trkpt>
      <trkpt lat="44.60844" lon="5.63609">
        <ele>1628.13</ele>
        <time>2013-05-02T09:49:27Z</time>
      </trkpt>
      <trkpt lat="44.6085" lon="5.63613">
        <ele>1624.77</ele>
        <time>2013-05-02T09:49:35Z</time>
      </trkpt>
      <trkpt lat="44.60859" lon="5.63616">
        <ele>1621.88</ele>
        <time>2013-05-02T09:49:46Z</time>
      </trkpt>
      <trkpt lat="44.60863" lon="5.63619">
        <ele>1620.44</ele>
        <time>2013-05-02T09:49:51Z</time>
      </trkpt>
      <trkpt lat="44.60867" lon="5.63623">
        <ele>1618.04</ele>
        <time>2013-05-02T09:49:56Z</time>
      </trkpt>
      <trkpt lat="44.60873" lon="5.6363">
        <ele>1614.67</ele>
        <time>2013-05-02T09:50:06Z</time>
      </trkpt>
      <trkpt lat="44.60878" lon="5.63637">
        <ele>1611.31</ele>
        <time>2013-05-02T09:50:17Z</time>
      </trkpt>
      <trkpt lat="44.60883" lon="5.63643">
        <ele>1608.9</ele>
        <time>2013-05-02T09:50:27Z</time>
      </trkpt>
      <trkpt lat="44.60885" lon="5.63656">
        <ele>1606.98</ele>
        <time>2013-05-02T09:50:43Z</time>
      </trkpt>
      <trkpt lat="44.60886" lon="5.63668">
        <ele>1606.5</ele>
        <time>2013-05-02T09:50:58Z</time>
      </trkpt>
      <trkpt lat="44.60888" lon="5.63679">
        <ele>1603.62</ele>
        <time>2013-05-02T09:51:08Z</time>
      </trkpt>
      <trkpt lat="44.60891" lon="5.63696">
        <ele>1600.25</ele>
        <time>2013-05-02T09:51:22Z</time>
      </trkpt>
      <trkpt lat="44.60891" lon="5.63701">
        <ele>1599.77</ele>
        <time>2013-05-02T09:51:25Z</time>
      </trkpt>
      <trkpt lat="44.60894" lon="5.63709">
        <ele>1597.37</ele>
        <time>2013-05-02T09:51:31Z</time>
      </trkpt>
      <trkpt lat="44.60896" lon="5.63717">
        <ele>1596.89</ele>
        <time>2013-05-02T09:51:38Z</time>
      </trkpt>
      <trkpt lat="44.609" lon="5.63728">
        <ele>1594.48</ele>
        <time>2013-05-02T09:51:46Z</time>
      </trkpt>
      <trkpt lat="44.60906" lon="5.63754">
        <ele>1591.6</ele>
        <time>2013-05-02T09:52:03Z</time>
      </trkpt>
      <trkpt lat="44.60912" lon="5.6378">
        <ele>1592.08</ele>
        <time>2013-05-02T09:52:21Z</time>
      </trkpt>
      <trkpt lat="44.60917" lon="5.63807">
        <ele>1592.56</ele>
        <time>2013-05-02T09:52:39Z</time>
      </trkpt>
      <trkpt lat="44.60921" lon="5.63831">
        <ele>1593.04</ele>
        <time>2013-05-02T09:52:57Z</time>
      </trkpt>
      <trkpt lat="44.60926" lon="5.63849">
        <ele>1591.6</ele>
        <time>2013-05-02T09:53:12Z</time>
      </trkpt>
      <trkpt lat="44.60929" lon="5.63866">
        <ele>1590.64</ele>
        <time>2013-05-02T09:53:28Z</time>
      </trkpt>
      <trkpt lat="44.60933" lon="5.63868">
        <ele>1591.12</ele>
        <time>2013-05-02T09:53:42Z</time>
      </trkpt>
      <trkpt lat="44.60934" lon="5.63868">
        <ele>1591.12</ele>
        <time>2013-05-02T09:53:55Z</time>
      </trkpt>
      <trkpt lat="44.60936" lon="5.63867">
        <ele>1591.6</ele>
        <time>2013-05-02T09:54:08Z</time>
      </trkpt>
      <trkpt lat="44.60937" lon="5.63868">
        <ele>1591.12</ele>
        <time>2013-05-02T09:54:30Z</time>
      </trkpt>
      <trkpt lat="44.60935" lon="5.63867">
        <ele>1591.12</ele>
        <time>2013-05-02T09:55:01Z</time>
      </trkpt>
      <trkpt lat="44.60937" lon="5.63867">
        <ele>1591.12</ele>
        <time>2013-05-02T09:55:30Z</time>
      </trkpt>
      <trkpt lat="44.60937" lon="5.63868">
        <ele>1591.6</ele>
        <time>2013-05-02T09:55:54Z</time>
      </trkpt>
      <trkpt lat="44.60937" lon="5.63868">
        <ele>1592.08</ele>
        <time>2013-05-02T09:56:22Z</time>
      </trkpt>
      <trkpt lat="44.60938" lon="5.63868">
        <ele>1592.08</ele>
        <time>2013-05-02T09:56:50Z</time>
      </trkpt>
      <trkpt lat="44.60938" lon="5.63868">
        <ele>1592.08</ele>
        <time>2013-05-02T09:57:21Z</time>
      </trkpt>
      <trkpt lat="44.6094" lon="5.63868">
        <ele>1591.6</ele>
        <time>2013-05-02T09:57:45Z</time>
      </trkpt>
      <trkpt lat="44.60938" lon="5.63867">
        <ele>1592.08</ele>
        <time>2013-05-02T09:58:12Z</time>
      </trkpt>
      <trkpt lat="44.60937" lon="5.63868">
        <ele>1591.6</ele>
        <time>2013-05-02T09:58:43Z</time>
      </trkpt>
      <trkpt lat="44.60937" lon="5.63867">
        <ele>1592.08</ele>
        <time>2013-05-02T09:59:15Z</time>
      </trkpt>
      <trkpt lat="44.60937" lon="5.63868">
        <ele>1591.6</ele>
        <time>2013-05-02T09:59:38Z</time>
      </trkpt>
      <trkpt lat="44.60937" lon="5.63869">
        <ele>1591.6</ele>
        <time>2013-05-02T10:00:01Z</time>
      </trkpt>
      <trkpt lat="44.60936" lon="5.63867">
        <ele>1592.08</ele>
        <time>2013-05-02T10:00:30Z</time>
      </trkpt>
      <trkpt lat="44.60938" lon="5.63866">
        <ele>1591.6</ele>
        <time>2013-05-02T10:00:58Z</time>
      </trkpt>
      <trkpt lat="44.60936" lon="5.63867">
        <ele>1591.6</ele>
        <time>2013-05-02T10:01:22Z</time>
      </trkpt>
      <trkpt lat="44.60937" lon="5.63867">
        <ele>1591.6</ele>
        <time>2013-05-02T10:02:01Z</time>
      </trkpt>
      <trkpt lat="44.60938" lon="5.63868">
        <ele>1591.6</ele>
        <time>2013-05-02T10:02:25Z</time>
      </trkpt>
      <trkpt lat="44.60938" lon="5.63867">
        <ele>1591.6</ele>
        <time>2013-05-02T10:02:50Z</time>
      </trkpt>
      <trkpt lat="44.6094" lon="5.63868">
        <ele>1591.6</ele>
        <time>2013-05-02T10:03:15Z</time>
      </trkpt>
      <trkpt lat="44.60938" lon="5.63869">
        <ele>1591.6</ele>
        <time>2013-05-02T10:03:47Z</time>
      </trkpt>
      <trkpt lat="44.60937" lon="5.63867">
        <ele>1592.08</ele>
        <time>2013-05-02T10:04:08Z</time>
      </trkpt>
      <trkpt lat="44.60938" lon="5.63867">
        <ele>1591.6</ele>
        <time>2013-05-02T10:04:38Z</time>
      </trkpt>
      <trkpt lat="44.60939" lon="5.63866">
        <ele>1591.6</ele>
        <time>2013-05-02T10:04:57Z</time>
      </trkpt>
      <trkpt lat="44.60938" lon="5.63865">
        <ele>1592.08</ele>
        <time>2013-05-02T10:05:27Z</time>
      </trkpt>
      <trkpt lat="44.60937" lon="5.63865">
        <ele>1592.08</ele>
        <time>2013-05-02T10:05:58Z</time>
      </trkpt>
      <trkpt lat="44.60939" lon="5.63867">
        <ele>1592.08</ele>
        <time>2013-05-02T10:06:30Z</time>
      </trkpt>
      <trkpt lat="44.60937" lon="5.63867">
        <ele>1592.08</ele>
        <time>2013-05-02T10:06:52Z</time>
      </trkpt>
      <trkpt lat="44.60939" lon="5.63868">
        <ele>1592.08</ele>
        <time>2013-05-02T10:07:21Z</time>
      </trkpt>
      <trkpt lat="44.60939" lon="5.63868">
        <ele>1592.08</ele>
        <time>2013-05-02T10:07:50Z</time>
      </trkpt>
      <trkpt lat="44.60939" lon="5.63868">
        <ele>1592.08</ele>
        <time>2013-05-02T10:08:18Z</time>
      </trkpt>
      <trkpt lat="44.60939" lon="5.63867">
        <ele>1592.08</ele>
        <time>2013-05-02T10:08:50Z</time>
      </trkpt>
      <trkpt lat="44.60937" lon="5.63866">
        <ele>1592.08</ele>
        <time>2013-05-02T10:09:19Z</time>
      </trkpt>
      <trkpt lat="44.60938" lon="5.63867">
        <ele>1592.08</ele>
        <time>2013-05-02T10:09:42Z</time>
      </trkpt>
      <trkpt lat="44.60939" lon="5.63866">
        <ele>1592.08</ele>
        <time>2013-05-02T10:10:06Z</time>
      </trkpt>
      <trkpt lat="44.60937" lon="5.63866">
        <ele>1592.08</ele>
        <time>2013-05-02T10:10:27Z</time>
      </trkpt>
      <trkpt lat="44.60938" lon="5.63868">
        <ele>1592.08</ele>
        <time>2013-05-02T10:10:58Z</time>
      </trkpt>
      <trkpt lat="44.60938" lon="5.63865">
        <ele>1592.56</ele>
        <time>2013-05-02T10:11:33Z</time>
      </trkpt>
      <trkpt lat="44.6094" lon="5.63866">
        <ele>1592.56</ele>
        <time>2013-05-02T10:11:58Z</time>
      </trkpt>
      <trkpt lat="44.60937" lon="5.63866">
        <ele>1592.08</ele>
        <time>2013-05-02T10:12:33Z</time>
      </trkpt>
      <trkpt lat="44.60939" lon="5.63867">
        <ele>1592.08</ele>
        <time>2013-05-02T10:13:10Z</time>
      </trkpt>
      <trkpt lat="44.60938" lon="5.63868">
        <ele>1592.08</ele>
        <time>2013-05-02T10:13:38Z</time>
      </trkpt>
      <trkpt lat="44.60936" lon="5.63867">
        <ele>1592.56</ele>
        <time>2013-05-02T10:14:09Z</time>
      </trkpt>
      <trkpt lat="44.60937" lon="5.63866">
        <ele>1592.08</ele>
        <time>2013-05-02T10:14:40Z</time>
      </trkpt>
      <trkpt lat="44.60937" lon="5.63866">
        <ele>1592.56</ele>
        <time>2013-05-02T10:15:10Z</time>
      </trkpt>
      <trkpt lat="44.60937" lon="5.63865">
        <ele>1592.56</ele>
        <time>2013-05-02T10:15:34Z</time>
      </trkpt>
      <trkpt lat="44.60938" lon="5.63866">
        <ele>1592.56</ele>
        <time>2013-05-02T10:16:03Z</time>
      </trkpt>
      <trkpt lat="44.60937" lon="5.63869">
        <ele>1592.56</ele>
        <time>2013-05-02T10:16:42Z</time>
      </trkpt>
      <trkpt lat="44.60937" lon="5.63868">
        <ele>1592.56</ele>
        <time>2013-05-02T10:17:11Z</time>
      </trkpt>
      <trkpt lat="44.60937" lon="5.63868">
        <ele>1593.04</ele>
        <time>2013-05-02T10:17:39Z</time>
      </trkpt>
      <trkpt lat="44.60936" lon="5.63868">
        <ele>1592.56</ele>
        <time>2013-05-02T10:18:05Z</time>
      </trkpt>
      <trkpt lat="44.60937" lon="5.63868">
        <ele>1593.52</ele>
        <time>2013-05-02T10:18:31Z</time>
      </trkpt>
      <trkpt lat="44.60938" lon="5.63865">
        <ele>1593.04</ele>
        <time>2013-05-02T10:19:05Z</time>
      </trkpt>
      <trkpt lat="44.60937" lon="5.63868">
        <ele>1593.52</ele>
        <time>2013-05-02T10:19:40Z</time>
      </trkpt>
      <trkpt lat="44.60937" lon="5.63866">
        <ele>1593.04</ele>
        <time>2013-05-02T10:20:12Z</time>
      </trkpt>
      <trkpt lat="44.60937" lon="5.63867">
        <ele>1593.04</ele>
        <time>2013-05-02T10:20:36Z</time>
      </trkpt>
      <trkpt lat="44.60938" lon="5.63865">
        <ele>1593.04</ele>
        <time>2013-05-02T10:20:57Z</time>
      </trkpt>
      <trkpt lat="44.60936" lon="5.63866">
        <ele>1593.52</ele>
        <time>2013-05-02T10:21:31Z</time>
      </trkpt>
      <trkpt lat="44.60939" lon="5.63865">
        <ele>1593.04</ele>
        <time>2013-05-02T10:21:55Z</time>
      </trkpt>
      <trkpt lat="44.60936" lon="5.63866">
        <ele>1593.04</ele>
        <time>2013-05-02T10:22:32Z</time>
      </trkpt>
      <trkpt lat="44.60938" lon="5.63865">
        <ele>1593.52</ele>
        <time>2013-05-02T10:22:56Z</time>
      </trkpt>
      <trkpt lat="44.60936" lon="5.63867">
        <ele>1593.52</ele>
        <time>2013-05-02T10:23:22Z</time>
      </trkpt>
      <trkpt lat="44.60938" lon="5.63866">
        <ele>1593.52</ele>
        <time>2013-05-02T10:23:55Z</time>
      </trkpt>
      <trkpt lat="44.60937" lon="5.63866">
        <ele>1594</ele>
        <time>2013-05-02T10:24:27Z</time>
      </trkpt>
      <trkpt lat="44.60939" lon="5.63865">
        <ele>1593.04</ele>
        <time>2013-05-02T10:24:55Z</time>
      </trkpt>
      <trkpt lat="44.60938" lon="5.63866">
        <ele>1593.52</ele>
        <time>2013-05-02T10:25:23Z</time>
      </trkpt>
      <trkpt lat="44.60938" lon="5.63865">
        <ele>1593.52</ele>
        <time>2013-05-02T10:26:04Z</time>
      </trkpt>
      <trkpt lat="44.60937" lon="5.63866">
        <ele>1593.52</ele>
        <time>2013-05-02T10:26:35Z</time>
      </trkpt>
      <trkpt lat="44.60937" lon="5.63865">
        <ele>1593.52</ele>
        <time>2013-05-02T10:26:58Z</time>
      </trkpt>
      <trkpt lat="44.60936" lon="5.63865">
        <ele>1593.52</ele>
        <time>2013-05-02T10:27:25Z</time>
      </trkpt>
      <trkpt lat="44.60936" lon="5.63867">
        <ele>1594</ele>
        <time>2013-05-02T10:28:05Z</time>
      </trkpt>
      <trkpt lat="44.60937" lon="5.63865">
        <ele>1594.48</ele>
        <time>2013-05-02T10:28:34Z</time>
      </trkpt>
      <trkpt lat="44.60936" lon="5.63867">
        <ele>1594</ele>
        <time>2013-05-02T10:29:05Z</time>
      </trkpt>
      <trkpt lat="44.60938" lon="5.63867">
        <ele>1593.52</ele>
        <time>2013-05-02T10:29:41Z</time>
      </trkpt>
      <trkpt lat="44.60937" lon="5.63866">
        <ele>1593.52</ele>
        <time>2013-05-02T10:30:10Z</time>
      </trkpt>
      <trkpt lat="44.60938" lon="5.63866">
        <ele>1593.52</ele>
        <time>2013-05-02T10:30:37Z</time>
      </trkpt>
      <trkpt lat="44.60936" lon="5.63865">
        <ele>1593.52</ele>
        <time>2013-05-02T10:31:08Z</time>
      </trkpt>
      <trkpt lat="44.60937" lon="5.63866">
        <ele>1592.56</ele>
        <time>2013-05-02T10:31:43Z</time>
      </trkpt>
      <trkpt lat="44.60938" lon="5.63865">
        <ele>1593.04</ele>
        <time>2013-05-02T10:32:19Z</time>
      </trkpt>
      <trkpt lat="44.60936" lon="5.63866">
        <ele>1593.04</ele>
        <time>2013-05-02T10:32:42Z</time>
      </trkpt>
      <trkpt lat="44.60938" lon="5.63866">
        <ele>1593.04</ele>
        <time>2013-05-02T10:33:11Z</time>
      </trkpt>
      <trkpt lat="44.60938" lon="5.63865">
        <ele>1593.04</ele>
        <time>2013-05-02T10:33:46Z</time>
      </trkpt>
      <trkpt lat="44.60937" lon="5.63866">
        <ele>1593.04</ele>
        <time>2013-05-02T10:34:24Z</time>
      </trkpt>
      <trkpt lat="44.6094" lon="5.63866">
        <ele>1593.04</ele>
        <time>2013-05-02T10:34:47Z</time>
      </trkpt>
      <trkpt lat="44.60936" lon="5.63866">
        <ele>1593.52</ele>
        <time>2013-05-02T10:35:17Z</time>
      </trkpt>
      <trkpt lat="44.60938" lon="5.63865">
        <ele>1593.04</ele>
        <time>2013-05-02T10:35:54Z</time>
      </trkpt>
      <trkpt lat="44.6094" lon="5.63866">
        <ele>1593.52</ele>
        <time>2013-05-02T10:36:26Z</time>
      </trkpt>
      <trkpt lat="44.6094" lon="5.63866">
        <ele>1593.04</ele>
        <time>2013-05-02T10:36:55Z</time>
      </trkpt>
      <trkpt lat="44.6094" lon="5.63866">
        <ele>1593.52</ele>
        <time>2013-05-02T10:37:19Z</time>
      </trkpt>
      <trkpt lat="44.60938" lon="5.63867">
        <ele>1593.52</ele>
        <time>2013-05-02T10:37:54Z</time>
      </trkpt>
      <trkpt lat="44.60937" lon="5.63868">
        <ele>1593.52</ele>
        <time>2013-05-02T10:38:34Z</time>
      </trkpt>
      <trkpt lat="44.60937" lon="5.63868">
        <ele>1593.04</ele>
        <time>2013-05-02T10:39:07Z</time>
      </trkpt>
      <trkpt lat="44.60936" lon="5.63869">
        <ele>1593.04</ele>
        <time>2013-05-02T10:39:50Z</time>
      </trkpt>
      <trkpt lat="44.60938" lon="5.63868">
        <ele>1593.04</ele>
        <time>2013-05-02T10:40:30Z</time>
      </trkpt>
      <trkpt lat="44.60938" lon="5.63867">
        <ele>1593.04</ele>
        <time>2013-05-02T10:40:41Z</time>
      </trkpt>
      <trkpt lat="44.60938" lon="5.63867">
        <ele>1592.56</ele>
        <time>2013-05-02T10:41:20Z</time>
      </trkpt>
      <trkpt lat="44.60938" lon="5.63868">
        <ele>1593.04</ele>
        <time>2013-05-02T10:42:03Z</time>
      </trkpt>
      <trkpt lat="44.60936" lon="5.63868">
        <ele>1592.08</ele>
        <time>2013-05-02T10:42:44Z</time>
      </trkpt>
      <trkpt lat="44.60937" lon="5.63867">
        <ele>1592.56</ele>
        <time>2013-05-02T10:43:18Z</time>
      </trkpt>
      <trkpt lat="44.60936" lon="5.63866">
        <ele>1592.56</ele>
        <time>2013-05-02T10:43:47Z</time>
      </trkpt>
      <trkpt lat="44.60937" lon="5.63867">
        <ele>1592.56</ele>
        <time>2013-05-02T10:44:25Z</time>
      </trkpt>
      <trkpt lat="44.60937" lon="5.63867">
        <ele>1592.08</ele>
        <time>2013-05-02T10:44:54Z</time>
      </trkpt>
      <trkpt lat="44.60938" lon="5.63867">
        <ele>1592.08</ele>
        <time>2013-05-02T10:45:26Z</time>
      </trkpt>
      <trkpt lat="44.60937" lon="5.63866">
        <ele>1592.08</ele>
        <time>2013-05-02T10:46:00Z</time>
      </trkpt>
      <trkpt lat="44.60936" lon="5.63866">
        <ele>1591.6</ele>
        <time>2013-05-02T10:46:24Z</time>
      </trkpt>
      <trkpt lat="44.60937" lon="5.63868">
        <ele>1592.08</ele>
        <time>2013-05-02T10:46:53Z</time>
      </trkpt>
      <trkpt lat="44.60935" lon="5.63866">
        <ele>1591.6</ele>
        <time>2013-05-02T10:47:23Z</time>
      </trkpt>
      <trkpt lat="44.60936" lon="5.63867">
        <ele>1591.6</ele>
        <time>2013-05-02T10:47:46Z</time>
      </trkpt>
      <trkpt lat="44.60935" lon="5.63867">
        <ele>1591.12</ele>
        <time>2013-05-02T10:48:19Z</time>
      </trkpt>
      <trkpt lat="44.60937" lon="5.63868">
        <ele>1591.6</ele>
        <time>2013-05-02T10:48:51Z</time>
      </trkpt>
      <trkpt lat="44.60937" lon="5.63868">
        <ele>1591.6</ele>
        <time>2013-05-02T10:49:16Z</time>
      </trkpt>
      <trkpt lat="44.60937" lon="5.63867">
        <ele>1591.12</ele>
        <time>2013-05-02T10:49:48Z</time>
      </trkpt>
      <trkpt lat="44.60937" lon="5.63867">
        <ele>1591.12</ele>
        <time>2013-05-02T10:50:20Z</time>
      </trkpt>
      <trkpt lat="44.60935" lon="5.63868">
        <ele>1591.6</ele>
        <time>2013-05-02T10:50:56Z</time>
      </trkpt>
      <trkpt lat="44.60936" lon="5.63867">
        <ele>1591.12</ele>
        <time>2013-05-02T10:51:31Z</time>
      </trkpt>
      <trkpt lat="44.60936" lon="5.63869">
        <ele>1591.12</ele>
        <time>2013-05-02T10:52:08Z</time>
      </trkpt>
      <trkpt lat="44.60936" lon="5.63869">
        <ele>1592.56</ele>
        <time>2013-05-02T10:52:43Z</time>
      </trkpt>
      <trkpt lat="44.60936" lon="5.63867">
        <ele>1591.6</ele>
        <time>2013-05-02T10:53:23Z</time>
      </trkpt>
      <trkpt lat="44.60936" lon="5.63868">
        <ele>1592.08</ele>
        <time>2013-05-02T10:53:51Z</time>
      </trkpt>
      <trkpt lat="44.60936" lon="5.63867">
        <ele>1591.12</ele>
        <time>2013-05-02T10:54:37Z</time>
      </trkpt>
      <trkpt lat="44.60937" lon="5.63868">
        <ele>1592.08</ele>
        <time>2013-05-02T10:55:11Z</time>
      </trkpt>
      <trkpt lat="44.60937" lon="5.63867">
        <ele>1591.6</ele>
        <time>2013-05-02T10:55:39Z</time>
      </trkpt>
      <trkpt lat="44.60937" lon="5.63866">
        <ele>1591.12</ele>
        <time>2013-05-02T10:56:13Z</time>
      </trkpt>
      <trkpt lat="44.60937" lon="5.63866">
        <ele>1592.08</ele>
        <time>2013-05-02T10:56:46Z</time>
      </trkpt>
      <trkpt lat="44.60939" lon="5.63866">
        <ele>1592.08</ele>
        <time>2013-05-02T10:57:21Z</time>
      </trkpt>
      <trkpt lat="44.60936" lon="5.63866">
        <ele>1593.04</ele>
        <time>2013-05-02T10:57:49Z</time>
      </trkpt>
      <trkpt lat="44.60935" lon="5.63867">
        <ele>1592.08</ele>
        <time>2013-05-02T10:58:00Z</time>
      </trkpt>
      <trkpt lat="44.60932" lon="5.63869">
        <ele>1592.08</ele>
        <time>2013-05-02T10:58:11Z</time>
      </trkpt>
      <trkpt lat="44.6093" lon="5.63871">
        <ele>1591.6</ele>
        <time>2013-05-02T10:58:33Z</time>
      </trkpt>
      <trkpt lat="44.60931" lon="5.63868">
        <ele>1592.56</ele>
        <time>2013-05-02T10:58:45Z</time>
      </trkpt>
      <trkpt lat="44.6093" lon="5.63865">
        <ele>1592.08</ele>
        <time>2013-05-02T10:59:05Z</time>
      </trkpt>
      <trkpt lat="44.60932" lon="5.63866">
        <ele>1591.6</ele>
        <time>2013-05-02T10:59:30Z</time>
      </trkpt>
      <trkpt lat="44.60932" lon="5.63867">
        <ele>1592.08</ele>
        <time>2013-05-02T10:59:53Z</time>
      </trkpt>
      <trkpt lat="44.6093" lon="5.63869">
        <ele>1592.08</ele>
        <time>2013-05-02T11:00:06Z</time>
      </trkpt>
      <trkpt lat="44.60931" lon="5.6387">
        <ele>1592.08</ele>
        <time>2013-05-02T11:00:22Z</time>
      </trkpt>
      <trkpt lat="44.6093" lon="5.63872">
        <ele>1592.08</ele>
        <time>2013-05-02T11:00:48Z</time>
      </trkpt>
      <trkpt lat="44.60931" lon="5.63871">
        <ele>1592.08</ele>
        <time>2013-05-02T11:01:12Z</time>
      </trkpt>
      <trkpt lat="44.6093" lon="5.63869">
        <ele>1591.6</ele>
        <time>2013-05-02T11:01:26Z</time>
      </trkpt>
      <trkpt lat="44.60929" lon="5.63871">
        <ele>1592.08</ele>
        <time>2013-05-02T11:01:49Z</time>
      </trkpt>
      <trkpt lat="44.60928" lon="5.63872">
        <ele>1592.56</ele>
        <time>2013-05-02T11:02:06Z</time>
      </trkpt>
      <trkpt lat="44.60926" lon="5.63872">
        <ele>1592.08</ele>
        <time>2013-05-02T11:02:19Z</time>
      </trkpt>
      <trkpt lat="44.60925" lon="5.63881">
        <ele>1592.08</ele>
        <time>2013-05-02T11:02:31Z</time>
      </trkpt>
      <trkpt lat="44.60925" lon="5.63891">
        <ele>1591.6</ele>
        <time>2013-05-02T11:02:44Z</time>
      </trkpt>
      <trkpt lat="44.60927" lon="5.63902">
        <ele>1591.12</ele>
        <time>2013-05-02T11:02:57Z</time>
      </trkpt>
      <trkpt lat="44.60931" lon="5.63913">
        <ele>1590.16</ele>
        <time>2013-05-02T11:03:11Z</time>
      </trkpt>
      <trkpt lat="44.6093" lon="5.6392">
        <ele>1588.24</ele>
        <time>2013-05-02T11:03:23Z</time>
      </trkpt>
      <trkpt lat="44.6093" lon="5.63934">
        <ele>1586.31</ele>
        <time>2013-05-02T11:03:37Z</time>
      </trkpt>
      <trkpt lat="44.60933" lon="5.63951">
        <ele>1584.87</ele>
        <time>2013-05-02T11:03:52Z</time>
      </trkpt>
      <trkpt lat="44.60932" lon="5.63957">
        <ele>1582.95</ele>
        <time>2013-05-02T11:04:05Z</time>
      </trkpt>
      <trkpt lat="44.60932" lon="5.63962">
        <ele>1581.99</ele>
        <time>2013-05-02T11:04:16Z</time>
      </trkpt>
      <trkpt lat="44.60932" lon="5.63968">
        <ele>1580.06</ele>
        <time>2013-05-02T11:04:30Z</time>
      </trkpt>
      <trkpt lat="44.60931" lon="5.63972">
        <ele>1579.1</ele>
        <time>2013-05-02T11:04:45Z</time>
      </trkpt>
      <trkpt lat="44.60931" lon="5.63977">
        <ele>1578.14</ele>
        <time>2013-05-02T11:04:56Z</time>
      </trkpt>
      <trkpt lat="44.60931" lon="5.63978">
        <ele>1578.14</ele>
        <time>2013-05-02T11:04:58Z</time>
      </trkpt>
      <trkpt lat="44.60932" lon="5.63987">
        <ele>1576.22</ele>
        <time>2013-05-02T11:05:11Z</time>
      </trkpt>
      <trkpt lat="44.60935" lon="5.63992">
        <ele>1576.22</ele>
        <time>2013-05-02T11:05:21Z</time>
      </trkpt>
      <trkpt lat="44.60935" lon="5.63997">
        <ele>1575.74</ele>
        <time>2013-05-02T11:05:31Z</time>
      </trkpt>
      <trkpt lat="44.60934" lon="5.6401">
        <ele>1573.33</ele>
        <time>2013-05-02T11:05:46Z</time>
      </trkpt>
      <trkpt lat="44.60934" lon="5.64018">
        <ele>1572.37</ele>
        <time>2013-05-02T11:05:51Z</time>
      </trkpt>
      <trkpt lat="44.60938" lon="5.64047">
        <ele>1572.85</ele>
        <time>2013-05-02T11:06:10Z</time>
      </trkpt>
      <trkpt lat="44.60941" lon="5.64073">
        <ele>1572.37</ele>
        <time>2013-05-02T11:06:26Z</time>
      </trkpt>
      <trkpt lat="44.60944" lon="5.64089">
        <ele>1573.33</ele>
        <time>2013-05-02T11:06:36Z</time>
      </trkpt>
      <trkpt lat="44.60946" lon="5.64097">
        <ele>1574.3</ele>
        <time>2013-05-02T11:06:43Z</time>
      </trkpt>
      <trkpt lat="44.60947" lon="5.64105">
        <ele>1574.78</ele>
        <time>2013-05-02T11:06:56Z</time>
      </trkpt>
      <trkpt lat="44.60948" lon="5.64115">
        <ele>1573.82</ele>
        <time>2013-05-02T11:07:06Z</time>
      </trkpt>
      <trkpt lat="44.60948" lon="5.64121">
        <ele>1575.74</ele>
        <time>2013-05-02T11:07:10Z</time>
      </trkpt>
      <trkpt lat="44.60948" lon="5.64122">
        <ele>1576.7</ele>
        <time>2013-05-02T11:07:11Z</time>
      </trkpt>
      <trkpt lat="44.6095" lon="5.64124">
        <ele>1578.62</ele>
        <time>2013-05-02T11:07:13Z</time>
      </trkpt>
      <trkpt lat="44.60952" lon="5.64131">
        <ele>1576.7</ele>
        <time>2013-05-02T11:07:17Z</time>
      </trkpt>
      <trkpt lat="44.60958" lon="5.64157">
        <ele>1576.22</ele>
        <time>2013-05-02T11:07:32Z</time>
      </trkpt>
      <trkpt lat="44.60961" lon="5.64175">
        <ele>1577.18</ele>
        <time>2013-05-02T11:07:43Z</time>
      </trkpt>
      <trkpt lat="44.60965" lon="5.64199">
        <ele>1577.18</ele>
        <time>2013-05-02T11:07:59Z</time>
      </trkpt>
      <trkpt lat="44.60968" lon="5.64221">
        <ele>1577.18</ele>
        <time>2013-05-02T11:08:14Z</time>
      </trkpt>
      <trkpt lat="44.6097" lon="5.6425">
        <ele>1578.14</ele>
        <time>2013-05-02T11:08:31Z</time>
      </trkpt>
      <trkpt lat="44.60973" lon="5.64265">
        <ele>1578.14</ele>
        <time>2013-05-02T11:08:42Z</time>
      </trkpt>
      <trkpt lat="44.60974" lon="5.64289">
        <ele>1578.62</ele>
        <time>2013-05-02T11:08:57Z</time>
      </trkpt>
      <trkpt lat="44.60975" lon="5.64306">
        <ele>1580.06</ele>
        <time>2013-05-02T11:09:09Z</time>
      </trkpt>
      <trkpt lat="44.60977" lon="5.64322">
        <ele>1580.54</ele>
        <time>2013-05-02T11:09:23Z</time>
      </trkpt>
      <trkpt lat="44.60977" lon="5.64326">
        <ele>1581.03</ele>
        <time>2013-05-02T11:09:26Z</time>
      </trkpt>
      <trkpt lat="44.60976" lon="5.64335">
        <ele>1581.99</ele>
        <time>2013-05-02T11:09:34Z</time>
      </trkpt>
      <trkpt lat="44.60975" lon="5.6434">
        <ele>1581.99</ele>
        <time>2013-05-02T11:09:38Z</time>
      </trkpt>
      <trkpt lat="44.60975" lon="5.64358">
        <ele>1584.39</ele>
        <time>2013-05-02T11:09:52Z</time>
      </trkpt>
      <trkpt lat="44.60973" lon="5.64365">
        <ele>1583.91</ele>
        <time>2013-05-02T11:09:57Z</time>
      </trkpt>
      <trkpt lat="44.60968" lon="5.6439">
        <ele>1583.91</ele>
        <time>2013-05-02T11:10:13Z</time>
      </trkpt>
      <trkpt lat="44.60965" lon="5.64417">
        <ele>1585.35</ele>
        <time>2013-05-02T11:10:29Z</time>
      </trkpt>
      <trkpt lat="44.60961" lon="5.64452">
        <ele>1583.43</ele>
        <time>2013-05-02T11:10:48Z</time>
      </trkpt>
      <trkpt lat="44.60961" lon="5.64457">
        <ele>1584.87</ele>
        <time>2013-05-02T11:10:51Z</time>
      </trkpt>
      <trkpt lat="44.60961" lon="5.64463">
        <ele>1583.43</ele>
        <time>2013-05-02T11:10:54Z</time>
      </trkpt>
      <trkpt lat="44.60959" lon="5.64491">
        <ele>1582.95</ele>
        <time>2013-05-02T11:11:11Z</time>
      </trkpt>
      <trkpt lat="44.60958" lon="5.64514">
        <ele>1582.95</ele>
        <time>2013-05-02T11:11:25Z</time>
      </trkpt>
      <trkpt lat="44.60958" lon="5.64541">
        <ele>1581.03</ele>
        <time>2013-05-02T11:11:40Z</time>
      </trkpt>
      <trkpt lat="44.60961" lon="5.64566">
        <ele>1579.58</ele>
        <time>2013-05-02T11:11:56Z</time>
      </trkpt>
      <trkpt lat="44.60964" lon="5.64595">
        <ele>1577.18</ele>
        <time>2013-05-02T11:12:13Z</time>
      </trkpt>
      <trkpt lat="44.60969" lon="5.6461">
        <ele>1573.82</ele>
        <time>2013-05-02T11:12:23Z</time>
      </trkpt>
      <trkpt lat="44.60977" lon="5.6462">
        <ele>1570.93</ele>
        <time>2013-05-02T11:12:37Z</time>
      </trkpt>
      <trkpt lat="44.60984" lon="5.64626">
        <ele>1569.49</ele>
        <time>2013-05-02T11:12:51Z</time>
      </trkpt>
      <trkpt lat="44.60986" lon="5.64631">
        <ele>1567.57</ele>
        <time>2013-05-02T11:13:05Z</time>
      </trkpt>
      <trkpt lat="44.60987" lon="5.64631">
        <ele>1567.57</ele>
        <time>2013-05-02T11:13:26Z</time>
      </trkpt>
      <trkpt lat="44.60987" lon="5.64632">
        <ele>1568.05</ele>
        <time>2013-05-02T11:13:45Z</time>
      </trkpt>
      <trkpt lat="44.60988" lon="5.64629">
        <ele>1567.57</ele>
        <time>2013-05-02T11:14:10Z</time>
      </trkpt>
      <trkpt lat="44.60987" lon="5.6463">
        <ele>1567.09</ele>
        <time>2013-05-02T11:14:34Z</time>
      </trkpt>
      <trkpt lat="44.60987" lon="5.64633">
        <ele>1567.57</ele>
        <time>2013-05-02T11:14:54Z</time>
      </trkpt>
      <trkpt lat="44.60987" lon="5.64631">
        <ele>1566.12</ele>
        <time>2013-05-02T11:15:12Z</time>
      </trkpt>
      <trkpt lat="44.60987" lon="5.64631">
        <ele>1565.64</ele>
        <time>2013-05-02T11:15:13Z</time>
      </trkpt>
      <trkpt lat="44.60991" lon="5.64631">
        <ele>1565.16</ele>
        <time>2013-05-02T11:15:39Z</time>
      </trkpt>
      <trkpt lat="44.60988" lon="5.64632">
        <ele>1565.16</ele>
        <time>2013-05-02T11:16:02Z</time>
      </trkpt>
      <trkpt lat="44.60986" lon="5.64632">
        <ele>1565.16</ele>
        <time>2013-05-02T11:16:24Z</time>
      </trkpt>
      <trkpt lat="44.60986" lon="5.64631">
        <ele>1564.2</ele>
        <time>2013-05-02T11:16:51Z</time>
      </trkpt>
      <trkpt lat="44.60986" lon="5.64632">
        <ele>1565.64</ele>
        <time>2013-05-02T11:17:11Z</time>
      </trkpt>
      <trkpt lat="44.60987" lon="5.6463">
        <ele>1566.12</ele>
        <time>2013-05-02T11:17:29Z</time>
      </trkpt>
      <trkpt lat="44.60987" lon="5.64631">
        <ele>1565.64</ele>
        <time>2013-05-02T11:17:44Z</time>
      </trkpt>
      <trkpt lat="44.60989" lon="5.64629">
        <ele>1564.68</ele>
        <time>2013-05-02T11:17:59Z</time>
      </trkpt>
      <trkpt lat="44.60993" lon="5.64629">
        <ele>1564.2</ele>
        <time>2013-05-02T11:18:11Z</time>
      </trkpt>
      <trkpt lat="44.60998" lon="5.64626">
        <ele>1562.28</ele>
        <time>2013-05-02T11:18:24Z</time>
      </trkpt>
      <trkpt lat="44.61003" lon="5.64626">
        <ele>1558.92</ele>
        <time>2013-05-02T11:18:38Z</time>
      </trkpt>
      <trkpt lat="44.61008" lon="5.64627">
        <ele>1556.51</ele>
        <time>2013-05-02T11:18:52Z</time>
      </trkpt>
      <trkpt lat="44.61013" lon="5.64627">
        <ele>1554.11</ele>
        <time>2013-05-02T11:19:06Z</time>
      </trkpt>
      <trkpt lat="44.61019" lon="5.64625">
        <ele>1552.19</ele>
        <time>2013-05-02T11:19:21Z</time>
      </trkpt>
      <trkpt lat="44.61023" lon="5.64632">
        <ele>1549.78</ele>
        <time>2013-05-02T11:19:36Z</time>
      </trkpt>
      <trkpt lat="44.61028" lon="5.64634">
        <ele>1547.38</ele>
        <time>2013-05-02T11:19:51Z</time>
      </trkpt>
      <trkpt lat="44.61031" lon="5.6463">
        <ele>1545.94</ele>
        <time>2013-05-02T11:20:06Z</time>
      </trkpt>
      <trkpt lat="44.61034" lon="5.64634">
        <ele>1544.01</ele>
        <time>2013-05-02T11:20:20Z</time>
      </trkpt>
      <trkpt lat="44.61036" lon="5.6464">
        <ele>1541.61</ele>
        <time>2013-05-02T11:20:35Z</time>
      </trkpt>
      <trkpt lat="44.6104" lon="5.6464">
        <ele>1539.21</ele>
        <time>2013-05-02T11:20:49Z</time>
      </trkpt>
      <trkpt lat="44.61045" lon="5.64642">
        <ele>1536.8</ele>
        <time>2013-05-02T11:21:05Z</time>
      </trkpt>
      <trkpt lat="44.61049" lon="5.64648">
        <ele>1534.4</ele>
        <time>2013-05-02T11:21:19Z</time>
      </trkpt>
      <trkpt lat="44.61053" lon="5.64655">
        <ele>1532.48</ele>
        <time>2013-05-02T11:21:33Z</time>
      </trkpt>
      <trkpt lat="44.61059" lon="5.64652">
        <ele>1530.56</ele>
        <time>2013-05-02T11:21:47Z</time>
      </trkpt>
      <trkpt lat="44.61064" lon="5.64654">
        <ele>1527.19</ele>
        <time>2013-05-02T11:22:03Z</time>
      </trkpt>
      <trkpt lat="44.61065" lon="5.64658">
        <ele>1525.75</ele>
        <time>2013-05-02T11:22:07Z</time>
      </trkpt>
      <trkpt lat="44.61069" lon="5.64663">
        <ele>1522.87</ele>
        <time>2013-05-02T11:22:15Z</time>
      </trkpt>
      <trkpt lat="44.61075" lon="5.64666">
        <ele>1519.5</ele>
        <time>2013-05-02T11:22:26Z</time>
      </trkpt>
      <trkpt lat="44.6108" lon="5.64671">
        <ele>1517.1</ele>
        <time>2013-05-02T11:22:35Z</time>
      </trkpt>
      <trkpt lat="44.61084" lon="5.64675">
        <ele>1515.18</ele>
        <time>2013-05-02T11:22:40Z</time>
      </trkpt>
      <trkpt lat="44.61091" lon="5.64666">
        <ele>1514.21</ele>
        <time>2013-05-02T11:22:54Z</time>
      </trkpt>
      <trkpt lat="44.61096" lon="5.64661">
        <ele>1512.29</ele>
        <time>2013-05-02T11:23:08Z</time>
      </trkpt>
      <trkpt lat="44.61102" lon="5.64656">
        <ele>1510.37</ele>
        <time>2013-05-02T11:23:18Z</time>
      </trkpt>
      <trkpt lat="44.61105" lon="5.64655">
        <ele>1508.93</ele>
        <time>2013-05-02T11:23:23Z</time>
      </trkpt>
      <trkpt lat="44.61114" lon="5.64655">
        <ele>1505.08</ele>
        <time>2013-05-02T11:23:30Z</time>
      </trkpt>
      <trkpt lat="44.61119" lon="5.64652">
        <ele>1502.68</ele>
        <time>2013-05-02T11:23:33Z</time>
      </trkpt>
      <trkpt lat="44.61121" lon="5.64649">
        <ele>1501.72</ele>
        <time>2013-05-02T11:23:35Z</time>
      </trkpt>
      <trkpt lat="44.61133" lon="5.64643">
        <ele>1497.87</ele>
        <time>2013-05-02T11:23:42Z</time>
      </trkpt>
      <trkpt lat="44.6114" lon="5.64644">
        <ele>1494.51</ele>
        <time>2013-05-02T11:23:46Z</time>
      </trkpt>
      <trkpt lat="44.61146" lon="5.64644">
        <ele>1492.1</ele>
        <time>2013-05-02T11:23:50Z</time>
      </trkpt>
      <trkpt lat="44.61154" lon="5.64647">
        <ele>1489.22</ele>
        <time>2013-05-02T11:23:58Z</time>
      </trkpt>
      <trkpt lat="44.6116" lon="5.6465">
        <ele>1487.3</ele>
        <time>2013-05-02T11:24:03Z</time>
      </trkpt>
      <trkpt lat="44.61171" lon="5.64674">
        <ele>1483.93</ele>
        <time>2013-05-02T11:24:18Z</time>
      </trkpt>
      <trkpt lat="44.61171" lon="5.64675">
        <ele>1483.93</ele>
        <time>2013-05-02T11:24:19Z</time>
      </trkpt>
      <trkpt lat="44.61174" lon="5.64677">
        <ele>1482.97</ele>
        <time>2013-05-02T11:24:23Z</time>
      </trkpt>
      <trkpt lat="44.61181" lon="5.64698">
        <ele>1480.57</ele>
        <time>2013-05-02T11:24:39Z</time>
      </trkpt>
      <trkpt lat="44.61186" lon="5.6471">
        <ele>1479.61</ele>
        <time>2013-05-02T11:24:54Z</time>
      </trkpt>
      <trkpt lat="44.61185" lon="5.64709">
        <ele>1479.61</ele>
        <time>2013-05-02T11:25:20Z</time>
      </trkpt>
      <trkpt lat="44.61186" lon="5.6471">
        <ele>1480.09</ele>
        <time>2013-05-02T11:25:49Z</time>
      </trkpt>
      <trkpt lat="44.61187" lon="5.6471">
        <ele>1480.09</ele>
        <time>2013-05-02T11:26:22Z</time>
      </trkpt>
      <trkpt lat="44.61188" lon="5.64713">
        <ele>1479.61</ele>
        <time>2013-05-02T11:26:46Z</time>
      </trkpt>
      <trkpt lat="44.61191" lon="5.64717">
        <ele>1479.13</ele>
        <time>2013-05-02T11:26:52Z</time>
      </trkpt>
      <trkpt lat="44.61198" lon="5.64723">
        <ele>1478.16</ele>
        <time>2013-05-02T11:27:01Z</time>
      </trkpt>
      <trkpt lat="44.61215" lon="5.64735">
        <ele>1475.76</ele>
        <time>2013-05-02T11:27:18Z</time>
      </trkpt>
      <trkpt lat="44.61228" lon="5.64749">
        <ele>1475.28</ele>
        <time>2013-05-02T11:27:35Z</time>
      </trkpt>
      <trkpt lat="44.61235" lon="5.64762">
        <ele>1474.8</ele>
        <time>2013-05-02T11:27:50Z</time>
      </trkpt>
      <trkpt lat="44.61239" lon="5.64765">
        <ele>1474.32</ele>
        <time>2013-05-02T11:28:03Z</time>
      </trkpt>
      <trkpt lat="44.61239" lon="5.6477">
        <ele>1474.32</ele>
        <time>2013-05-02T11:28:17Z</time>
      </trkpt>
      <trkpt lat="44.61244" lon="5.64779">
        <ele>1474.32</ele>
        <time>2013-05-02T11:28:32Z</time>
      </trkpt>
      <trkpt lat="44.61249" lon="5.64791">
        <ele>1473.84</ele>
        <time>2013-05-02T11:28:47Z</time>
      </trkpt>
      <trkpt lat="44.61253" lon="5.64807">
        <ele>1472.88</ele>
        <time>2013-05-02T11:29:01Z</time>
      </trkpt>
      <trkpt lat="44.61254" lon="5.64817">
        <ele>1471.92</ele>
        <time>2013-05-02T11:29:10Z</time>
      </trkpt>
      <trkpt lat="44.61257" lon="5.64836">
        <ele>1469.99</ele>
        <time>2013-05-02T11:29:25Z</time>
      </trkpt>
      <trkpt lat="44.6126" lon="5.64854">
        <ele>1466.63</ele>
        <time>2013-05-02T11:29:40Z</time>
      </trkpt>
      <trkpt lat="44.61266" lon="5.64861">
        <ele>1466.63</ele>
        <time>2013-05-02T11:29:48Z</time>
      </trkpt>
      <trkpt lat="44.61269" lon="5.64865">
        <ele>1464.71</ele>
        <time>2013-05-02T11:29:51Z</time>
      </trkpt>
      <trkpt lat="44.61272" lon="5.6488">
        <ele>1462.78</ele>
        <time>2013-05-02T11:30:06Z</time>
      </trkpt>
      <trkpt lat="44.6127" lon="5.64883">
        <ele>1461.82</ele>
        <time>2013-05-02T11:30:11Z</time>
      </trkpt>
      <trkpt lat="44.6126" lon="5.64879">
        <ele>1458.46</ele>
        <time>2013-05-02T11:30:23Z</time>
      </trkpt>
      <trkpt lat="44.61257" lon="5.6488">
        <ele>1457.98</ele>
        <time>2013-05-02T11:30:26Z</time>
      </trkpt>
      <trkpt lat="44.61253" lon="5.64886">
        <ele>1456.53</ele>
        <time>2013-05-02T11:30:35Z</time>
      </trkpt>
      <trkpt lat="44.61252" lon="5.64887">
        <ele>1456.53</ele>
        <time>2013-05-02T11:30:37Z</time>
      </trkpt>
      <trkpt lat="44.61249" lon="5.64896">
        <ele>1455.09</ele>
        <time>2013-05-02T11:30:45Z</time>
      </trkpt>
      <trkpt lat="44.61241" lon="5.64902">
        <ele>1451.73</ele>
        <time>2013-05-02T11:30:55Z</time>
      </trkpt>
      <trkpt lat="44.61238" lon="5.64901">
        <ele>1451.25</ele>
        <time>2013-05-02T11:30:58Z</time>
      </trkpt>
      <trkpt lat="44.61231" lon="5.64898">
        <ele>1448.36</ele>
        <time>2013-05-02T11:31:12Z</time>
      </trkpt>
      <trkpt lat="44.61219" lon="5.64893">
        <ele>1446.44</ele>
        <time>2013-05-02T11:31:25Z</time>
      </trkpt>
      <trkpt lat="44.61211" lon="5.64905">
        <ele>1444.04</ele>
        <time>2013-05-02T11:31:38Z</time>
      </trkpt>
      <trkpt lat="44.61207" lon="5.64924">
        <ele>1440.67</ele>
        <time>2013-05-02T11:31:52Z</time>
      </trkpt>
      <trkpt lat="44.61203" lon="5.6493">
        <ele>1439.23</ele>
        <time>2013-05-02T11:32:00Z</time>
      </trkpt>
      <trkpt lat="44.61196" lon="5.64947">
        <ele>1435.87</ele>
        <time>2013-05-02T11:32:14Z</time>
      </trkpt>
      <trkpt lat="44.61196" lon="5.64949">
        <ele>1435.39</ele>
        <time>2013-05-02T11:32:15Z</time>
      </trkpt>
      <trkpt lat="44.61194" lon="5.64953">
        <ele>1434.42</ele>
        <time>2013-05-02T11:32:19Z</time>
      </trkpt>
      <trkpt lat="44.61189" lon="5.64967">
        <ele>1432.98</ele>
        <time>2013-05-02T11:32:28Z</time>
      </trkpt>
      <trkpt lat="44.61183" lon="5.64988">
        <ele>1430.58</ele>
        <time>2013-05-02T11:32:45Z</time>
      </trkpt>
      <trkpt lat="44.61183" lon="5.65003">
        <ele>1427.7</ele>
        <time>2013-05-02T11:32:58Z</time>
      </trkpt>
      <trkpt lat="44.61185" lon="5.65008">
        <ele>1426.25</ele>
        <time>2013-05-02T11:33:02Z</time>
      </trkpt>
      <trkpt lat="44.61186" lon="5.65015">
        <ele>1424.33</ele>
        <time>2013-05-02T11:33:07Z</time>
      </trkpt>
      <trkpt lat="44.61189" lon="5.65026">
        <ele>1420.97</ele>
        <time>2013-05-02T11:33:15Z</time>
      </trkpt>
      <trkpt lat="44.61189" lon="5.65027">
        <ele>1420.97</ele>
        <time>2013-05-02T11:33:16Z</time>
      </trkpt>
      <trkpt lat="44.61187" lon="5.6504">
        <ele>1419.04</ele>
        <time>2013-05-02T11:33:30Z</time>
      </trkpt>
      <trkpt lat="44.61187" lon="5.65053">
        <ele>1417.12</ele>
        <time>2013-05-02T11:33:38Z</time>
      </trkpt>
      <trkpt lat="44.6119" lon="5.65064">
        <ele>1416.16</ele>
        <time>2013-05-02T11:33:44Z</time>
      </trkpt>
      <trkpt lat="44.61192" lon="5.65084">
        <ele>1412.79</ele>
        <time>2013-05-02T11:33:58Z</time>
      </trkpt>
      <trkpt lat="44.61192" lon="5.65099">
        <ele>1409.91</ele>
        <time>2013-05-02T11:34:10Z</time>
      </trkpt>
      <trkpt lat="44.61193" lon="5.65105">
        <ele>1408.95</ele>
        <time>2013-05-02T11:34:13Z</time>
      </trkpt>
      <trkpt lat="44.61195" lon="5.65122">
        <ele>1405.58</ele>
        <time>2013-05-02T11:34:25Z</time>
      </trkpt>
      <trkpt lat="44.61196" lon="5.65135">
        <ele>1402.22</ele>
        <time>2013-05-02T11:34:36Z</time>
      </trkpt>
      <trkpt lat="44.61198" lon="5.65149">
        <ele>1399.34</ele>
        <time>2013-05-02T11:34:50Z</time>
      </trkpt>
      <trkpt lat="44.61201" lon="5.65161">
        <ele>1396.45</ele>
        <time>2013-05-02T11:35:02Z</time>
      </trkpt>
      <trkpt lat="44.61202" lon="5.65172">
        <ele>1394.05</ele>
        <time>2013-05-02T11:35:11Z</time>
      </trkpt>
      <trkpt lat="44.61202" lon="5.65188">
        <ele>1391.65</ele>
        <time>2013-05-02T11:35:28Z</time>
      </trkpt>
      <trkpt lat="44.61204" lon="5.65198">
        <ele>1389.72</ele>
        <time>2013-05-02T11:35:45Z</time>
      </trkpt>
      <trkpt lat="44.61205" lon="5.65212">
        <ele>1387.32</ele>
        <time>2013-05-02T11:36:01Z</time>
      </trkpt>
      <trkpt lat="44.61203" lon="5.65217">
        <ele>1385.4</ele>
        <time>2013-05-02T11:36:18Z</time>
      </trkpt>
      <trkpt lat="44.61202" lon="5.65205">
        <ele>1385.4</ele>
        <time>2013-05-02T11:36:42Z</time>
      </trkpt>
      <trkpt lat="44.61198" lon="5.65203">
        <ele>1385.4</ele>
        <time>2013-05-02T11:37:05Z</time>
      </trkpt>
      <trkpt lat="44.61197" lon="5.65207">
        <ele>1385.4</ele>
        <time>2013-05-02T11:37:31Z</time>
      </trkpt>
      <trkpt lat="44.61201" lon="5.65203">
        <ele>1385.4</ele>
        <time>2013-05-02T11:38:04Z</time>
      </trkpt>
      <trkpt lat="44.61199" lon="5.65205">
        <ele>1385.88</ele>
        <time>2013-05-02T11:38:35Z</time>
      </trkpt>
      <trkpt lat="44.61204" lon="5.6521">
        <ele>1386.84</ele>
        <time>2013-05-02T11:39:01Z</time>
      </trkpt>
      <trkpt lat="44.61204" lon="5.65215">
        <ele>1386.84</ele>
        <time>2013-05-02T11:39:15Z</time>
      </trkpt>
      <trkpt lat="44.61202" lon="5.65218">
        <ele>1386.84</ele>
        <time>2013-05-02T11:39:43Z</time>
      </trkpt>
      <trkpt lat="44.61207" lon="5.65217">
        <ele>1386.36</ele>
        <time>2013-05-02T11:39:58Z</time>
      </trkpt>
      <trkpt lat="44.61207" lon="5.65221">
        <ele>1385.88</ele>
        <time>2013-05-02T11:40:16Z</time>
      </trkpt>
      <trkpt lat="44.61211" lon="5.65218">
        <ele>1385.88</ele>
        <time>2013-05-02T11:40:36Z</time>
      </trkpt>
      <trkpt lat="44.61206" lon="5.65229">
        <ele>1383.47</ele>
        <time>2013-05-02T11:40:54Z</time>
      </trkpt>
      <trkpt lat="44.61199" lon="5.65237">
        <ele>1380.11</ele>
        <time>2013-05-02T11:41:08Z</time>
      </trkpt>
      <trkpt lat="44.61195" lon="5.65245">
        <ele>1378.19</ele>
        <time>2013-05-02T11:41:17Z</time>
      </trkpt>
      <trkpt lat="44.61184" lon="5.65256">
        <ele>1375.3</ele>
        <time>2013-05-02T11:41:32Z</time>
      </trkpt>
      <trkpt lat="44.61185" lon="5.65269">
        <ele>1373.38</ele>
        <time>2013-05-02T11:41:45Z</time>
      </trkpt>
      <trkpt lat="44.61185" lon="5.65281">
        <ele>1371.46</ele>
        <time>2013-05-02T11:41:52Z</time>
      </trkpt>
      <trkpt lat="44.61191" lon="5.65293">
        <ele>1369.05</ele>
        <time>2013-05-02T11:42:02Z</time>
      </trkpt>
      <trkpt lat="44.61197" lon="5.65308">
        <ele>1365.69</ele>
        <time>2013-05-02T11:42:16Z</time>
      </trkpt>
      <trkpt lat="44.61199" lon="5.65325">
        <ele>1362.81</ele>
        <time>2013-05-02T11:42:30Z</time>
      </trkpt>
      <trkpt lat="44.61201" lon="5.65335">
        <ele>1361.36</ele>
        <time>2013-05-02T11:42:37Z</time>
      </trkpt>
      <trkpt lat="44.61203" lon="5.65347">
        <ele>1359.92</ele>
        <time>2013-05-02T11:42:45Z</time>
      </trkpt>
      <trkpt lat="44.61207" lon="5.65355">
        <ele>1358.96</ele>
        <time>2013-05-02T11:42:51Z</time>
      </trkpt>
      <trkpt lat="44.6121" lon="5.6536">
        <ele>1358</ele>
        <time>2013-05-02T11:42:55Z</time>
      </trkpt>
      <trkpt lat="44.61214" lon="5.65377">
        <ele>1356.08</ele>
        <time>2013-05-02T11:43:08Z</time>
      </trkpt>
      <trkpt lat="44.61216" lon="5.65391">
        <ele>1352.71</ele>
        <time>2013-05-02T11:43:20Z</time>
      </trkpt>
      <trkpt lat="44.61217" lon="5.65409">
        <ele>1349.35</ele>
        <time>2013-05-02T11:43:32Z</time>
      </trkpt>
      <trkpt lat="44.61221" lon="5.65418">
        <ele>1347.91</ele>
        <time>2013-05-02T11:43:40Z</time>
      </trkpt>
      <trkpt lat="44.61233" lon="5.65431">
        <ele>1345.5</ele>
        <time>2013-05-02T11:43:54Z</time>
      </trkpt>
      <trkpt lat="44.61243" lon="5.65445">
        <ele>1343.58</ele>
        <time>2013-05-02T11:44:08Z</time>
      </trkpt>
      <trkpt lat="44.61247" lon="5.65457">
        <ele>1341.66</ele>
        <time>2013-05-02T11:44:21Z</time>
      </trkpt>
      <trkpt lat="44.61248" lon="5.65467">
        <ele>1340.22</ele>
        <time>2013-05-02T11:44:37Z</time>
      </trkpt>
      <trkpt lat="44.61247" lon="5.65476">
        <ele>1338.77</ele>
        <time>2013-05-02T11:44:51Z</time>
      </trkpt>
      <trkpt lat="44.6125" lon="5.65487">
        <ele>1338.77</ele>
        <time>2013-05-02T11:45:08Z</time>
      </trkpt>
      <trkpt lat="44.61251" lon="5.65491">
        <ele>1337.33</ele>
        <time>2013-05-02T11:45:11Z</time>
      </trkpt>
      <trkpt lat="44.61255" lon="5.65506">
        <ele>1334.93</ele>
        <time>2013-05-02T11:45:25Z</time>
      </trkpt>
      <trkpt lat="44.61254" lon="5.65511">
        <ele>1333.97</ele>
        <time>2013-05-02T11:45:29Z</time>
      </trkpt>
      <trkpt lat="44.6125" lon="5.65535">
        <ele>1331.08</ele>
        <time>2013-05-02T11:45:47Z</time>
      </trkpt>
      <trkpt lat="44.61249" lon="5.65551">
        <ele>1329.64</ele>
        <time>2013-05-02T11:46:00Z</time>
      </trkpt>
      <trkpt lat="44.61251" lon="5.65572">
        <ele>1327.72</ele>
        <time>2013-05-02T11:46:16Z</time>
      </trkpt>
      <trkpt lat="44.61251" lon="5.65574">
        <ele>1327.24</ele>
        <time>2013-05-02T11:46:18Z</time>
      </trkpt>
      <trkpt lat="44.61245" lon="5.65587">
        <ele>1323.87</ele>
        <time>2013-05-02T11:46:33Z</time>
      </trkpt>
      <trkpt lat="44.6124" lon="5.656">
        <ele>1320.99</ele>
        <time>2013-05-02T11:46:45Z</time>
      </trkpt>
      <trkpt lat="44.61236" lon="5.65616">
        <ele>1318.59</ele>
        <time>2013-05-02T11:46:57Z</time>
      </trkpt>
      <trkpt lat="44.61237" lon="5.65628">
        <ele>1318.1</ele>
        <time>2013-05-02T11:47:05Z</time>
      </trkpt>
      <trkpt lat="44.61231" lon="5.65639">
        <ele>1314.74</ele>
        <time>2013-05-02T11:47:15Z</time>
      </trkpt>
      <trkpt lat="44.61223" lon="5.65657">
        <ele>1311.86</ele>
        <time>2013-05-02T11:47:29Z</time>
      </trkpt>
      <trkpt lat="44.6122" lon="5.65673">
        <ele>1309.93</ele>
        <time>2013-05-02T11:47:41Z</time>
      </trkpt>
      <trkpt lat="44.6122" lon="5.6568">
        <ele>1309.45</ele>
        <time>2013-05-02T11:47:44Z</time>
      </trkpt>
      <trkpt lat="44.61216" lon="5.65699">
        <ele>1307.53</ele>
        <time>2013-05-02T11:47:58Z</time>
      </trkpt>
      <trkpt lat="44.61216" lon="5.65718">
        <ele>1304.65</ele>
        <time>2013-05-02T11:48:12Z</time>
      </trkpt>
      <trkpt lat="44.61216" lon="5.65733">
        <ele>1301.76</ele>
        <time>2013-05-02T11:48:25Z</time>
      </trkpt>
      <trkpt lat="44.61215" lon="5.65753">
        <ele>1299.36</ele>
        <time>2013-05-02T11:48:38Z</time>
      </trkpt>
      <trkpt lat="44.61216" lon="5.65769">
        <ele>1295.99</ele>
        <time>2013-05-02T11:48:51Z</time>
      </trkpt>
      <trkpt lat="44.61218" lon="5.65787">
        <ele>1293.11</ele>
        <time>2013-05-02T11:49:05Z</time>
      </trkpt>
      <trkpt lat="44.61219" lon="5.65796">
        <ele>1293.11</ele>
        <time>2013-05-02T11:49:11Z</time>
      </trkpt>
      <trkpt lat="44.61223" lon="5.65817">
        <ele>1288.78</ele>
        <time>2013-05-02T11:49:25Z</time>
      </trkpt>
      <trkpt lat="44.61229" lon="5.65834">
        <ele>1285.9</ele>
        <time>2013-05-02T11:49:39Z</time>
      </trkpt>
      <trkpt lat="44.61231" lon="5.65845">
        <ele>1282.54</ele>
        <time>2013-05-02T11:49:50Z</time>
      </trkpt>
      <trkpt lat="44.61231" lon="5.65855">
        <ele>1280.61</ele>
        <time>2013-05-02T11:49:56Z</time>
      </trkpt>
      <trkpt lat="44.61238" lon="5.65877">
        <ele>1277.25</ele>
        <time>2013-05-02T11:50:12Z</time>
      </trkpt>
      <trkpt lat="44.61241" lon="5.65888">
        <ele>1274.36</ele>
        <time>2013-05-02T11:50:22Z</time>
      </trkpt>
      <trkpt lat="44.6124" lon="5.6589">
        <ele>1273.4</ele>
        <time>2013-05-02T11:50:24Z</time>
      </trkpt>
      <trkpt lat="44.6124" lon="5.65902">
        <ele>1270.04</ele>
        <time>2013-05-02T11:50:35Z</time>
      </trkpt>
      <trkpt lat="44.61237" lon="5.65913">
        <ele>1267.16</ele>
        <time>2013-05-02T11:50:48Z</time>
      </trkpt>
      <trkpt lat="44.61233" lon="5.65925">
        <ele>1263.79</ele>
        <time>2013-05-02T11:51:02Z</time>
      </trkpt>
      <trkpt lat="44.61231" lon="5.65939">
        <ele>1261.39</ele>
        <time>2013-05-02T11:51:14Z</time>
      </trkpt>
      <trkpt lat="44.61231" lon="5.65941">
        <ele>1260.91</ele>
        <time>2013-05-02T11:51:17Z</time>
      </trkpt>
      <trkpt lat="44.61224" lon="5.65948">
        <ele>1257.54</ele>
        <time>2013-05-02T11:51:28Z</time>
      </trkpt>
      <trkpt lat="44.61222" lon="5.65959">
        <ele>1256.1</ele>
        <time>2013-05-02T11:51:35Z</time>
      </trkpt>
      <trkpt lat="44.61224" lon="5.65981">
        <ele>1254.18</ele>
        <time>2013-05-02T11:51:50Z</time>
      </trkpt>
      <trkpt lat="44.61224" lon="5.65989">
        <ele>1252.25</ele>
        <time>2013-05-02T11:51:59Z</time>
      </trkpt>
      <trkpt lat="44.61221" lon="5.66005">
        <ele>1249.85</ele>
        <time>2013-05-02T11:52:13Z</time>
      </trkpt>
      <trkpt lat="44.61221" lon="5.66008">
        <ele>1249.37</ele>
        <time>2013-05-02T11:52:15Z</time>
      </trkpt>
      <trkpt lat="44.61211" lon="5.66023">
        <ele>1246.49</ele>
        <time>2013-05-02T11:52:33Z</time>
      </trkpt>
      <trkpt lat="44.61207" lon="5.66042">
        <ele>1243.6</ele>
        <time>2013-05-02T11:52:48Z</time>
      </trkpt>
      <trkpt lat="44.61203" lon="5.66062">
        <ele>1240.72</ele>
        <time>2013-05-02T11:53:03Z</time>
      </trkpt>
      <trkpt lat="44.61199" lon="5.6607">
        <ele>1240.24</ele>
        <time>2013-05-02T11:53:13Z</time>
      </trkpt>
      <trkpt lat="44.61188" lon="5.66079">
        <ele>1237.35</ele>
        <time>2013-05-02T11:53:29Z</time>
      </trkpt>
      <trkpt lat="44.61182" lon="5.66083">
        <ele>1237.83</ele>
        <time>2013-05-02T11:53:39Z</time>
      </trkpt>
      <trkpt lat="44.61181" lon="5.66086">
        <ele>1237.83</ele>
        <time>2013-05-02T11:53:51Z</time>
      </trkpt>
      <trkpt lat="44.61177" lon="5.66088">
        <ele>1237.83</ele>
        <time>2013-05-02T11:54:09Z</time>
      </trkpt>
      <trkpt lat="44.61174" lon="5.66088">
        <ele>1237.35</ele>
        <time>2013-05-02T11:54:30Z</time>
      </trkpt>
      <trkpt lat="44.61178" lon="5.66085">
        <ele>1236.39</ele>
        <time>2013-05-02T11:54:48Z</time>
      </trkpt>
      <trkpt lat="44.61177" lon="5.66085">
        <ele>1236.39</ele>
        <time>2013-05-02T11:55:16Z</time>
      </trkpt>
      <trkpt lat="44.61177" lon="5.66087">
        <ele>1237.83</ele>
        <time>2013-05-02T11:55:41Z</time>
      </trkpt>
      <trkpt lat="44.61173" lon="5.66085">
        <ele>1237.83</ele>
        <time>2013-05-02T11:55:56Z</time>
      </trkpt>
      <trkpt lat="44.61173" lon="5.66088">
        <ele>1237.83</ele>
        <time>2013-05-02T11:56:19Z</time>
      </trkpt>
      <trkpt lat="44.61173" lon="5.66093">
        <ele>1238.32</ele>
        <time>2013-05-02T11:56:35Z</time>
      </trkpt>
      <trkpt lat="44.6117" lon="5.66094">
        <ele>1238.32</ele>
        <time>2013-05-02T11:56:57Z</time>
      </trkpt>
      <trkpt lat="44.61171" lon="5.66095">
        <ele>1238.32</ele>
        <time>2013-05-02T11:57:12Z</time>
      </trkpt>
      <trkpt lat="44.61166" lon="5.66086">
        <ele>1238.8</ele>
        <time>2013-05-02T11:57:33Z</time>
      </trkpt>
      <trkpt lat="44.61173" lon="5.66091">
        <ele>1238.32</ele>
        <time>2013-05-02T11:57:52Z</time>
      </trkpt>
      <trkpt lat="44.61177" lon="5.66099">
        <ele>1238.8</ele>
        <time>2013-05-02T11:58:15Z</time>
      </trkpt>
      <trkpt lat="44.6117" lon="5.66099">
        <ele>1238.8</ele>
        <time>2013-05-02T11:58:29Z</time>
      </trkpt>
      <trkpt lat="44.61167" lon="5.66097">
        <ele>1238.8</ele>
        <time>2013-05-02T11:58:50Z</time>
      </trkpt>
      <trkpt lat="44.61158" lon="5.66094">
        <ele>1238.32</ele>
        <time>2013-05-02T11:59:07Z</time>
      </trkpt>
      <trkpt lat="44.61157" lon="5.66094">
        <ele>1238.32</ele>
        <time>2013-05-02T11:59:08Z</time>
      </trkpt>
      <trkpt lat="44.61149" lon="5.66104">
        <ele>1237.83</ele>
        <time>2013-05-02T11:59:22Z</time>
      </trkpt>
      <trkpt lat="44.61142" lon="5.6612">
        <ele>1235.91</ele>
        <time>2013-05-02T11:59:37Z</time>
      </trkpt>
      <trkpt lat="44.61138" lon="5.6613">
        <ele>1235.43</ele>
        <time>2013-05-02T11:59:48Z</time>
      </trkpt>
      <trkpt lat="44.61124" lon="5.66142">
        <ele>1234.95</ele>
        <time>2013-05-02T12:00:03Z</time>
      </trkpt>
      <trkpt lat="44.61114" lon="5.66154">
        <ele>1233.51</ele>
        <time>2013-05-02T12:00:17Z</time>
      </trkpt>
      <trkpt lat="44.6111" lon="5.66169">
        <ele>1231.11</ele>
        <time>2013-05-02T12:00:29Z</time>
      </trkpt>
      <trkpt lat="44.61106" lon="5.66185">
        <ele>1228.7</ele>
        <time>2013-05-02T12:00:41Z</time>
      </trkpt>
      <trkpt lat="44.61103" lon="5.66191">
        <ele>1227.74</ele>
        <time>2013-05-02T12:00:47Z</time>
      </trkpt>
      <trkpt lat="44.61099" lon="5.66196">
        <ele>1227.26</ele>
        <time>2013-05-02T12:00:53Z</time>
      </trkpt>
      <trkpt lat="44.61088" lon="5.66207">
        <ele>1224.86</ele>
        <time>2013-05-02T12:01:09Z</time>
      </trkpt>
      <trkpt lat="44.61087" lon="5.66209">
        <ele>1224.38</ele>
        <time>2013-05-02T12:01:11Z</time>
      </trkpt>
      <trkpt lat="44.61081" lon="5.66215">
        <ele>1223.42</ele>
        <time>2013-05-02T12:01:17Z</time>
      </trkpt>
      <trkpt lat="44.61081" lon="5.66218">
        <ele>1223.42</ele>
        <time>2013-05-02T12:01:19Z</time>
      </trkpt>
      <trkpt lat="44.61081" lon="5.66222">
        <ele>1222.93</ele>
        <time>2013-05-02T12:01:21Z</time>
      </trkpt>
      <trkpt lat="44.6108" lon="5.66225">
        <ele>1222.45</ele>
        <time>2013-05-02T12:01:23Z</time>
      </trkpt>
      <trkpt lat="44.61079" lon="5.66228">
        <ele>1221.97</ele>
        <time>2013-05-02T12:01:25Z</time>
      </trkpt>
      <trkpt lat="44.61074" lon="5.66247">
        <ele>1221.01</ele>
        <time>2013-05-02T12:01:37Z</time>
      </trkpt>
      <trkpt lat="44.6106" lon="5.66258">
        <ele>1220.05</ele>
        <time>2013-05-02T12:01:53Z</time>
      </trkpt>
      <trkpt lat="44.61055" lon="5.6626">
        <ele>1218.61</ele>
        <time>2013-05-02T12:01:58Z</time>
      </trkpt>
      <trkpt lat="44.61037" lon="5.66269">
        <ele>1216.69</ele>
        <time>2013-05-02T12:02:14Z</time>
      </trkpt>
      <trkpt lat="44.61023" lon="5.66275">
        <ele>1215.72</ele>
        <time>2013-05-02T12:02:27Z</time>
      </trkpt>
      <trkpt lat="44.61014" lon="5.66279">
        <ele>1215.72</ele>
        <time>2013-05-02T12:02:40Z</time>
      </trkpt>
      <trkpt lat="44.61007" lon="5.66279">
        <ele>1214.76</ele>
        <time>2013-05-02T12:02:47Z</time>
      </trkpt>
      <trkpt lat="44.60996" lon="5.66279">
        <ele>1212.84</ele>
        <time>2013-05-02T12:02:59Z</time>
      </trkpt>
      <trkpt lat="44.6098" lon="5.66284">
        <ele>1210.92</ele>
        <time>2013-05-02T12:03:14Z</time>
      </trkpt>
      <trkpt lat="44.60976" lon="5.66283">
        <ele>1210.92</ele>
        <time>2013-05-02T12:03:18Z</time>
      </trkpt>
      <trkpt lat="44.60973" lon="5.66282">
        <ele>1210.44</ele>
        <time>2013-05-02T12:03:21Z</time>
      </trkpt>
      <trkpt lat="44.60968" lon="5.66281">
        <ele>1209.96</ele>
        <time>2013-05-02T12:03:25Z</time>
      </trkpt>
      <trkpt lat="44.60961" lon="5.66279">
        <ele>1209.48</ele>
        <time>2013-05-02T12:03:38Z</time>
      </trkpt>
      <trkpt lat="44.60959" lon="5.66278">
        <ele>1209</ele>
        <time>2013-05-02T12:03:51Z</time>
      </trkpt>
      <trkpt lat="44.60952" lon="5.66275">
        <ele>1209</ele>
        <time>2013-05-02T12:03:58Z</time>
      </trkpt>
      <trkpt lat="44.60947" lon="5.66277">
        <ele>1209.48</ele>
        <time>2013-05-02T12:04:02Z</time>
      </trkpt>
      <trkpt lat="44.60944" lon="5.66278">
        <ele>1209.48</ele>
        <time>2013-05-02T12:04:05Z</time>
      </trkpt>
      <trkpt lat="44.60928" lon="5.66276">
        <ele>1209.48</ele>
        <time>2013-05-02T12:04:21Z</time>
      </trkpt>
      <trkpt lat="44.60911" lon="5.6628">
        <ele>1208.51</ele>
        <time>2013-05-02T12:04:37Z</time>
      </trkpt>
      <trkpt lat="44.609" lon="5.66286">
        <ele>1207.07</ele>
        <time>2013-05-02T12:04:49Z</time>
      </trkpt>
      <trkpt lat="44.60881" lon="5.66292">
        <ele>1204.67</ele>
        <time>2013-05-02T12:05:03Z</time>
      </trkpt>
      <trkpt lat="44.60868" lon="5.66297">
        <ele>1203.23</ele>
        <time>2013-05-02T12:05:15Z</time>
      </trkpt>
      <trkpt lat="44.60866" lon="5.66301">
        <ele>1203.23</ele>
        <time>2013-05-02T12:05:17Z</time>
      </trkpt>
      <trkpt lat="44.6086" lon="5.66307">
        <ele>1202.27</ele>
        <time>2013-05-02T12:05:26Z</time>
      </trkpt>
      <trkpt lat="44.60843" lon="5.66311">
        <ele>1202.75</ele>
        <time>2013-05-02T12:05:41Z</time>
      </trkpt>
      <trkpt lat="44.60828" lon="5.66322">
        <ele>1201.79</ele>
        <time>2013-05-02T12:05:55Z</time>
      </trkpt>
      <trkpt lat="44.60821" lon="5.6633">
        <ele>1201.3</ele>
        <time>2013-05-02T12:06:03Z</time>
      </trkpt>
      <trkpt lat="44.60813" lon="5.66354">
        <ele>1200.34</ele>
        <time>2013-05-02T12:06:17Z</time>
      </trkpt>
      <trkpt lat="44.60806" lon="5.66374">
        <ele>1199.86</ele>
        <time>2013-05-02T12:06:31Z</time>
      </trkpt>
      <trkpt lat="44.6079" lon="5.66385">
        <ele>1197.94</ele>
        <time>2013-05-02T12:06:45Z</time>
      </trkpt>
      <trkpt lat="44.6078" lon="5.66397">
        <ele>1194.58</ele>
        <time>2013-05-02T12:06:56Z</time>
      </trkpt>
      <trkpt lat="44.60766" lon="5.66404">
        <ele>1192.17</ele>
        <time>2013-05-02T12:07:10Z</time>
      </trkpt>
      <trkpt lat="44.60752" lon="5.66411">
        <ele>1189.29</ele>
        <time>2013-05-02T12:07:24Z</time>
      </trkpt>
      <trkpt lat="44.60743" lon="5.66413">
        <ele>1187.85</ele>
        <time>2013-05-02T12:07:30Z</time>
      </trkpt>
      <trkpt lat="44.60741" lon="5.66411">
        <ele>1187.37</ele>
        <time>2013-05-02T12:07:32Z</time>
      </trkpt>
      <trkpt lat="44.60731" lon="5.66407">
        <ele>1185.92</ele>
        <time>2013-05-02T12:07:41Z</time>
      </trkpt>
      <trkpt lat="44.60727" lon="5.66406">
        <ele>1185.44</ele>
        <time>2013-05-02T12:07:45Z</time>
      </trkpt>
      <trkpt lat="44.60709" lon="5.664">
        <ele>1183.52</ele>
        <time>2013-05-02T12:08:01Z</time>
      </trkpt>
      <trkpt lat="44.60705" lon="5.66401">
        <ele>1183.04</ele>
        <time>2013-05-02T12:08:04Z</time>
      </trkpt>
      <trkpt lat="44.60695" lon="5.66404">
        <ele>1182.56</ele>
        <time>2013-05-02T12:08:13Z</time>
      </trkpt>
      <trkpt lat="44.60688" lon="5.66402">
        <ele>1182.56</ele>
        <time>2013-05-02T12:08:21Z</time>
      </trkpt>
      <trkpt lat="44.60683" lon="5.66404">
        <ele>1182.56</ele>
        <time>2013-05-02T12:08:27Z</time>
      </trkpt>
      <trkpt lat="44.60681" lon="5.66405">
        <ele>1182.56</ele>
        <time>2013-05-02T12:08:30Z</time>
      </trkpt>
      <trkpt lat="44.60665" lon="5.6641">
        <ele>1182.08</ele>
        <time>2013-05-02T12:08:44Z</time>
      </trkpt>
      <trkpt lat="44.60653" lon="5.66415">
        <ele>1181.12</ele>
        <time>2013-05-02T12:08:58Z</time>
      </trkpt>
      <trkpt lat="44.60638" lon="5.66421">
        <ele>1178.23</ele>
        <time>2013-05-02T12:09:13Z</time>
      </trkpt>
      <trkpt lat="44.60625" lon="5.66426">
        <ele>1176.31</ele>
        <time>2013-05-02T12:09:25Z</time>
      </trkpt>
      <trkpt lat="44.60622" lon="5.66432">
        <ele>1175.35</ele>
        <time>2013-05-02T12:09:30Z</time>
      </trkpt>
      <trkpt lat="44.60615" lon="5.66446">
        <ele>1172.47</ele>
        <time>2013-05-02T12:09:45Z</time>
      </trkpt>
      <trkpt lat="44.60605" lon="5.6645">
        <ele>1171.98</ele>
        <time>2013-05-02T12:09:52Z</time>
      </trkpt>
      <trkpt lat="44.60603" lon="5.6645">
        <ele>1171.5</ele>
        <time>2013-05-02T12:09:53Z</time>
      </trkpt>
      <trkpt lat="44.60587" lon="5.6645">
        <ele>1170.06</ele>
        <time>2013-05-02T12:10:07Z</time>
      </trkpt>
      <trkpt lat="44.60583" lon="5.66452">
        <ele>1170.54</ele>
        <time>2013-05-02T12:10:10Z</time>
      </trkpt>
      <trkpt lat="44.60581" lon="5.6645">
        <ele>1170.06</ele>
        <time>2013-05-02T12:10:11Z</time>
      </trkpt>
      <trkpt lat="44.60565" lon="5.66441">
        <ele>1169.1</ele>
        <time>2013-05-02T12:10:27Z</time>
      </trkpt>
      <trkpt lat="44.60563" lon="5.66441">
        <ele>1168.62</ele>
        <time>2013-05-02T12:10:29Z</time>
      </trkpt>
      <trkpt lat="44.60557" lon="5.66441">
        <ele>1168.14</ele>
        <time>2013-05-02T12:10:34Z</time>
      </trkpt>
      <trkpt lat="44.60548" lon="5.6644">
        <ele>1167.66</ele>
        <time>2013-05-02T12:10:42Z</time>
      </trkpt>
      <trkpt lat="44.60535" lon="5.66434">
        <ele>1165.26</ele>
        <time>2013-05-02T12:10:54Z</time>
      </trkpt>
      <trkpt lat="44.60534" lon="5.66433">
        <ele>1164.77</ele>
        <time>2013-05-02T12:10:56Z</time>
      </trkpt>
      <trkpt lat="44.60531" lon="5.66431">
        <ele>1164.29</ele>
        <time>2013-05-02T12:11:00Z</time>
      </trkpt>
      <trkpt lat="44.60526" lon="5.66419">
        <ele>1162.37</ele>
        <time>2013-05-02T12:11:11Z</time>
      </trkpt>
      <trkpt lat="44.60524" lon="5.66409">
        <ele>1161.41</ele>
        <time>2013-05-02T12:11:18Z</time>
      </trkpt>
      <trkpt lat="44.60522" lon="5.66406">
        <ele>1161.41</ele>
        <time>2013-05-02T12:11:21Z</time>
      </trkpt>
      <trkpt lat="44.60516" lon="5.66397">
        <ele>1159.97</ele>
        <time>2013-05-02T12:11:29Z</time>
      </trkpt>
      <trkpt lat="44.60504" lon="5.6639">
        <ele>1158.53</ele>
        <time>2013-05-02T12:11:40Z</time>
      </trkpt>
      <trkpt lat="44.60499" lon="5.66391">
        <ele>1158.05</ele>
        <time>2013-05-02T12:11:44Z</time>
      </trkpt>
      <trkpt lat="44.60484" lon="5.66387">
        <ele>1159.01</ele>
        <time>2013-05-02T12:12:01Z</time>
      </trkpt>
      <trkpt lat="44.60471" lon="5.66396">
        <ele>1158.53</ele>
        <time>2013-05-02T12:12:16Z</time>
      </trkpt>
      <trkpt lat="44.60461" lon="5.66406">
        <ele>1157.56</ele>
        <time>2013-05-02T12:12:28Z</time>
      </trkpt>
      <trkpt lat="44.6046" lon="5.66405">
        <ele>1157.56</ele>
        <time>2013-05-02T12:12:29Z</time>
      </trkpt>
      <trkpt lat="44.60454" lon="5.66406">
        <ele>1156.6</ele>
        <time>2013-05-02T12:12:34Z</time>
      </trkpt>
      <trkpt lat="44.60438" lon="5.66408">
        <ele>1154.2</ele>
        <time>2013-05-02T12:12:51Z</time>
      </trkpt>
      <trkpt lat="44.60436" lon="5.66418">
        <ele>1153.72</ele>
        <time>2013-05-02T12:12:56Z</time>
      </trkpt>
      <trkpt lat="44.60434" lon="5.66445">
        <ele>1152.76</ele>
        <time>2013-05-02T12:13:10Z</time>
      </trkpt>
      <trkpt lat="44.60436" lon="5.66454">
        <ele>1152.28</ele>
        <time>2013-05-02T12:13:14Z</time>
      </trkpt>
      <trkpt lat="44.60439" lon="5.66459">
        <ele>1152.28</ele>
        <time>2013-05-02T12:13:18Z</time>
      </trkpt>
      <trkpt lat="44.60443" lon="5.66474">
        <ele>1150.35</ele>
        <time>2013-05-02T12:13:30Z</time>
      </trkpt>
      <trkpt lat="44.60441" lon="5.66484">
        <ele>1148.91</ele>
        <time>2013-05-02T12:13:42Z</time>
      </trkpt>
      <trkpt lat="44.60441" lon="5.66488">
        <ele>1148.91</ele>
        <time>2013-05-02T12:13:59Z</time>
      </trkpt>
      <trkpt lat="44.60441" lon="5.66489">
        <ele>1148.91</ele>
        <time>2013-05-02T12:14:15Z</time>
      </trkpt>
      <trkpt lat="44.6044" lon="5.66491">
        <ele>1148.43</ele>
        <time>2013-05-02T12:14:32Z</time>
      </trkpt>
      <trkpt lat="44.60441" lon="5.66496">
        <ele>1148.43</ele>
        <time>2013-05-02T12:14:38Z</time>
      </trkpt>
      <trkpt lat="44.60441" lon="5.66509">
        <ele>1147.95</ele>
        <time>2013-05-02T12:14:50Z</time>
      </trkpt>
      <trkpt lat="44.60442" lon="5.66519">
        <ele>1146.99</ele>
        <time>2013-05-02T12:15:03Z</time>
      </trkpt>
      <trkpt lat="44.60441" lon="5.66525">
        <ele>1146.99</ele>
        <time>2013-05-02T12:15:14Z</time>
      </trkpt>
      <trkpt lat="44.60433" lon="5.66535">
        <ele>1146.03</ele>
        <time>2013-05-02T12:15:29Z</time>
      </trkpt>
      <trkpt lat="44.6043" lon="5.66537">
        <ele>1146.03</ele>
        <time>2013-05-02T12:15:43Z</time>
      </trkpt>
      <trkpt lat="44.60425" lon="5.66545">
        <ele>1145.07</ele>
        <time>2013-05-02T12:15:57Z</time>
      </trkpt>
      <trkpt lat="44.60425" lon="5.66551">
        <ele>1144.59</ele>
        <time>2013-05-02T12:16:10Z</time>
      </trkpt>
      <trkpt lat="44.60418" lon="5.66558">
        <ele>1144.11</ele>
        <time>2013-05-02T12:16:22Z</time>
      </trkpt>
      <trkpt lat="44.60411" lon="5.66567">
        <ele>1143.14</ele>
        <time>2013-05-02T12:16:34Z</time>
      </trkpt>
      <trkpt lat="44.60395" lon="5.66576">
        <ele>1142.66</ele>
        <time>2013-05-02T12:16:50Z</time>
      </trkpt>
      <trkpt lat="44.60393" lon="5.66578">
        <ele>1142.66</ele>
        <time>2013-05-02T12:16:53Z</time>
      </trkpt>
      <trkpt lat="44.60391" lon="5.66579">
        <ele>1142.66</ele>
        <time>2013-05-02T12:16:55Z</time>
      </trkpt>
      <trkpt lat="44.60378" lon="5.66587">
        <ele>1141.7</ele>
        <time>2013-05-02T12:17:10Z</time>
      </trkpt>
      <trkpt lat="44.60375" lon="5.66597">
        <ele>1142.18</ele>
        <time>2013-05-02T12:17:25Z</time>
      </trkpt>
      <trkpt lat="44.60373" lon="5.66597">
        <ele>1142.18</ele>
        <time>2013-05-02T12:17:39Z</time>
      </trkpt>
      <trkpt lat="44.6037" lon="5.666">
        <ele>1142.18</ele>
        <time>2013-05-02T12:18:04Z</time>
      </trkpt>
      <trkpt lat="44.60371" lon="5.66592">
        <ele>1142.66</ele>
        <time>2013-05-02T12:18:24Z</time>
      </trkpt>
      <trkpt lat="44.60372" lon="5.6659">
        <ele>1142.18</ele>
        <time>2013-05-02T12:18:55Z</time>
      </trkpt>
      <trkpt lat="44.60371" lon="5.66588">
        <ele>1142.18</ele>
        <time>2013-05-02T12:19:10Z</time>
      </trkpt>
      <trkpt lat="44.60371" lon="5.66581">
        <ele>1142.18</ele>
        <time>2013-05-02T12:19:27Z</time>
      </trkpt>
      <trkpt lat="44.60367" lon="5.66593">
        <ele>1142.18</ele>
        <time>2013-05-02T12:19:53Z</time>
      </trkpt>
      <trkpt lat="44.60363" lon="5.66602">
        <ele>1141.7</ele>
        <time>2013-05-02T12:20:07Z</time>
      </trkpt>
      <trkpt lat="44.60362" lon="5.66603">
        <ele>1141.7</ele>
        <time>2013-05-02T12:20:08Z</time>
      </trkpt>
      <trkpt lat="44.60355" lon="5.66618">
        <ele>1140.74</ele>
        <time>2013-05-02T12:20:23Z</time>
      </trkpt>
      <trkpt lat="44.60353" lon="5.66624">
        <ele>1139.3</ele>
        <time>2013-05-02T12:20:30Z</time>
      </trkpt>
      <trkpt lat="44.60339" lon="5.66635">
        <ele>1136.9</ele>
        <time>2013-05-02T12:20:45Z</time>
      </trkpt>
      <trkpt lat="44.60325" lon="5.6665">
        <ele>1135.94</ele>
        <time>2013-05-02T12:20:59Z</time>
      </trkpt>
      <trkpt lat="44.60323" lon="5.66664">
        <ele>1135.45</ele>
        <time>2013-05-02T12:21:08Z</time>
      </trkpt>
      <trkpt lat="44.60322" lon="5.6668">
        <ele>1134.97</ele>
        <time>2013-05-02T12:21:17Z</time>
      </trkpt>
      <trkpt lat="44.6032" lon="5.66683">
        <ele>1134.49</ele>
        <time>2013-05-02T12:21:20Z</time>
      </trkpt>
      <trkpt lat="44.60314" lon="5.66694">
        <ele>1133.53</ele>
        <time>2013-05-02T12:21:33Z</time>
      </trkpt>
      <trkpt lat="44.60308" lon="5.66699">
        <ele>1132.57</ele>
        <time>2013-05-02T12:21:46Z</time>
      </trkpt>
      <trkpt lat="44.60307" lon="5.667">
        <ele>1132.57</ele>
        <time>2013-05-02T12:21:48Z</time>
      </trkpt>
      <trkpt lat="44.60305" lon="5.66702">
        <ele>1132.57</ele>
        <time>2013-05-02T12:21:50Z</time>
      </trkpt>
      <trkpt lat="44.60302" lon="5.6671">
        <ele>1133.05</ele>
        <time>2013-05-02T12:21:55Z</time>
      </trkpt>
      <trkpt lat="44.60294" lon="5.66737">
        <ele>1133.53</ele>
        <time>2013-05-02T12:22:13Z</time>
      </trkpt>
      <trkpt lat="44.60288" lon="5.66762">
        <ele>1133.05</ele>
        <time>2013-05-02T12:22:30Z</time>
      </trkpt>
      <trkpt lat="44.60286" lon="5.66791">
        <ele>1131.13</ele>
        <time>2013-05-02T12:22:49Z</time>
      </trkpt>
      <trkpt lat="44.60281" lon="5.66817">
        <ele>1129.21</ele>
        <time>2013-05-02T12:23:05Z</time>
      </trkpt>
      <trkpt lat="44.60274" lon="5.66837">
        <ele>1126.8</ele>
        <time>2013-05-02T12:23:20Z</time>
      </trkpt>
      <trkpt lat="44.60264" lon="5.6686">
        <ele>1125.84</ele>
        <time>2013-05-02T12:23:38Z</time>
      </trkpt>
      <trkpt lat="44.60265" lon="5.66878">
        <ele>1125.84</ele>
        <time>2013-05-02T12:23:48Z</time>
      </trkpt>
      <trkpt lat="44.60267" lon="5.66893">
        <ele>1126.32</ele>
        <time>2013-05-02T12:23:59Z</time>
      </trkpt>
      <trkpt lat="44.60267" lon="5.66895">
        <ele>1126.8</ele>
        <time>2013-05-02T12:24:01Z</time>
      </trkpt>
      <trkpt lat="44.60266" lon="5.66907">
        <ele>1127.76</ele>
        <time>2013-05-02T12:24:09Z</time>
      </trkpt>
      <trkpt lat="44.60263" lon="5.6692">
        <ele>1128.24</ele>
        <time>2013-05-02T12:24:19Z</time>
      </trkpt>
      <trkpt lat="44.60254" lon="5.66941">
        <ele>1126.32</ele>
        <time>2013-05-02T12:24:37Z</time>
      </trkpt>
      <trkpt lat="44.60244" lon="5.66962">
        <ele>1124.4</ele>
        <time>2013-05-02T12:24:54Z</time>
      </trkpt>
      <trkpt lat="44.60235" lon="5.66981">
        <ele>1123.92</ele>
        <time>2013-05-02T12:25:10Z</time>
      </trkpt>
      <trkpt lat="44.60232" lon="5.66988">
        <ele>1122.96</ele>
        <time>2013-05-02T12:25:16Z</time>
      </trkpt>
      <trkpt lat="44.60229" lon="5.66992">
        <ele>1122.48</ele>
        <time>2013-05-02T12:25:20Z</time>
      </trkpt>
      <trkpt lat="44.60223" lon="5.6701">
        <ele>1123.92</ele>
        <time>2013-05-02T12:25:34Z</time>
      </trkpt>
      <trkpt lat="44.60218" lon="5.67027">
        <ele>1124.88</ele>
        <time>2013-05-02T12:25:48Z</time>
      </trkpt>
      <trkpt lat="44.60215" lon="5.6705">
        <ele>1126.32</ele>
        <time>2013-05-02T12:26:04Z</time>
      </trkpt>
      <trkpt lat="44.60213" lon="5.67067">
        <ele>1126.8</ele>
        <time>2013-05-02T12:26:17Z</time>
      </trkpt>
      <trkpt lat="44.60211" lon="5.67077">
        <ele>1128.24</ele>
        <time>2013-05-02T12:26:26Z</time>
      </trkpt>
      <trkpt lat="44.60211" lon="5.67081">
        <ele>1128.24</ele>
        <time>2013-05-02T12:26:28Z</time>
      </trkpt>
      <trkpt lat="44.60211" lon="5.67102">
        <ele>1129.21</ele>
        <time>2013-05-02T12:26:43Z</time>
      </trkpt>
      <trkpt lat="44.60212" lon="5.67123">
        <ele>1128.73</ele>
        <time>2013-05-02T12:26:58Z</time>
      </trkpt>
      <trkpt lat="44.60208" lon="5.67134">
        <ele>1130.65</ele>
        <time>2013-05-02T12:27:10Z</time>
      </trkpt>
      <trkpt lat="44.60203" lon="5.67134">
        <ele>1131.61</ele>
        <time>2013-05-02T12:27:23Z</time>
      </trkpt>
      <trkpt lat="44.60202" lon="5.67132">
        <ele>1131.61</ele>
        <time>2013-05-02T12:27:38Z</time>
      </trkpt>
      <trkpt lat="44.60204" lon="5.67132">
        <ele>1131.61</ele>
        <time>2013-05-02T12:27:50Z</time>
      </trkpt>
      <trkpt lat="44.60204" lon="5.67131">
        <ele>1131.61</ele>
        <time>2013-05-02T12:28:09Z</time>
      </trkpt>
      <trkpt lat="44.60202" lon="5.67131">
        <ele>1132.09</ele>
        <time>2013-05-02T12:28:37Z</time>
      </trkpt>
      <trkpt lat="44.60203" lon="5.67129">
        <ele>1132.09</ele>
        <time>2013-05-02T12:29:09Z</time>
      </trkpt>
      <trkpt lat="44.60201" lon="5.67129">
        <ele>1132.09</ele>
        <time>2013-05-02T12:29:26Z</time>
      </trkpt>
      <trkpt lat="44.60202" lon="5.6713">
        <ele>1132.09</ele>
        <time>2013-05-02T12:29:53Z</time>
      </trkpt>
      <trkpt lat="44.60203" lon="5.6713">
        <ele>1132.09</ele>
        <time>2013-05-02T12:30:26Z</time>
      </trkpt>
      <trkpt lat="44.60203" lon="5.6713">
        <ele>1132.09</ele>
        <time>2013-05-02T12:30:51Z</time>
      </trkpt>
      <trkpt lat="44.60202" lon="5.67129">
        <ele>1132.09</ele>
        <time>2013-05-02T12:31:17Z</time>
      </trkpt>
      <trkpt lat="44.60203" lon="5.6713">
        <ele>1131.13</ele>
        <time>2013-05-02T12:31:38Z</time>
      </trkpt>
      <trkpt lat="44.60204" lon="5.67133">
        <ele>1130.65</ele>
        <time>2013-05-02T12:32:08Z</time>
      </trkpt>
      <trkpt lat="44.60204" lon="5.67133">
        <ele>1131.61</ele>
        <time>2013-05-02T12:32:34Z</time>
      </trkpt>
      <trkpt lat="44.60203" lon="5.67132">
        <ele>1131.13</ele>
        <time>2013-05-02T12:32:48Z</time>
      </trkpt>
      <trkpt lat="44.60203" lon="5.67133">
        <ele>1131.61</ele>
        <time>2013-05-02T12:33:15Z</time>
      </trkpt>
      <trkpt lat="44.60203" lon="5.67132">
        <ele>1131.61</ele>
        <time>2013-05-02T12:33:33Z</time>
      </trkpt>
      <trkpt lat="44.60203" lon="5.67131">
        <ele>1131.61</ele>
        <time>2013-05-02T12:33:54Z</time>
      </trkpt>
      <trkpt lat="44.60204" lon="5.67132">
        <ele>1131.61</ele>
        <time>2013-05-02T12:34:22Z</time>
      </trkpt>
      <trkpt lat="44.60202" lon="5.67133">
        <ele>1129.69</ele>
        <time>2013-05-02T12:34:43Z</time>
      </trkpt>
      <trkpt lat="44.60201" lon="5.67136">
        <ele>1131.13</ele>
        <time>2013-05-02T12:34:51Z</time>
      </trkpt>
      <trkpt lat="44.60199" lon="5.67136">
        <ele>1131.61</ele>
        <time>2013-05-02T12:35:05Z</time>
      </trkpt>
      <trkpt lat="44.60199" lon="5.67138">
        <ele>1131.13</ele>
        <time>2013-05-02T12:35:29Z</time>
      </trkpt>
      <trkpt lat="44.60199" lon="5.67138">
        <ele>1131.13</ele>
        <time>2013-05-02T12:35:58Z</time>
      </trkpt>
      <trkpt lat="44.60191" lon="5.67146">
        <ele>1131.13</ele>
        <time>2013-05-02T12:36:10Z</time>
      </trkpt>
      <trkpt lat="44.60185" lon="5.67156">
        <ele>1131.61</ele>
        <time>2013-05-02T12:36:20Z</time>
      </trkpt>
      <trkpt lat="44.60176" lon="5.67177">
        <ele>1131.13</ele>
        <time>2013-05-02T12:36:36Z</time>
      </trkpt>
      <trkpt lat="44.60171" lon="5.67192">
        <ele>1130.65</ele>
        <time>2013-05-02T12:36:49Z</time>
      </trkpt>
      <trkpt lat="44.60165" lon="5.67208">
        <ele>1130.17</ele>
        <time>2013-05-02T12:37:04Z</time>
      </trkpt>
      <trkpt lat="44.60162" lon="5.67215">
        <ele>1131.13</ele>
        <time>2013-05-02T12:37:10Z</time>
      </trkpt>
      <trkpt lat="44.60146" lon="5.67226">
        <ele>1130.65</ele>
        <time>2013-05-02T12:37:28Z</time>
      </trkpt>
      <trkpt lat="44.60137" lon="5.67228">
        <ele>1130.65</ele>
        <time>2013-05-02T12:37:41Z</time>
      </trkpt>
      <trkpt lat="44.60126" lon="5.67231">
        <ele>1129.69</ele>
        <time>2013-05-02T12:37:57Z</time>
      </trkpt>
      <trkpt lat="44.60118" lon="5.67234">
        <ele>1129.21</ele>
        <time>2013-05-02T12:38:11Z</time>
      </trkpt>
      <trkpt lat="44.60105" lon="5.67249">
        <ele>1128.73</ele>
        <time>2013-05-02T12:38:26Z</time>
      </trkpt>
      <trkpt lat="44.60089" lon="5.67262">
        <ele>1127.76</ele>
        <time>2013-05-02T12:38:45Z</time>
      </trkpt>
      <trkpt lat="44.60072" lon="5.67276">
        <ele>1126.8</ele>
        <time>2013-05-02T12:39:02Z</time>
      </trkpt>
      <trkpt lat="44.60055" lon="5.67287">
        <ele>1125.84</ele>
        <time>2013-05-02T12:39:21Z</time>
      </trkpt>
      <trkpt lat="44.60052" lon="5.67293">
        <ele>1125.84</ele>
        <time>2013-05-02T12:39:34Z</time>
      </trkpt>
      <trkpt lat="44.60049" lon="5.67295">
        <ele>1125.36</ele>
        <time>2013-05-02T12:39:48Z</time>
      </trkpt>
      <trkpt lat="44.6004" lon="5.67301">
        <ele>1124.4</ele>
        <time>2013-05-02T12:40:03Z</time>
      </trkpt>
      <trkpt lat="44.60029" lon="5.67317">
        <ele>1125.84</ele>
        <time>2013-05-02T12:40:19Z</time>
      </trkpt>
      <trkpt lat="44.60024" lon="5.67327">
        <ele>1126.32</ele>
        <time>2013-05-02T12:40:28Z</time>
      </trkpt>
      <trkpt lat="44.60021" lon="5.67342">
        <ele>1127.76</ele>
        <time>2013-05-02T12:40:41Z</time>
      </trkpt>
      <trkpt lat="44.6002" lon="5.6735">
        <ele>1128.73</ele>
        <time>2013-05-02T12:40:48Z</time>
      </trkpt>
      <trkpt lat="44.60015" lon="5.6735">
        <ele>1129.21</ele>
        <time>2013-05-02T12:40:53Z</time>
      </trkpt>
      <trkpt lat="44.60002" lon="5.67349">
        <ele>1131.61</ele>
        <time>2013-05-02T12:41:06Z</time>
      </trkpt>
      <trkpt lat="44.5999" lon="5.67346">
        <ele>1133.05</ele>
        <time>2013-05-02T12:41:19Z</time>
      </trkpt>
      <trkpt lat="44.59983" lon="5.67348">
        <ele>1134.01</ele>
        <time>2013-05-02T12:41:27Z</time>
      </trkpt>
      <trkpt lat="44.59982" lon="5.67347">
        <ele>1134.01</ele>
        <time>2013-05-02T12:41:29Z</time>
      </trkpt>
      <trkpt lat="44.59968" lon="5.67353">
        <ele>1134.49</ele>
        <time>2013-05-02T12:41:44Z</time>
      </trkpt>
      <trkpt lat="44.59967" lon="5.67354">
        <ele>1134.49</ele>
        <time>2013-05-02T12:41:45Z</time>
      </trkpt>
      <trkpt lat="44.59953" lon="5.67371">
        <ele>1132.09</ele>
        <time>2013-05-02T12:42:05Z</time>
      </trkpt>
      <trkpt lat="44.59937" lon="5.67389">
        <ele>1129.69</ele>
        <time>2013-05-02T12:42:23Z</time>
      </trkpt>
      <trkpt lat="44.59921" lon="5.67404">
        <ele>1128.24</ele>
        <time>2013-05-02T12:42:40Z</time>
      </trkpt>
      <trkpt lat="44.59905" lon="5.6742">
        <ele>1126.32</ele>
        <time>2013-05-02T12:42:57Z</time>
      </trkpt>
      <trkpt lat="44.59899" lon="5.67426">
        <ele>1125.36</ele>
        <time>2013-05-02T12:43:04Z</time>
      </trkpt>
      <trkpt lat="44.59881" lon="5.67441">
        <ele>1123.44</ele>
        <time>2013-05-02T12:43:23Z</time>
      </trkpt>
      <trkpt lat="44.59863" lon="5.6745">
        <ele>1121.03</ele>
        <time>2013-05-02T12:43:40Z</time>
      </trkpt>
      <trkpt lat="44.5985" lon="5.67464">
        <ele>1119.11</ele>
        <time>2013-05-02T12:43:55Z</time>
      </trkpt>
      <trkpt lat="44.59837" lon="5.67481">
        <ele>1117.19</ele>
        <time>2013-05-02T12:44:09Z</time>
      </trkpt>
      <trkpt lat="44.59824" lon="5.67498">
        <ele>1114.31</ele>
        <time>2013-05-02T12:44:25Z</time>
      </trkpt>
      <trkpt lat="44.59823" lon="5.675">
        <ele>1113.82</ele>
        <time>2013-05-02T12:44:27Z</time>
      </trkpt>
      <trkpt lat="44.5981" lon="5.6751">
        <ele>1110.46</ele>
        <time>2013-05-02T12:44:43Z</time>
      </trkpt>
      <trkpt lat="44.59799" lon="5.67521">
        <ele>1107.58</ele>
        <time>2013-05-02T12:44:57Z</time>
      </trkpt>
      <trkpt lat="44.59785" lon="5.67528">
        <ele>1104.69</ele>
        <time>2013-05-02T12:45:12Z</time>
      </trkpt>
      <trkpt lat="44.59768" lon="5.67524">
        <ele>1102.29</ele>
        <time>2013-05-02T12:45:29Z</time>
      </trkpt>
      <trkpt lat="44.5975" lon="5.67517">
        <ele>1099.4</ele>
        <time>2013-05-02T12:45:47Z</time>
      </trkpt>
      <trkpt lat="44.59732" lon="5.67511">
        <ele>1097</ele>
        <time>2013-05-02T12:46:05Z</time>
      </trkpt>
      <trkpt lat="44.59713" lon="5.67504">
        <ele>1094.12</ele>
        <time>2013-05-02T12:46:23Z</time>
      </trkpt>
      <trkpt lat="44.59696" lon="5.67496">
        <ele>1091.71</ele>
        <time>2013-05-02T12:46:41Z</time>
      </trkpt>
      <trkpt lat="44.5968" lon="5.67509">
        <ele>1088.35</ele>
        <time>2013-05-02T12:46:59Z</time>
      </trkpt>
      <trkpt lat="44.59663" lon="5.67516">
        <ele>1084.99</ele>
        <time>2013-05-02T12:47:16Z</time>
      </trkpt>
      <trkpt lat="44.59646" lon="5.6753">
        <ele>1082.58</ele>
        <time>2013-05-02T12:47:34Z</time>
      </trkpt>
      <trkpt lat="44.59624" lon="5.67529">
        <ele>1080.18</ele>
        <time>2013-05-02T12:47:53Z</time>
      </trkpt>
      <trkpt lat="44.5961" lon="5.67517">
        <ele>1076.81</ele>
        <time>2013-05-02T12:48:10Z</time>
      </trkpt>
      <trkpt lat="44.59594" lon="5.67504">
        <ele>1074.41</ele>
        <time>2013-05-02T12:48:28Z</time>
      </trkpt>
      <trkpt lat="44.59582" lon="5.67482">
        <ele>1072.01</ele>
        <time>2013-05-02T12:48:47Z</time>
      </trkpt>
      <trkpt lat="44.5957" lon="5.6746">
        <ele>1069.12</ele>
        <time>2013-05-02T12:49:06Z</time>
      </trkpt>
      <trkpt lat="44.59553" lon="5.6744">
        <ele>1067.68</ele>
        <time>2013-05-02T12:49:25Z</time>
      </trkpt>
      <trkpt lat="44.59536" lon="5.67417">
        <ele>1068.16</ele>
        <time>2013-05-02T12:49:45Z</time>
      </trkpt>
      <trkpt lat="44.59529" lon="5.67407">
        <ele>1066.24</ele>
        <time>2013-05-02T12:49:55Z</time>
      </trkpt>
      <trkpt lat="44.59526" lon="5.67404">
        <ele>1065.76</ele>
        <time>2013-05-02T12:49:58Z</time>
      </trkpt>
      <trkpt lat="44.59508" lon="5.67418">
        <ele>1062.87</ele>
        <time>2013-05-02T12:50:17Z</time>
      </trkpt>
      <trkpt lat="44.59487" lon="5.67434">
        <ele>1060.47</ele>
        <time>2013-05-02T12:50:38Z</time>
      </trkpt>
      <trkpt lat="44.59472" lon="5.67447">
        <ele>1059.03</ele>
        <time>2013-05-02T12:50:55Z</time>
      </trkpt>
      <trkpt lat="44.59452" lon="5.67464">
        <ele>1057.11</ele>
        <time>2013-05-02T12:51:16Z</time>
      </trkpt>
      <trkpt lat="44.59433" lon="5.6748">
        <ele>1055.67</ele>
        <time>2013-05-02T12:51:35Z</time>
      </trkpt>
      <trkpt lat="44.59413" lon="5.67497">
        <ele>1054.22</ele>
        <time>2013-05-02T12:51:54Z</time>
      </trkpt>
      <trkpt lat="44.59392" lon="5.67506">
        <ele>1053.26</ele>
        <time>2013-05-02T12:52:14Z</time>
      </trkpt>
      <trkpt lat="44.59378" lon="5.67489">
        <ele>1052.3</ele>
        <time>2013-05-02T12:52:31Z</time>
      </trkpt>
      <trkpt lat="44.59378" lon="5.67481">
        <ele>1051.82</ele>
        <time>2013-05-02T12:52:36Z</time>
      </trkpt>
      <trkpt lat="44.59379" lon="5.67474">
        <ele>1051.34</ele>
        <time>2013-05-02T12:52:41Z</time>
      </trkpt>
      <trkpt lat="44.59381" lon="5.67437">
        <ele>1049.42</ele>
        <time>2013-05-02T12:53:04Z</time>
      </trkpt>
      <trkpt lat="44.59383" lon="5.67404">
        <ele>1047.97</ele>
        <time>2013-05-02T12:53:25Z</time>
      </trkpt>
    </trkseg>
  </trk>
</gpx>